Wetterdaten: aktuell Dienstag, 05.05.2026 10:43
Datum Zeit Temp. A. Feuchte A. Luftdruck Regen Wind Richtung Richtung ET Taupunkt Windchill Windböen Empfang
05.05.2026 10:43 22,0 °C 50 % 1009,1 hPa 0,0 l/m² 3,2 km/h (1 Bft) W-SW 247 ° 0,000 mm 11,1 °C 22,0 °C 4,8 km/h (1 Bft) 100,00 %
05.05.2026 10:42 22,0 °C 50 % 1009,1 hPa 0,0 l/m² 3,2 km/h (1 Bft) W-SW 247 ° 0,000 mm 11,1 °C 22,0 °C 4,8 km/h (1 Bft) 100,00 %
05.05.2026 10:41 22,1 °C 50 % 1009,0 hPa 0,0 l/m² 3,2 km/h (1 Bft) SW 225 ° 0,000 mm 11,2 °C 22,1 °C 6,4 km/h (2 Bft) 100,00 %
05.05.2026 10:40 22,1 °C 50 % 1009,0 hPa 0,0 l/m² 3,2 km/h (1 Bft) W-SW 247 ° 0,000 mm 11,2 °C 22,1 °C 4,8 km/h (1 Bft) 100,00 %
05.05.2026 10:39 22,1 °C 50 % 1009,0 hPa 0,0 l/m² 4,8 km/h (1 Bft) W-SW 247 ° 0,000 mm 11,2 °C 22,1 °C 6,4 km/h (2 Bft) 100,00 %
05.05.2026 10:38 22,1 °C 50 % 1009,0 hPa 0,0 l/m² 4,8 km/h (1 Bft) W-SW 247 ° 0,000 mm 11,2 °C 22,1 °C 6,4 km/h (2 Bft) 100,00 %
05.05.2026 10:37 21,9 °C 50 % 1009,0 hPa 0,0 l/m² 0,0 km/h (0 Bft) W-SW 247 ° 0,000 mm 11,0 °C 21,9 °C 1,6 km/h (1 Bft) 100,00 %
05.05.2026 10:36 21,8 °C 51 % 1008,9 hPa 0,0 l/m² 1,6 km/h (1 Bft) W-SW 247 ° 0,000 mm 11,2 °C 21,8 °C 3,2 km/h (1 Bft) 100,00 %
05.05.2026 10:35 21,7 °C 50 % 1009,0 hPa 0,0 l/m² 1,6 km/h (1 Bft) W-SW 247 ° 0,000 mm 10,8 °C 21,7 °C 3,2 km/h (1 Bft) 100,00 %
05.05.2026 10:34 21,6 °C 50 % 1009,0 hPa 0,0 l/m² 1,6 km/h (1 Bft) SW 225 ° 0,000 mm 10,7 °C 21,6 °C 3,2 km/h (1 Bft) 100,00 %
05.05.2026 10:33 21,6 °C 50 % 1009,0 hPa 0,0 l/m² 3,2 km/h (1 Bft) SW 225 ° 0,000 mm 10,7 °C 21,6 °C 4,8 km/h (1 Bft) 100,00 %
05.05.2026 10:32 21,5 °C 50 % 1009,0 hPa 0,0 l/m² 3,2 km/h (1 Bft) W-SW 247 ° 0,000 mm 10,6 °C 21,5 °C 3,2 km/h (1 Bft) 95,65 %
05.05.2026 10:31 21,4 °C 50 % 1009,0 hPa 0,0 l/m² 1,6 km/h (1 Bft) W-SW 247 ° 0,000 mm 10,5 °C 21,4 °C 3,2 km/h (1 Bft) 100,00 %
05.05.2026 10:30 21,4 °C 50 % 1009,1 hPa 0,0 l/m² 3,2 km/h (1 Bft) SW 225 ° 0,000 mm 10,5 °C 21,4 °C 4,8 km/h (1 Bft) 100,00 %
05.05.2026 10:29 21,4 °C 50 % 1009,2 hPa 0,0 l/m² 3,2 km/h (1 Bft) W-SW 247 ° 0,000 mm 10,5 °C 21,4 °C 4,8 km/h (1 Bft) 100,00 %
05.05.2026 10:28 21,4 °C 53 % 1009,1 hPa 0,0 l/m² 3,2 km/h (1 Bft) W 270 ° 0,000 mm 11,4 °C 21,4 °C 4,8 km/h (1 Bft) 100,00 %
05.05.2026 10:27 21,4 °C 53 % 1009,1 hPa 0,0 l/m² 1,6 km/h (1 Bft) W 270 ° 0,000 mm 11,4 °C 21,4 °C 3,2 km/h (1 Bft) 95,65 %
05.05.2026 10:26 21,4 °C 53 % 1009,1 hPa 0,0 l/m² 1,6 km/h (1 Bft) W 270 ° 0,000 mm 11,4 °C 21,4 °C 3,2 km/h (1 Bft) 100,00 %
05.05.2026 10:25 21,3 °C 53 % 1009,1 hPa 0,0 l/m² 1,6 km/h (1 Bft) W 270 ° 0,000 mm 11,3 °C 21,3 °C 3,2 km/h (1 Bft) 100,00 %
05.05.2026 10:24 21,4 °C 52 % 1009,1 hPa 0,0 l/m² 3,2 km/h (1 Bft) N-NW 337 ° 0,000 mm 11,1 °C 21,4 °C 4,8 km/h (1 Bft) 100,00 %
05.05.2026 10:23 21,4 °C 52 % 1009,2 hPa 0,0 l/m² 1,6 km/h (1 Bft) W-NW 292 ° 0,000 mm 11,1 °C 21,4 °C 4,8 km/h (1 Bft) 100,00 %
05.05.2026 10:22 21,6 °C 52 % 1009,1 hPa 0,0 l/m² 3,2 km/h (1 Bft) W-NW 292 ° 0,000 mm 11,3 °C 21,6 °C 3,2 km/h (1 Bft) 100,00 %
05.05.2026 10:21 21,7 °C 51 % 1009,1 hPa 0,0 l/m² 3,2 km/h (1 Bft) W-NW 292 ° 0,000 mm 11,1 °C 21,7 °C 3,2 km/h (1 Bft) 100,00 %
05.05.2026 10:20 21,7 °C 51 % 1009,1 hPa 0,0 l/m² 3,2 km/h (1 Bft) NW 315 ° 0,000 mm 11,1 °C 21,7 °C 6,4 km/h (2 Bft) 100,00 %
05.05.2026 10:19 21,7 °C 53 % 1009,1 hPa 0,0 l/m² 1,6 km/h (1 Bft) W-SW 247 ° 0,000 mm 11,7 °C 21,7 °C 1,6 km/h (1 Bft) 100,00 %
05.05.2026 10:18 21,5 °C 52 % 1009,2 hPa 0,0 l/m² 0,0 km/h (0 Bft) W-SW 247 ° 0,000 mm 11,2 °C 21,5 °C 1,6 km/h (1 Bft) 100,00 %
05.05.2026 10:17 21,4 °C 53 % 1009,2 hPa 0,0 l/m² 0,0 km/h (0 Bft) W-SW 247 ° 0,000 mm 11,4 °C 21,4 °C 1,6 km/h (1 Bft) 95,65 %
05.05.2026 10:16 21,3 °C 54 % 1009,2 hPa 0,0 l/m² 0,0 km/h (0 Bft) W-SW 247 ° 0,000 mm 11,6 °C 21,3 °C 1,6 km/h (1 Bft) 100,00 %
05.05.2026 10:15 21,2 °C 54 % 1009,3 hPa 0,0 l/m² 1,6 km/h (1 Bft) W-SW 247 ° 0,000 mm 11,5 °C 21,2 °C 3,2 km/h (1 Bft) 100,00 %
05.05.2026 10:14 21,1 °C 53 % 1009,2 hPa 0,0 l/m² 0,0 km/h (0 Bft) N 0 ° 0,000 mm 11,1 °C 21,1 °C 0,0 km/h (0 Bft) 100,00 %
05.05.2026 10:13 21,1 °C 52 % 1009,3 hPa 0,0 l/m² 0,0 km/h (0 Bft) W 270 ° 0,000 mm 10,9 °C 21,1 °C 1,6 km/h (1 Bft) 100,00 %
05.05.2026 10:12 21,0 °C 53 % 1009,3 hPa 0,0 l/m² 3,2 km/h (1 Bft) W 270 ° 0,000 mm 11,0 °C 21,0 °C 4,8 km/h (1 Bft) 95,65 %
05.05.2026 10:11 20,9 °C 53 % 1009,3 hPa 0,0 l/m² 1,6 km/h (1 Bft) W-SW 247 ° 0,000 mm 11,0 °C 20,9 °C 3,2 km/h (1 Bft) 100,00 %
05.05.2026 10:10 20,9 °C 53 % 1009,4 hPa 0,0 l/m² 1,6 km/h (1 Bft) W-SW 247 ° 0,000 mm 11,0 °C 20,9 °C 3,2 km/h (1 Bft) 100,00 %
05.05.2026 10:09 20,8 °C 53 % 1009,3 hPa 0,0 l/m² 4,8 km/h (1 Bft) W-SW 247 ° 0,000 mm 10,9 °C 20,8 °C 6,4 km/h (2 Bft) 100,00 %
05.05.2026 10:08 20,9 °C 53 % 1009,4 hPa 0,0 l/m² 4,8 km/h (1 Bft) W-SW 247 ° 0,000 mm 11,0 °C 20,9 °C 6,4 km/h (2 Bft) 100,00 %
05.05.2026 10:07 20,9 °C 53 % 1009,4 hPa 0,0 l/m² 4,8 km/h (1 Bft) W-SW 247 ° 0,000 mm 11,0 °C 20,9 °C 8,0 km/h (2 Bft) 100,00 %
05.05.2026 10:06 20,9 °C 54 % 1009,3 hPa 0,0 l/m² 3,2 km/h (1 Bft) W 270 ° 0,000 mm 11,2 °C 20,9 °C 8,0 km/h (2 Bft) 100,00 %
05.05.2026 10:05 20,9 °C 54 % 1009,5 hPa 0,0 l/m² 3,2 km/h (1 Bft) W-SW 247 ° 0,000 mm 11,2 °C 20,9 °C 3,2 km/h (1 Bft) 100,00 %
05.05.2026 10:04 20,9 °C 54 % 1009,4 hPa 0,0 l/m² 1,6 km/h (1 Bft) W-SW 247 ° 0,000 mm 11,2 °C 20,9 °C 3,2 km/h (1 Bft) 100,00 %
05.05.2026 10:03 20,8 °C 54 % 1009,4 hPa 0,0 l/m² 1,6 km/h (1 Bft) W-SW 247 ° 0,000 mm 11,1 °C 20,8 °C 1,6 km/h (1 Bft) 95,65 %
05.05.2026 10:02 20,8 °C 54 % 1009,5 hPa 0,0 l/m² 1,6 km/h (1 Bft) W-SW 247 ° 0,000 mm 11,1 °C 20,8 °C 3,2 km/h (1 Bft) 100,00 %
05.05.2026 10:01 20,7 °C 55 % 1009,5 hPa 0,0 l/m² 0,0 km/h (0 Bft) SW 225 ° 0,000 mm 11,3 °C 20,7 °C 1,6 km/h (1 Bft) 100,00 %
05.05.2026 10:00 20,6 °C 54 % 1009,5 hPa 0,0 l/m² 1,6 km/h (1 Bft) SW 225 ° 0,000 mm 11,0 °C 20,6 °C 3,2 km/h (1 Bft) 100,00 %
05.05.2026 09:59 20,6 °C 55 % 1009,4 hPa 0,0 l/m² 4,8 km/h (1 Bft) SW 225 ° 0,000 mm 11,2 °C 20,6 °C 6,4 km/h (2 Bft) 100,00 %
05.05.2026 09:58 20,6 °C 54 % 1009,5 hPa 0,0 l/m² 1,6 km/h (1 Bft) W-SW 247 ° 0,000 mm 11,0 °C 20,6 °C 4,8 km/h (1 Bft) 100,00 %
05.05.2026 09:57 20,6 °C 54 % 1009,5 hPa 0,0 l/m² 3,2 km/h (1 Bft) W-SW 247 ° 0,000 mm 11,0 °C 20,6 °C 4,8 km/h (1 Bft) 100,00 %
05.05.2026 09:56 20,6 °C 54 % 1009,5 hPa 0,0 l/m² 3,2 km/h (1 Bft) W-SW 247 ° 0,000 mm 11,0 °C 20,6 °C 4,8 km/h (1 Bft) 100,00 %
05.05.2026 09:55 20,6 °C 53 % 1009,5 hPa 0,0 l/m² 4,8 km/h (1 Bft) W-SW 247 ° 0,000 mm 10,7 °C 20,6 °C 4,8 km/h (1 Bft) 100,00 %
05.05.2026 09:54 20,7 °C 53 % 1009,5 hPa 0,0 l/m² 4,8 km/h (1 Bft) W-SW 247 ° 0,000 mm 10,8 °C 20,7 °C 6,4 km/h (2 Bft) 100,00 %
05.05.2026 09:53 20,8 °C 54 % 1009,5 hPa 0,0 l/m² 3,2 km/h (1 Bft) W-SW 247 ° 0,000 mm 11,1 °C 20,8 °C 4,8 km/h (1 Bft) 100,00 %
05.05.2026 09:52 20,9 °C 54 % 1009,5 hPa 0,0 l/m² 4,8 km/h (1 Bft) SW 225 ° 0,000 mm 11,2 °C 20,9 °C 6,4 km/h (2 Bft) 100,00 %
05.05.2026 09:51 20,9 °C 54 % 1009,5 hPa 0,0 l/m² 3,2 km/h (1 Bft) W-SW 247 ° 0,000 mm 11,2 °C 20,9 °C 4,8 km/h (1 Bft) 95,65 %
05.05.2026 09:50 20,8 °C 55 % 1009,5 hPa 0,0 l/m² 1,6 km/h (1 Bft) W-SW 247 ° 0,000 mm 11,4 °C 20,8 °C 3,2 km/h (1 Bft) 100,00 %
05.05.2026 09:49 20,6 °C 55 % 1009,5 hPa 0,0 l/m² 0,0 km/h (0 Bft) N 0 ° 0,000 mm 11,2 °C 20,6 °C 0,0 km/h (0 Bft) 100,00 %
05.05.2026 09:48 20,5 °C 55 % 1009,5 hPa 0,0 l/m² 1,6 km/h (1 Bft) W-SW 247 ° 0,000 mm 11,1 °C 20,5 °C 3,2 km/h (1 Bft) 95,65 %
05.05.2026 09:47 20,5 °C 54 % 1009,5 hPa 0,0 l/m² 1,6 km/h (1 Bft) W-SW 247 ° 0,000 mm 10,9 °C 20,5 °C 3,2 km/h (1 Bft) 100,00 %
05.05.2026 09:46 20,4 °C 55 % 1009,6 hPa 0,0 l/m² 1,6 km/h (1 Bft) W-SW 247 ° 0,000 mm 11,1 °C 20,4 °C 3,2 km/h (1 Bft) 100,00 %
05.05.2026 09:45 20,4 °C 55 % 1009,6 hPa 0,0 l/m² 0,0 km/h (0 Bft) W-SW 247 ° 0,000 mm 11,1 °C 20,4 °C 1,6 km/h (1 Bft) 100,00 %
05.05.2026 09:44 20,3 °C 54 % 1009,5 hPa 0,0 l/m² 0,0 km/h (0 Bft) W-SW 247 ° 0,000 mm 10,7 °C 20,3 °C 1,6 km/h (1 Bft) 100,00 %
05.05.2026 09:43 20,3 °C 55 % 1009,5 hPa 0,0 l/m² 3,2 km/h (1 Bft) W-SW 247 ° 0,000 mm 11,0 °C 20,3 °C 4,8 km/h (1 Bft) 95,65 %
05.05.2026 09:42 20,3 °C 55 % 1009,5 hPa 0,0 l/m² 1,6 km/h (1 Bft) W-SW 247 ° 0,000 mm 11,0 °C 20,3 °C 4,8 km/h (1 Bft) 100,00 %
05.05.2026 09:41 20,2 °C 55 % 1009,5 hPa 0,0 l/m² 1,6 km/h (1 Bft) W-SW 247 ° 0,000 mm 10,9 °C 20,2 °C 6,4 km/h (2 Bft) 100,00 %
05.05.2026 09:40 20,2 °C 55 % 1009,6 hPa 0,0 l/m² 3,2 km/h (1 Bft) W 270 ° 0,000 mm 10,9 °C 20,2 °C 4,8 km/h (1 Bft) 100,00 %
05.05.2026 09:39 20,2 °C 54 % 1009,7 hPa 0,0 l/m² 1,6 km/h (1 Bft) W 270 ° 0,000 mm 10,6 °C 20,2 °C 3,2 km/h (1 Bft) 100,00 %
05.05.2026 09:38 20,2 °C 54 % 1009,6 hPa 0,0 l/m² 1,6 km/h (1 Bft) W 270 ° 0,000 mm 10,6 °C 20,2 °C 3,2 km/h (1 Bft) 100,00 %
05.05.2026 09:37 20,3 °C 54 % 1009,6 hPa 0,0 l/m² 3,2 km/h (1 Bft) W 270 ° 0,000 mm 10,7 °C 20,3 °C 6,4 km/h (2 Bft) 100,00 %
05.05.2026 09:36 20,3 °C 55 % 1009,7 hPa 0,0 l/m² 1,6 km/h (1 Bft) W 270 ° 0,000 mm 11,0 °C 20,3 °C 4,8 km/h (1 Bft) 100,00 %
05.05.2026 09:35 20,3 °C 55 % 1009,6 hPa 0,0 l/m² 1,6 km/h (1 Bft) W-SW 247 ° 0,000 mm 11,0 °C 20,3 °C 1,6 km/h (1 Bft) 100,00 %
05.05.2026 09:34 20,2 °C 55 % 1009,5 hPa 0,0 l/m² 1,6 km/h (1 Bft) W-SW 247 ° 0,000 mm 10,9 °C 20,2 °C 3,2 km/h (1 Bft) 100,00 %
05.05.2026 09:33 20,1 °C 56 % 1009,6 hPa 0,0 l/m² 0,0 km/h (0 Bft) W-SW 247 ° 0,000 mm 11,0 °C 20,1 °C 3,2 km/h (1 Bft) 100,00 %
05.05.2026 09:32 20,1 °C 55 % 1009,6 hPa 0,0 l/m² 1,6 km/h (1 Bft) W-SW 247 ° 0,000 mm 10,8 °C 20,1 °C 3,2 km/h (1 Bft) 100,00 %
05.05.2026 09:31 19,9 °C 56 % 1009,5 hPa 0,0 l/m² 0,0 km/h (0 Bft) W 270 ° 0,000 mm 10,9 °C 19,9 °C 1,6 km/h (1 Bft) 100,00 %
05.05.2026 09:30 19,9 °C 56 % 1009,5 hPa 0,0 l/m² 0,0 km/h (0 Bft) W 270 ° 0,000 mm 10,9 °C 19,9 °C 1,6 km/h (1 Bft) 100,00 %
05.05.2026 09:29 20,0 °C 55 % 1009,6 hPa 0,0 l/m² 3,2 km/h (1 Bft) W 270 ° 0,000 mm 10,7 °C 20,0 °C 4,8 km/h (1 Bft) 100,00 %
05.05.2026 09:28 20,1 °C 55 % 1009,5 hPa 0,0 l/m² 4,8 km/h (1 Bft) W 270 ° 0,000 mm 10,8 °C 20,1 °C 6,4 km/h (2 Bft) 100,00 %
05.05.2026 09:27 20,2 °C 55 % 1009,5 hPa 0,0 l/m² 4,8 km/h (1 Bft) W 270 ° 0,000 mm 10,9 °C 20,2 °C 6,4 km/h (2 Bft) 100,00 %
05.05.2026 09:26 20,1 °C 56 % 1009,5 hPa 0,0 l/m² 0,0 km/h (0 Bft) W 270 ° 0,000 mm 11,0 °C 20,1 °C 1,6 km/h (1 Bft) 100,00 %
05.05.2026 09:25 20,0 °C 56 % 1009,5 hPa 0,0 l/m² 0,0 km/h (0 Bft) W 270 ° 0,000 mm 11,0 °C 20,0 °C 1,6 km/h (1 Bft) 100,00 %
05.05.2026 09:24 19,9 °C 56 % 1009,5 hPa 0,0 l/m² 1,6 km/h (1 Bft) W 270 ° 0,000 mm 10,9 °C 19,9 °C 1,6 km/h (1 Bft) 100,00 %
05.05.2026 09:23 19,8 °C 56 % 1009,5 hPa 0,0 l/m² 0,0 km/h (0 Bft) W 270 ° 0,000 mm 10,8 °C 19,8 °C 1,6 km/h (1 Bft) 100,00 %
05.05.2026 09:22 19,7 °C 56 % 1009,6 hPa 0,0 l/m² 0,0 km/h (0 Bft) N 0 ° 0,000 mm 10,7 °C 19,7 °C 0,0 km/h (0 Bft) 100,00 %
05.05.2026 09:21 19,7 °C 56 % 1009,5 hPa 0,0 l/m² 0,0 km/h (0 Bft) N 0 ° 0,000 mm 10,7 °C 19,7 °C 0,0 km/h (0 Bft) 100,00 %
05.05.2026 09:20 19,7 °C 56 % 1009,5 hPa 0,0 l/m² 0,0 km/h (0 Bft) N 0 ° 0,000 mm 10,7 °C 19,7 °C 0,0 km/h (0 Bft) 100,00 %
05.05.2026 09:19 19,6 °C 56 % 1009,4 hPa 0,0 l/m² 0,0 km/h (0 Bft) W 270 ° 0,000 mm 10,6 °C 19,6 °C 1,6 km/h (1 Bft) 100,00 %
05.05.2026 09:18 19,6 °C 56 % 1009,6 hPa 0,0 l/m² 1,6 km/h (1 Bft) W 270 ° 0,000 mm 10,6 °C 19,6 °C 1,6 km/h (1 Bft) 100,00 %
05.05.2026 09:17 19,6 °C 56 % 1009,5 hPa 0,0 l/m² 0,0 km/h (0 Bft) W 270 ° 0,000 mm 10,6 °C 19,6 °C 1,6 km/h (1 Bft) 100,00 %
05.05.2026 09:16 19,6 °C 56 % 1009,6 hPa 0,0 l/m² 0,0 km/h (0 Bft) W-NW 292 ° 0,000 mm 10,6 °C 19,6 °C 1,6 km/h (1 Bft) 100,00 %
05.05.2026 09:15 19,7 °C 56 % 1009,5 hPa 0,0 l/m² 1,6 km/h (1 Bft) W-NW 292 ° 0,000 mm 10,7 °C 19,7 °C 1,6 km/h (1 Bft) 100,00 %
05.05.2026 09:14 19,7 °C 56 % 1009,4 hPa 0,0 l/m² 1,6 km/h (1 Bft) W-NW 292 ° 0,000 mm 10,7 °C 19,7 °C 3,2 km/h (1 Bft) 95,65 %
05.05.2026 09:13 19,8 °C 56 % 1009,6 hPa 0,0 l/m² 3,2 km/h (1 Bft) W-NW 292 ° 0,000 mm 10,8 °C 19,8 °C 4,8 km/h (1 Bft) 100,00 %
05.05.2026 09:12 19,8 °C 56 % 1009,6 hPa 0,0 l/m² 3,2 km/h (1 Bft) W-NW 292 ° 0,000 mm 10,8 °C 19,8 °C 3,2 km/h (1 Bft) 100,00 %
05.05.2026 09:11 19,9 °C 56 % 1009,5 hPa 0,0 l/m² 4,8 km/h (1 Bft) W 270 ° 0,000 mm 10,9 °C 19,9 °C 6,4 km/h (2 Bft) 100,00 %
05.05.2026 09:10 19,9 °C 56 % 1009,5 hPa 0,0 l/m² 0,0 km/h (0 Bft) W-NW 292 ° 0,000 mm 10,9 °C 19,9 °C 4,8 km/h (1 Bft) 100,00 %
05.05.2026 09:09 19,8 °C 56 % 1009,6 hPa 0,0 l/m² 0,0 km/h (0 Bft) W-SW 247 ° 0,000 mm 10,8 °C 19,8 °C 1,6 km/h (1 Bft) 100,00 %
05.05.2026 09:08 19,7 °C 56 % 1009,7 hPa 0,0 l/m² 0,0 km/h (0 Bft) N 0 ° 0,000 mm 10,7 °C 19,7 °C 0,0 km/h (0 Bft) 95,65 %
05.05.2026 09:07 19,7 °C 57 % 1009,6 hPa 0,0 l/m² 0,0 km/h (0 Bft) N 0 ° 0,000 mm 10,9 °C 19,7 °C 0,0 km/h (0 Bft) 95,65 %
05.05.2026 09:06 19,7 °C 56 % 1009,6 hPa 0,0 l/m² 0,0 km/h (0 Bft) N 0 ° 0,000 mm 10,7 °C 19,7 °C 0,0 km/h (0 Bft) 100,00 %
05.05.2026 09:05 19,7 °C 56 % 1009,6 hPa 0,0 l/m² 0,0 km/h (0 Bft) N 0 ° 0,000 mm 10,7 °C 19,7 °C 0,0 km/h (0 Bft) 100,00 %
05.05.2026 09:04 19,7 °C 56 % 1009,6 hPa 0,0 l/m² 0,0 km/h (0 Bft) N 0 ° 0,000 mm 10,7 °C 19,7 °C 0,0 km/h (0 Bft) 100,00 %
05.05.2026 09:03 19,7 °C 57 % 1009,5 hPa 0,0 l/m² 0,0 km/h (0 Bft) N 0 ° 0,000 mm 10,9 °C 19,7 °C 0,0 km/h (0 Bft) 100,00 %
05.05.2026 09:02 19,6 °C 57 % 1009,7 hPa 0,0 l/m² 0,0 km/h (0 Bft) N 0 ° 0,000 mm 10,8 °C 19,6 °C 0,0 km/h (0 Bft) 100,00 %
05.05.2026 09:01 19,4 °C 57 % 1009,7 hPa 0,0 l/m² 0,0 km/h (0 Bft) N 0 ° 0,000 mm 10,7 °C 19,4 °C 0,0 km/h (0 Bft) 100,00 %
05.05.2026 09:00 19,4 °C 57 % 1009,7 hPa 0,0 l/m² 0,0 km/h (0 Bft) N 0 ° 0,000 mm 10,7 °C 19,4 °C 0,0 km/h (0 Bft) 100,00 %
05.05.2026 08:59 19,3 °C 57 % 1009,5 hPa 0,0 l/m² 0,0 km/h (0 Bft) N 0 ° 0,000 mm 10,6 °C 19,3 °C 0,0 km/h (0 Bft) 100,00 %
05.05.2026 08:58 19,4 °C 56 % 1009,7 hPa 0,0 l/m² 0,0 km/h (0 Bft) N 0 ° 0,000 mm 10,4 °C 19,4 °C 0,0 km/h (0 Bft) 95,65 %
05.05.2026 08:57 19,5 °C 56 % 1009,8 hPa 0,0 l/m² 0,0 km/h (0 Bft) N 0 ° 0,000 mm 10,5 °C 19,5 °C 0,0 km/h (0 Bft) 100,00 %
05.05.2026 08:56 19,6 °C 56 % 1009,7 hPa 0,0 l/m² 0,0 km/h (0 Bft) N 0 ° 0,000 mm 10,6 °C 19,6 °C 0,0 km/h (0 Bft) 100,00 %
05.05.2026 08:55 19,6 °C 57 % 1009,7 hPa 0,0 l/m² 0,0 km/h (0 Bft) N 0 ° 0,000 mm 10,8 °C 19,6 °C 0,0 km/h (0 Bft) 100,00 %
05.05.2026 08:54 19,6 °C 57 % 1009,7 hPa 0,0 l/m² 0,0 km/h (0 Bft) N 0 ° 0,000 mm 10,8 °C 19,6 °C 0,0 km/h (0 Bft) 100,00 %
05.05.2026 08:53 19,5 °C 57 % 1009,7 hPa 0,0 l/m² 0,0 km/h (0 Bft) N 0 ° 0,000 mm 10,8 °C 19,5 °C 0,0 km/h (0 Bft) 100,00 %
05.05.2026 08:52 19,4 °C 57 % 1009,7 hPa 0,0 l/m² 0,0 km/h (0 Bft) N 0 ° 0,000 mm 10,7 °C 19,4 °C 0,0 km/h (0 Bft) 100,00 %
05.05.2026 08:51 19,3 °C 57 % 1009,7 hPa 0,0 l/m² 0,0 km/h (0 Bft) N 0 ° 0,000 mm 10,6 °C 19,3 °C 0,0 km/h (0 Bft) 100,00 %
05.05.2026 08:50 19,2 °C 57 % 1009,8 hPa 0,0 l/m² 0,0 km/h (0 Bft) N 0 ° 0,000 mm 10,5 °C 19,2 °C 0,0 km/h (0 Bft) 100,00 %
05.05.2026 08:49 19,2 °C 57 % 1009,7 hPa 0,0 l/m² 0,0 km/h (0 Bft) N 0 ° 0,000 mm 10,5 °C 19,2 °C 0,0 km/h (0 Bft) 100,00 %
05.05.2026 08:48 19,1 °C 57 % 1009,8 hPa 0,0 l/m² 0,0 km/h (0 Bft) N 0 ° 0,000 mm 10,4 °C 19,1 °C 0,0 km/h (0 Bft) 100,00 %
05.05.2026 08:47 19,1 °C 57 % 1009,8 hPa 0,0 l/m² 0,0 km/h (0 Bft) N 0 ° 0,000 mm 10,4 °C 19,1 °C 0,0 km/h (0 Bft) 100,00 %
05.05.2026 08:46 19,1 °C 57 % 1009,8 hPa 0,0 l/m² 0,0 km/h (0 Bft) N 0 ° 0,000 mm 10,4 °C 19,1 °C 0,0 km/h (0 Bft) 100,00 %
05.05.2026 08:45 19,0 °C 57 % 1009,9 hPa 0,0 l/m² 0,0 km/h (0 Bft) N 0 ° 0,000 mm 10,3 °C 19,0 °C 0,0 km/h (0 Bft) 100,00 %
05.05.2026 08:44 18,9 °C 57 % 1009,9 hPa 0,0 l/m² 0,0 km/h (0 Bft) N 0 ° 0,000 mm 10,2 °C 18,9 °C 0,0 km/h (0 Bft) 100,00 %
05.05.2026 08:43 18,9 °C 57 % 1009,8 hPa 0,0 l/m² 0,0 km/h (0 Bft) N 0 ° 0,000 mm 10,2 °C 18,9 °C 0,0 km/h (0 Bft) 100,00 %
05.05.2026 08:42 18,9 °C 57 % 1009,8 hPa 0,0 l/m² 0,0 km/h (0 Bft) N 0 ° 0,000 mm 10,2 °C 18,9 °C 0,0 km/h (0 Bft) 100,00 %
05.05.2026 08:41 18,9 °C 57 % 1009,8 hPa 0,0 l/m² 0,0 km/h (0 Bft) N 0 ° 0,000 mm 10,2 °C 18,9 °C 0,0 km/h (0 Bft) 100,00 %
05.05.2026 08:40 18,9 °C 57 % 1009,8 hPa 0,0 l/m² 0,0 km/h (0 Bft) N 0 ° 0,000 mm 10,2 °C 18,9 °C 0,0 km/h (0 Bft) 100,00 %
05.05.2026 08:39 18,9 °C 57 % 1009,9 hPa 0,0 l/m² 0,0 km/h (0 Bft) N 0 ° 0,000 mm 10,2 °C 18,9 °C 0,0 km/h (0 Bft) 100,00 %
05.05.2026 08:38 18,9 °C 57 % 1009,9 hPa 0,0 l/m² 0,0 km/h (0 Bft) N 0 ° 0,000 mm 10,2 °C 18,9 °C 0,0 km/h (0 Bft) 100,00 %
05.05.2026 08:37 18,9 °C 57 % 1009,9 hPa 0,0 l/m² 0,0 km/h (0 Bft) N 0 ° 0,000 mm 10,2 °C 18,9 °C 0,0 km/h (0 Bft) 100,00 %
05.05.2026 08:36 18,8 °C 57 % 1009,8 hPa 0,0 l/m² 0,0 km/h (0 Bft) N 0 ° 0,000 mm 10,1 °C 18,8 °C 0,0 km/h (0 Bft) 95,65 %
05.05.2026 08:35 18,8 °C 57 % 1009,9 hPa 0,0 l/m² 0,0 km/h (0 Bft) N 0 ° 0,000 mm 10,1 °C 18,8 °C 0,0 km/h (0 Bft) 100,00 %
05.05.2026 08:34 18,8 °C 57 % 1009,9 hPa 0,0 l/m² 0,0 km/h (0 Bft) N 0 ° 0,000 mm 10,1 °C 18,8 °C 0,0 km/h (0 Bft) 100,00 %
05.05.2026 08:33 18,8 °C 57 % 1009,9 hPa 0,0 l/m² 0,0 km/h (0 Bft) N 0 ° 0,000 mm 10,1 °C 18,8 °C 0,0 km/h (0 Bft) 100,00 %
05.05.2026 08:32 18,8 °C 58 % 1009,9 hPa 0,0 l/m² 0,0 km/h (0 Bft) N 0 ° 0,000 mm 10,4 °C 18,8 °C 0,0 km/h (0 Bft) 100,00 %
05.05.2026 08:31 18,7 °C 58 % 1009,9 hPa 0,0 l/m² 0,0 km/h (0 Bft) N 0 ° 0,000 mm 10,3 °C 18,7 °C 0,0 km/h (0 Bft) 100,00 %
05.05.2026 08:30 18,6 °C 58 % 1010,0 hPa 0,0 l/m² 0,0 km/h (0 Bft) N 0 ° 0,000 mm 10,2 °C 18,6 °C 0,0 km/h (0 Bft) 100,00 %
05.05.2026 08:29 18,5 °C 59 % 1009,9 hPa 0,0 l/m² 0,0 km/h (0 Bft) N 0 ° 0,000 mm 10,3 °C 18,5 °C 0,0 km/h (0 Bft) 100,00 %
05.05.2026 08:28 18,4 °C 59 % 1009,9 hPa 0,0 l/m² 0,0 km/h (0 Bft) N 0 ° 0,000 mm 10,2 °C 18,4 °C 0,0 km/h (0 Bft) 100,00 %
05.05.2026 08:27 18,3 °C 58 % 1009,9 hPa 0,0 l/m² 0,0 km/h (0 Bft) N 0 ° 0,000 mm 9,9 °C 18,3 °C 0,0 km/h (0 Bft) 100,00 %
05.05.2026 08:26 18,2 °C 59 % 1010,0 hPa 0,0 l/m² 0,0 km/h (0 Bft) N 0 ° 0,000 mm 10,1 °C 18,2 °C 0,0 km/h (0 Bft) 100,00 %
05.05.2026 08:25 18,1 °C 59 % 1009,9 hPa 0,0 l/m² 0,0 km/h (0 Bft) N 0 ° 0,000 mm 10,0 °C 18,1 °C 0,0 km/h (0 Bft) 100,00 %
05.05.2026 08:24 18,0 °C 59 % 1010,0 hPa 0,0 l/m² 0,0 km/h (0 Bft) N 0 ° 0,000 mm 9,9 °C 18,0 °C 0,0 km/h (0 Bft) 100,00 %
05.05.2026 08:23 17,9 °C 61 % 1010,0 hPa 0,0 l/m² 0,0 km/h (0 Bft) N 0 ° 0,000 mm 10,3 °C 17,9 °C 0,0 km/h (0 Bft) 100,00 %
05.05.2026 08:22 17,8 °C 61 % 1010,0 hPa 0,0 l/m² 0,0 km/h (0 Bft) N 0 ° 0,000 mm 10,2 °C 17,8 °C 0,0 km/h (0 Bft) 100,00 %
05.05.2026 08:21 17,7 °C 61 % 1010,1 hPa 0,0 l/m² 0,0 km/h (0 Bft) N 0 ° 0,000 mm 10,1 °C 17,7 °C 0,0 km/h (0 Bft) 95,65 %
05.05.2026 08:20 17,6 °C 62 % 1010,0 hPa 0,0 l/m² 0,0 km/h (0 Bft) N 0 ° 0,000 mm 10,2 °C 17,6 °C 0,0 km/h (0 Bft) 100,00 %
05.05.2026 08:19 17,4 °C 62 % 1010,0 hPa 0,0 l/m² 0,0 km/h (0 Bft) N 0 ° 0,000 mm 10,0 °C 17,4 °C 0,0 km/h (0 Bft) 100,00 %
05.05.2026 08:18 17,3 °C 62 % 1010,1 hPa 0,0 l/m² 0,0 km/h (0 Bft) N 0 ° 0,000 mm 9,9 °C 17,3 °C 0,0 km/h (0 Bft) 100,00 %
05.05.2026 08:17 17,2 °C 62 % 1010,1 hPa 0,0 l/m² 0,0 km/h (0 Bft) N 0 ° 0,000 mm 9,9 °C 17,2 °C 0,0 km/h (0 Bft) 95,65 %
05.05.2026 08:16 17,2 °C 62 % 1010,0 hPa 0,0 l/m² 0,0 km/h (0 Bft) N 0 ° 0,000 mm 9,9 °C 17,2 °C 0,0 km/h (0 Bft) 100,00 %
05.05.2026 08:15 17,1 °C 62 % 1010,0 hPa 0,0 l/m² 0,0 km/h (0 Bft) N 0 ° 0,000 mm 9,8 °C 17,1 °C 0,0 km/h (0 Bft) 95,65 %
05.05.2026 08:14 17,1 °C 62 % 1010,0 hPa 0,0 l/m² 0,0 km/h (0 Bft) N 0 ° 0,000 mm 9,8 °C 17,1 °C 0,0 km/h (0 Bft) 100,00 %
05.05.2026 08:13 17,0 °C 62 % 1010,0 hPa 0,0 l/m² 0,0 km/h (0 Bft) N 0 ° 0,000 mm 9,7 °C 17,0 °C 0,0 km/h (0 Bft) 100,00 %
05.05.2026 08:12 16,9 °C 62 % 1010,0 hPa 0,0 l/m² 0,0 km/h (0 Bft) N 0 ° 0,000 mm 9,6 °C 16,9 °C 0,0 km/h (0 Bft) 95,65 %
05.05.2026 08:11 16,9 °C 63 % 1010,0 hPa 0,0 l/m² 0,0 km/h (0 Bft) N 0 ° 0,000 mm 9,8 °C 16,9 °C 0,0 km/h (0 Bft) 100,00 %
05.05.2026 08:10 16,9 °C 63 % 1010,1 hPa 0,0 l/m² 0,0 km/h (0 Bft) N 0 ° 0,000 mm 9,8 °C 16,9 °C 0,0 km/h (0 Bft) 100,00 %
05.05.2026 08:09 16,8 °C 63 % 1010,1 hPa 0,0 l/m² 0,0 km/h (0 Bft) N 0 ° 0,000 mm 9,7 °C 16,8 °C 0,0 km/h (0 Bft) 100,00 %
05.05.2026 08:08 16,8 °C 63 % 1010,1 hPa 0,0 l/m² 0,0 km/h (0 Bft) N 0 ° 0,000 mm 9,7 °C 16,8 °C 0,0 km/h (0 Bft) 100,00 %
05.05.2026 08:07 16,8 °C 63 % 1010,1 hPa 0,0 l/m² 0,0 km/h (0 Bft) N 0 ° 0,000 mm 9,7 °C 16,8 °C 0,0 km/h (0 Bft) 100,00 %
05.05.2026 08:06 16,8 °C 63 % 1010,0 hPa 0,0 l/m² 0,0 km/h (0 Bft) N 0 ° 0,000 mm 9,7 °C 16,8 °C 0,0 km/h (0 Bft) 100,00 %
05.05.2026 08:05 16,8 °C 63 % 1010,1 hPa 0,0 l/m² 0,0 km/h (0 Bft) N 0 ° 0,000 mm 9,7 °C 16,8 °C 0,0 km/h (0 Bft) 100,00 %
05.05.2026 08:04 16,7 °C 63 % 1010,1 hPa 0,0 l/m² 0,0 km/h (0 Bft) N 0 ° 0,000 mm 9,6 °C 16,7 °C 0,0 km/h (0 Bft) 100,00 %
05.05.2026 08:03 16,6 °C 64 % 1010,0 hPa 0,0 l/m² 0,0 km/h (0 Bft) N 0 ° 0,000 mm 9,8 °C 16,6 °C 0,0 km/h (0 Bft) 100,00 %
05.05.2026 08:02 16,5 °C 66 % 1010,0 hPa 0,0 l/m² 0,0 km/h (0 Bft) N 0 ° 0,000 mm 10,1 °C 16,5 °C 0,0 km/h (0 Bft) 95,65 %
05.05.2026 08:01 16,3 °C 66 % 1010,0 hPa 0,0 l/m² 0,0 km/h (0 Bft) N 0 ° 0,000 mm 9,9 °C 16,3 °C 0,0 km/h (0 Bft) 100,00 %
05.05.2026 08:00 16,2 °C 66 % 1010,1 hPa 0,0 l/m² 0,0 km/h (0 Bft) N 0 ° 0,000 mm 9,8 °C 16,2 °C 0,0 km/h (0 Bft) 100,00 %
05.05.2026 07:59 16,0 °C 66 % 1010,0 hPa 0,0 l/m² 0,0 km/h (0 Bft) N 0 ° 0,000 mm 9,7 °C 16,0 °C 0,0 km/h (0 Bft) 100,00 %
05.05.2026 07:58 15,9 °C 66 % 1010,1 hPa 0,0 l/m² 0,0 km/h (0 Bft) N 0 ° 0,000 mm 9,6 °C 15,9 °C 0,0 km/h (0 Bft) 100,00 %
05.05.2026 07:57 15,8 °C 67 % 1010,0 hPa 0,0 l/m² 0,0 km/h (0 Bft) N 0 ° 0,000 mm 9,7 °C 15,8 °C 0,0 km/h (0 Bft) 100,00 %
05.05.2026 07:56 15,7 °C 67 % 1010,0 hPa 0,0 l/m² 0,0 km/h (0 Bft) N 0 ° 0,000 mm 9,6 °C 15,7 °C 0,0 km/h (0 Bft) 100,00 %
05.05.2026 07:55 15,7 °C 67 % 1010,0 hPa 0,0 l/m² 0,0 km/h (0 Bft) N 0 ° 0,000 mm 9,6 °C 15,7 °C 0,0 km/h (0 Bft) 100,00 %
05.05.2026 07:54 15,6 °C 67 % 1010,1 hPa 0,0 l/m² 0,0 km/h (0 Bft) N 0 ° 0,000 mm 9,5 °C 15,6 °C 0,0 km/h (0 Bft) 100,00 %
05.05.2026 07:53 15,5 °C 67 % 1010,0 hPa 0,0 l/m² 0,0 km/h (0 Bft) N 0 ° 0,000 mm 9,4 °C 15,5 °C 0,0 km/h (0 Bft) 100,00 %
05.05.2026 07:52 15,4 °C 67 % 1010,0 hPa 0,0 l/m² 0,0 km/h (0 Bft) N 0 ° 0,000 mm 9,3 °C 15,4 °C 0,0 km/h (0 Bft) 100,00 %
05.05.2026 07:51 15,4 °C 67 % 1010,0 hPa 0,0 l/m² 0,0 km/h (0 Bft) N 0 ° 0,000 mm 9,3 °C 15,4 °C 0,0 km/h (0 Bft) 100,00 %
05.05.2026 07:50 15,3 °C 68 % 1010,0 hPa 0,0 l/m² 0,0 km/h (0 Bft) N 0 ° 0,000 mm 9,4 °C 15,3 °C 0,0 km/h (0 Bft) 95,65 %
05.05.2026 07:49 15,2 °C 68 % 1010,1 hPa 0,0 l/m² 0,0 km/h (0 Bft) N 0 ° 0,000 mm 9,3 °C 15,2 °C 0,0 km/h (0 Bft) 100,00 %
05.05.2026 07:48 15,2 °C 68 % 1010,0 hPa 0,0 l/m² 0,0 km/h (0 Bft) N 0 ° 0,000 mm 9,3 °C 15,2 °C 0,0 km/h (0 Bft) 100,00 %
05.05.2026 07:47 15,1 °C 68 % 1010,0 hPa 0,0 l/m² 0,0 km/h (0 Bft) N 0 ° 0,000 mm 9,2 °C 15,1 °C 0,0 km/h (0 Bft) 100,00 %
05.05.2026 07:46 15,0 °C 68 % 1010,1 hPa 0,0 l/m² 0,0 km/h (0 Bft) N 0 ° 0,000 mm 9,1 °C 15,0 °C 0,0 km/h (0 Bft) 100,00 %
05.05.2026 07:45 14,9 °C 68 % 1010,1 hPa 0,0 l/m² 0,0 km/h (0 Bft) N 0 ° 0,000 mm 9,0 °C 14,9 °C 0,0 km/h (0 Bft) 100,00 %
05.05.2026 07:44 14,8 °C 68 % 1010,0 hPa 0,0 l/m² 0,0 km/h (0 Bft) N 0 ° 0,000 mm 9,0 °C 14,8 °C 0,0 km/h (0 Bft) 100,00 %
05.05.2026 07:43 14,8 °C 68 % 1010,1 hPa 0,0 l/m² 0,0 km/h (0 Bft) N 0 ° 0,000 mm 9,0 °C 14,8 °C 0,0 km/h (0 Bft) 100,00 %
05.05.2026 07:42 14,7 °C 68 % 1010,1 hPa 0,0 l/m² 0,0 km/h (0 Bft) N 0 ° 0,000 mm 8,9 °C 14,7 °C 0,0 km/h (0 Bft) 95,65 %
05.05.2026 07:41 14,6 °C 69 % 1010,2 hPa 0,0 l/m² 0,0 km/h (0 Bft) N 0 ° 0,000 mm 9,0 °C 14,6 °C 0,0 km/h (0 Bft) 95,65 %
05.05.2026 07:40 14,5 °C 69 % 1010,1 hPa 0,0 l/m² 0,0 km/h (0 Bft) N 0 ° 0,000 mm 8,9 °C 14,5 °C 0,0 km/h (0 Bft) 100,00 %
05.05.2026 07:39 14,4 °C 69 % 1010,2 hPa 0,0 l/m² 0,0 km/h (0 Bft) N 0 ° 0,000 mm 8,8 °C 14,4 °C 0,0 km/h (0 Bft) 100,00 %
05.05.2026 07:38 14,3 °C 69 % 1010,1 hPa 0,0 l/m² 0,0 km/h (0 Bft) N 0 ° 0,000 mm 8,7 °C 14,3 °C 0,0 km/h (0 Bft) 100,00 %
05.05.2026 07:37 14,2 °C 70 % 1010,2 hPa 0,0 l/m² 0,0 km/h (0 Bft) N 0 ° 0,000 mm 8,8 °C 14,2 °C 0,0 km/h (0 Bft) 100,00 %
05.05.2026 07:36 14,1 °C 70 % 1010,1 hPa 0,0 l/m² 0,0 km/h (0 Bft) N 0 ° 0,000 mm 8,7 °C 14,1 °C 0,0 km/h (0 Bft) 100,00 %
05.05.2026 07:35 13,9 °C 70 % 1010,3 hPa 0,0 l/m² 0,0 km/h (0 Bft) N 0 ° 0,000 mm 8,5 °C 13,9 °C 0,0 km/h (0 Bft) 100,00 %
05.05.2026 07:34 13,8 °C 71 % 1010,2 hPa 0,0 l/m² 0,0 km/h (0 Bft) N 0 ° 0,000 mm 8,6 °C 13,8 °C 0,0 km/h (0 Bft) 100,00 %
05.05.2026 07:33 13,7 °C 71 % 1010,2 hPa 0,0 l/m² 0,0 km/h (0 Bft) N 0 ° 0,000 mm 8,5 °C 13,7 °C 0,0 km/h (0 Bft) 100,00 %
05.05.2026 07:32 13,6 °C 72 % 1010,2 hPa 0,0 l/m² 0,0 km/h (0 Bft) N 0 ° 0,000 mm 8,6 °C 13,6 °C 0,0 km/h (0 Bft) 100,00 %
05.05.2026 07:31 13,5 °C 72 % 1010,2 hPa 0,0 l/m² 0,0 km/h (0 Bft) N 0 ° 0,000 mm 8,6 °C 13,5 °C 0,0 km/h (0 Bft) 100,00 %
05.05.2026 07:30 13,4 °C 72 % 1010,1 hPa 0,0 l/m² 0,0 km/h (0 Bft) N 0 ° 0,000 mm 8,5 °C 13,4 °C 0,0 km/h (0 Bft) 100,00 %
05.05.2026 07:29 13,3 °C 73 % 1010,1 hPa 0,0 l/m² 0,0 km/h (0 Bft) N 0 ° 0,000 mm 8,6 °C 13,3 °C 0,0 km/h (0 Bft) 100,00 %
05.05.2026 07:28 13,3 °C 73 % 1010,1 hPa 0,0 l/m² 0,0 km/h (0 Bft) N 0 ° 0,000 mm 8,6 °C 13,3 °C 0,0 km/h (0 Bft) 100,00 %
05.05.2026 07:27 13,3 °C 73 % 1010,1 hPa 0,0 l/m² 0,0 km/h (0 Bft) N 0 ° 0,000 mm 8,6 °C 13,3 °C 0,0 km/h (0 Bft) 100,00 %
05.05.2026 07:26 13,2 °C 74 % 1010,1 hPa 0,0 l/m² 0,0 km/h (0 Bft) N 0 ° 0,000 mm 8,7 °C 13,2 °C 0,0 km/h (0 Bft) 100,00 %
05.05.2026 07:25 13,2 °C 74 % 1010,1 hPa 0,0 l/m² 0,0 km/h (0 Bft) N 0 ° 0,000 mm 8,7 °C 13,2 °C 0,0 km/h (0 Bft) 100,00 %
05.05.2026 07:24 13,2 °C 74 % 1010,1 hPa 0,0 l/m² 0,0 km/h (0 Bft) N 0 ° 0,000 mm 8,7 °C 13,2 °C 0,0 km/h (0 Bft) 100,00 %
05.05.2026 07:23 13,1 °C 74 % 1010,1 hPa 0,0 l/m² 0,0 km/h (0 Bft) N 0 ° 0,000 mm 8,6 °C 13,1 °C 0,0 km/h (0 Bft) 100,00 %
05.05.2026 07:22 13,1 °C 74 % 1010,1 hPa 0,0 l/m² 0,0 km/h (0 Bft) N 0 ° 0,000 mm 8,6 °C 13,1 °C 0,0 km/h (0 Bft) 95,65 %
05.05.2026 07:21 13,1 °C 74 % 1010,1 hPa 0,0 l/m² 0,0 km/h (0 Bft) N 0 ° 0,000 mm 8,6 °C 13,1 °C 0,0 km/h (0 Bft) 100,00 %
05.05.2026 07:20 12,9 °C 74 % 1010,1 hPa 0,0 l/m² 0,0 km/h (0 Bft) N 0 ° 0,000 mm 8,4 °C 12,9 °C 0,0 km/h (0 Bft) 100,00 %
05.05.2026 07:19 12,9 °C 74 % 1010,0 hPa 0,0 l/m² 0,0 km/h (0 Bft) N 0 ° 0,000 mm 8,4 °C 12,9 °C 0,0 km/h (0 Bft) 95,65 %
05.05.2026 07:18 12,8 °C 75 % 1010,1 hPa 0,0 l/m² 0,0 km/h (0 Bft) N 0 ° 0,000 mm 8,5 °C 12,8 °C 0,0 km/h (0 Bft) 100,00 %
05.05.2026 07:17 12,8 °C 75 % 1010,0 hPa 0,0 l/m² 0,0 km/h (0 Bft) N 0 ° 0,000 mm 8,5 °C 12,8 °C 0,0 km/h (0 Bft) 95,65 %
05.05.2026 07:16 12,7 °C 75 % 1010,1 hPa 0,0 l/m² 0,0 km/h (0 Bft) N 0 ° 0,000 mm 8,4 °C 12,7 °C 0,0 km/h (0 Bft) 100,00 %
05.05.2026 07:15 12,6 °C 75 % 1010,0 hPa 0,0 l/m² 0,0 km/h (0 Bft) N 0 ° 0,000 mm 8,3 °C 12,6 °C 0,0 km/h (0 Bft) 100,00 %
05.05.2026 07:14 12,6 °C 75 % 1010,1 hPa 0,0 l/m² 0,0 km/h (0 Bft) N 0 ° 0,000 mm 8,3 °C 12,6 °C 0,0 km/h (0 Bft) 100,00 %
05.05.2026 07:13 12,5 °C 76 % 1010,0 hPa 0,0 l/m² 0,0 km/h (0 Bft) N 0 ° 0,000 mm 8,4 °C 12,5 °C 0,0 km/h (0 Bft) 100,00 %
05.05.2026 07:12 12,4 °C 76 % 1010,1 hPa 0,0 l/m² 0,0 km/h (0 Bft) N 0 ° 0,000 mm 8,3 °C 12,4 °C 0,0 km/h (0 Bft) 100,00 %
05.05.2026 07:11 12,4 °C 76 % 1010,0 hPa 0,0 l/m² 0,0 km/h (0 Bft) N 0 ° 0,000 mm 8,3 °C 12,4 °C 0,0 km/h (0 Bft) 95,65 %
05.05.2026 07:10 12,3 °C 76 % 1010,0 hPa 0,0 l/m² 0,0 km/h (0 Bft) N 0 ° 0,000 mm 8,2 °C 12,3 °C 0,0 km/h (0 Bft) 100,00 %
05.05.2026 07:09 12,3 °C 77 % 1010,0 hPa 0,0 l/m² 0,0 km/h (0 Bft) N 0 ° 0,000 mm 8,4 °C 12,3 °C 0,0 km/h (0 Bft) 100,00 %
05.05.2026 07:08 12,2 °C 77 % 1010,1 hPa 0,0 l/m² 0,0 km/h (0 Bft) N 0 ° 0,000 mm 8,3 °C 12,2 °C 0,0 km/h (0 Bft) 100,00 %
05.05.2026 07:07 12,2 °C 77 % 1010,1 hPa 0,0 l/m² 0,0 km/h (0 Bft) N 0 ° 0,000 mm 8,3 °C 12,2 °C 0,0 km/h (0 Bft) 100,00 %
05.05.2026 07:06 12,1 °C 77 % 1010,1 hPa 0,0 l/m² 0,0 km/h (0 Bft) N 0 ° 0,000 mm 8,2 °C 12,1 °C 0,0 km/h (0 Bft) 100,00 %
05.05.2026 07:05 12,1 °C 77 % 1010,2 hPa 0,0 l/m² 0,0 km/h (0 Bft) N 0 ° 0,000 mm 8,2 °C 12,1 °C 0,0 km/h (0 Bft) 100,00 %
05.05.2026 07:04 12,1 °C 77 % 1010,2 hPa 0,0 l/m² 0,0 km/h (0 Bft) N 0 ° 0,000 mm 8,2 °C 12,1 °C 0,0 km/h (0 Bft) 100,00 %
05.05.2026 07:03 12,0 °C 78 % 1010,0 hPa 0,0 l/m² 0,0 km/h (0 Bft) N 0 ° 0,000 mm 8,3 °C 12,0 °C 0,0 km/h (0 Bft) 100,00 %
05.05.2026 07:02 11,9 °C 78 % 1010,1 hPa 0,0 l/m² 0,0 km/h (0 Bft) N 0 ° 0,000 mm 8,2 °C 11,9 °C 0,0 km/h (0 Bft) 100,00 %
05.05.2026 07:01 11,9 °C 78 % 1010,1 hPa 0,0 l/m² 0,0 km/h (0 Bft) N 0 ° 0,000 mm 8,2 °C 11,9 °C 0,0 km/h (0 Bft) 100,00 %
05.05.2026 07:00 11,8 °C 78 % 1010,1 hPa 0,0 l/m² 0,0 km/h (0 Bft) N 0 ° 0,000 mm 8,1 °C 11,8 °C 0,0 km/h (0 Bft) 100,00 %
05.05.2026 06:59 11,8 °C 78 % 1010,1 hPa 0,0 l/m² 0,0 km/h (0 Bft) N 0 ° 0,000 mm 8,1 °C 11,8 °C 0,0 km/h (0 Bft) 100,00 %
05.05.2026 06:58 11,7 °C 79 % 1010,1 hPa 0,0 l/m² 0,0 km/h (0 Bft) N 0 ° 0,000 mm 8,2 °C 11,7 °C 0,0 km/h (0 Bft) 100,00 %
05.05.2026 06:57 11,6 °C 79 % 1010,1 hPa 0,0 l/m² 0,0 km/h (0 Bft) N 0 ° 0,000 mm 8,1 °C 11,6 °C 0,0 km/h (0 Bft) 100,00 %
05.05.2026 06:56 11,6 °C 79 % 1010,1 hPa 0,0 l/m² 0,0 km/h (0 Bft) N 0 ° 0,000 mm 8,1 °C 11,6 °C 0,0 km/h (0 Bft) 100,00 %
05.05.2026 06:55 11,5 °C 79 % 1010,2 hPa 0,0 l/m² 0,0 km/h (0 Bft) N 0 ° 0,000 mm 8,0 °C 11,5 °C 0,0 km/h (0 Bft) 100,00 %
05.05.2026 06:54 11,4 °C 79 % 1010,1 hPa 0,0 l/m² 0,0 km/h (0 Bft) N 0 ° 0,000 mm 7,9 °C 11,4 °C 0,0 km/h (0 Bft) 100,00 %
05.05.2026 06:53 11,4 °C 79 % 1010,3 hPa 0,0 l/m² 0,0 km/h (0 Bft) N 0 ° 0,000 mm 7,9 °C 11,4 °C 0,0 km/h (0 Bft) 100,00 %
05.05.2026 06:52 11,3 °C 79 % 1010,1 hPa 0,0 l/m² 0,0 km/h (0 Bft) N 0 ° 0,000 mm 7,8 °C 11,3 °C 0,0 km/h (0 Bft) 95,65 %
05.05.2026 06:51 11,3 °C 79 % 1010,3 hPa 0,0 l/m² 0,0 km/h (0 Bft) N 0 ° 0,000 mm 7,8 °C 11,3 °C 0,0 km/h (0 Bft) 100,00 %
05.05.2026 06:50 11,3 °C 79 % 1010,1 hPa 0,0 l/m² 0,0 km/h (0 Bft) N 0 ° 0,000 mm 7,8 °C 11,3 °C 0,0 km/h (0 Bft) 95,65 %
05.05.2026 06:49 11,3 °C 79 % 1010,1 hPa 0,0 l/m² 0,0 km/h (0 Bft) N 0 ° 0,000 mm 7,8 °C 11,3 °C 0,0 km/h (0 Bft) 100,00 %
05.05.2026 06:48 11,3 °C 79 % 1010,1 hPa 0,0 l/m² 0,0 km/h (0 Bft) N 0 ° 0,000 mm 7,8 °C 11,3 °C 0,0 km/h (0 Bft) 95,65 %
05.05.2026 06:47 11,3 °C 80 % 1010,2 hPa 0,0 l/m² 0,0 km/h (0 Bft) N 0 ° 0,000 mm 8,0 °C 11,3 °C 0,0 km/h (0 Bft) 100,00 %
05.05.2026 06:46 11,3 °C 80 % 1010,1 hPa 0,0 l/m² 0,0 km/h (0 Bft) N 0 ° 0,000 mm 8,0 °C 11,3 °C 0,0 km/h (0 Bft) 100,00 %
05.05.2026 06:45 11,2 °C 80 % 1010,1 hPa 0,0 l/m² 0,0 km/h (0 Bft) N 0 ° 0,000 mm 7,9 °C 11,2 °C 0,0 km/h (0 Bft) 95,65 %
05.05.2026 06:44 11,2 °C 80 % 1010,1 hPa 0,0 l/m² 0,0 km/h (0 Bft) N 0 ° 0,000 mm 7,9 °C 11,2 °C 0,0 km/h (0 Bft) 100,00 %
05.05.2026 06:43 11,1 °C 80 % 1010,1 hPa 0,0 l/m² 0,0 km/h (0 Bft) N 0 ° 0,000 mm 7,8 °C 11,1 °C 0,0 km/h (0 Bft) 95,65 %
05.05.2026 06:42 11,1 °C 80 % 1010,1 hPa 0,0 l/m² 0,0 km/h (0 Bft) N 0 ° 0,000 mm 7,8 °C 11,1 °C 0,0 km/h (0 Bft) 100,00 %
05.05.2026 06:41 11,1 °C 80 % 1010,1 hPa 0,0 l/m² 0,0 km/h (0 Bft) N 0 ° 0,000 mm 7,8 °C 11,1 °C 0,0 km/h (0 Bft) 100,00 %
05.05.2026 06:40 11,1 °C 81 % 1010,2 hPa 0,0 l/m² 0,0 km/h (0 Bft) N 0 ° 0,000 mm 8,0 °C 11,1 °C 0,0 km/h (0 Bft) 100,00 %
05.05.2026 06:39 10,9 °C 81 % 1010,1 hPa 0,0 l/m² 0,0 km/h (0 Bft) N 0 ° 0,000 mm 7,8 °C 10,9 °C 0,0 km/h (0 Bft) 100,00 %
05.05.2026 06:38 10,9 °C 81 % 1010,2 hPa 0,0 l/m² 0,0 km/h (0 Bft) N 0 ° 0,000 mm 7,8 °C 10,9 °C 0,0 km/h (0 Bft) 100,00 %
05.05.2026 06:37 10,9 °C 81 % 1010,1 hPa 0,0 l/m² 0,0 km/h (0 Bft) N 0 ° 0,000 mm 7,8 °C 10,9 °C 0,0 km/h (0 Bft) 100,00 %
05.05.2026 06:36 10,9 °C 80 % 1010,2 hPa 0,0 l/m² 0,0 km/h (0 Bft) N 0 ° 0,000 mm 7,6 °C 10,9 °C 0,0 km/h (0 Bft) 100,00 %
05.05.2026 06:35 10,9 °C 80 % 1010,2 hPa 0,0 l/m² 0,0 km/h (0 Bft) N 0 ° 0,000 mm 7,6 °C 10,9 °C 0,0 km/h (0 Bft) 100,00 %
05.05.2026 06:34 10,9 °C 80 % 1010,1 hPa 0,0 l/m² 0,0 km/h (0 Bft) N 0 ° 0,000 mm 7,6 °C 10,9 °C 0,0 km/h (0 Bft) 100,00 %
05.05.2026 06:33 10,9 °C 80 % 1010,3 hPa 0,0 l/m² 0,0 km/h (0 Bft) N 0 ° 0,000 mm 7,6 °C 10,9 °C 0,0 km/h (0 Bft) 100,00 %
05.05.2026 06:32 10,9 °C 80 % 1010,2 hPa 0,0 l/m² 0,0 km/h (0 Bft) N 0 ° 0,000 mm 7,6 °C 10,9 °C 0,0 km/h (0 Bft) 100,00 %
05.05.2026 06:31 11,0 °C 80 % 1010,2 hPa 0,0 l/m² 0,0 km/h (0 Bft) N 0 ° 0,000 mm 7,7 °C 11,0 °C 0,0 km/h (0 Bft) 100,00 %
05.05.2026 06:30 11,1 °C 80 % 1010,1 hPa 0,0 l/m² 0,0 km/h (0 Bft) N 0 ° 0,000 mm 7,8 °C 11,1 °C 0,0 km/h (0 Bft) 100,00 %
05.05.2026 06:29 11,1 °C 80 % 1010,1 hPa 0,0 l/m² 0,0 km/h (0 Bft) N 0 ° 0,000 mm 7,8 °C 11,1 °C 0,0 km/h (0 Bft) 100,00 %
05.05.2026 06:28 11,1 °C 80 % 1010,1 hPa 0,0 l/m² 0,0 km/h (0 Bft) N 0 ° 0,000 mm 7,8 °C 11,1 °C 0,0 km/h (0 Bft) 100,00 %
05.05.2026 06:27 11,1 °C 81 % 1010,0 hPa 0,0 l/m² 0,0 km/h (0 Bft) N 0 ° 0,000 mm 8,0 °C 11,1 °C 0,0 km/h (0 Bft) 100,00 %
05.05.2026 06:26 11,0 °C 81 % 1010,1 hPa 0,0 l/m² 0,0 km/h (0 Bft) N 0 ° 0,000 mm 7,9 °C 11,0 °C 0,0 km/h (0 Bft) 95,65 %
05.05.2026 06:25 10,9 °C 81 % 1010,1 hPa 0,0 l/m² 0,0 km/h (0 Bft) N 0 ° 0,000 mm 7,8 °C 10,9 °C 0,0 km/h (0 Bft) 100,00 %
05.05.2026 06:24 10,9 °C 81 % 1010,1 hPa 0,0 l/m² 0,0 km/h (0 Bft) N 0 ° 0,000 mm 7,8 °C 10,9 °C 0,0 km/h (0 Bft) 100,00 %
05.05.2026 06:23 10,9 °C 81 % 1010,1 hPa 0,0 l/m² 0,0 km/h (0 Bft) N 0 ° 0,000 mm 7,8 °C 10,9 °C 0,0 km/h (0 Bft) 95,65 %
05.05.2026 06:22 10,9 °C 81 % 1010,1 hPa 0,0 l/m² 0,0 km/h (0 Bft) N 0 ° 0,000 mm 7,8 °C 10,9 °C 0,0 km/h (0 Bft) 100,00 %
05.05.2026 06:21 10,9 °C 81 % 1010,1 hPa 0,0 l/m² 0,0 km/h (0 Bft) N 0 ° 0,000 mm 7,8 °C 10,9 °C 0,0 km/h (0 Bft) 100,00 %
05.05.2026 06:20 10,9 °C 80 % 1010,1 hPa 0,0 l/m² 0,0 km/h (0 Bft) N 0 ° 0,000 mm 7,6 °C 10,9 °C 0,0 km/h (0 Bft) 100,00 %
05.05.2026 06:19 10,9 °C 80 % 1010,1 hPa 0,0 l/m² 0,0 km/h (0 Bft) N 0 ° 0,000 mm 7,6 °C 10,9 °C 0,0 km/h (0 Bft) 95,65 %
05.05.2026 06:18 10,9 °C 80 % 1010,1 hPa 0,0 l/m² 0,0 km/h (0 Bft) N 0 ° 0,000 mm 7,6 °C 10,9 °C 0,0 km/h (0 Bft) 100,00 %
05.05.2026 06:17 11,0 °C 80 % 1010,1 hPa 0,0 l/m² 0,0 km/h (0 Bft) N 0 ° 0,000 mm 7,7 °C 11,0 °C 0,0 km/h (0 Bft) 100,00 %
05.05.2026 06:16 11,0 °C 80 % 1010,0 hPa 0,0 l/m² 0,0 km/h (0 Bft) N 0 ° 0,000 mm 7,7 °C 11,0 °C 0,0 km/h (0 Bft) 95,65 %
05.05.2026 06:15 11,1 °C 80 % 1010,1 hPa 0,0 l/m² 0,0 km/h (0 Bft) N 0 ° 0,000 mm 7,8 °C 11,1 °C 0,0 km/h (0 Bft) 100,00 %
05.05.2026 06:14 11,1 °C 80 % 1010,1 hPa 0,0 l/m² 0,0 km/h (0 Bft) N 0 ° 0,000 mm 7,8 °C 11,1 °C 0,0 km/h (0 Bft) 100,00 %
05.05.2026 06:13 11,1 °C 80 % 1010,1 hPa 0,0 l/m² 0,0 km/h (0 Bft) N 0 ° 0,000 mm 7,8 °C 11,1 °C 0,0 km/h (0 Bft) 100,00 %
05.05.2026 06:12 11,1 °C 80 % 1010,1 hPa 0,0 l/m² 0,0 km/h (0 Bft) N 0 ° 0,000 mm 7,8 °C 11,1 °C 0,0 km/h (0 Bft) 100,00 %
05.05.2026 06:11 11,1 °C 80 % 1010,1 hPa 0,0 l/m² 0,0 km/h (0 Bft) N 0 ° 0,000 mm 7,8 °C 11,1 °C 0,0 km/h (0 Bft) 100,00 %
05.05.2026 06:10 11,1 °C 80 % 1010,1 hPa 0,0 l/m² 0,0 km/h (0 Bft) N 0 ° 0,000 mm 7,8 °C 11,1 °C 0,0 km/h (0 Bft) 100,00 %
05.05.2026 06:09 11,1 °C 80 % 1010,1 hPa 0,0 l/m² 0,0 km/h (0 Bft) N 0 ° 0,000 mm 7,8 °C 11,1 °C 0,0 km/h (0 Bft) 100,00 %
05.05.2026 06:08 11,1 °C 80 % 1010,1 hPa 0,0 l/m² 0,0 km/h (0 Bft) N 0 ° 0,000 mm 7,8 °C 11,1 °C 0,0 km/h (0 Bft) 100,00 %
05.05.2026 06:07 11,1 °C 80 % 1010,2 hPa 0,0 l/m² 0,0 km/h (0 Bft) N 0 ° 0,000 mm 7,8 °C 11,1 °C 0,0 km/h (0 Bft) 100,00 %
05.05.2026 06:06 11,1 °C 80 % 1010,2 hPa 0,0 l/m² 0,0 km/h (0 Bft) N 0 ° 0,000 mm 7,8 °C 11,1 °C 0,0 km/h (0 Bft) 100,00 %
05.05.2026 06:05 11,1 °C 80 % 1010,1 hPa 0,0 l/m² 0,0 km/h (0 Bft) N 0 ° 0,000 mm 7,8 °C 11,1 °C 0,0 km/h (0 Bft) 100,00 %
05.05.2026 06:04 11,1 °C 79 % 1010,1 hPa 0,0 l/m² 0,0 km/h (0 Bft) N 0 ° 0,000 mm 7,6 °C 11,1 °C 0,0 km/h (0 Bft) 100,00 %
05.05.2026 06:03 11,1 °C 79 % 1010,1 hPa 0,0 l/m² 0,0 km/h (0 Bft) N 0 ° 0,000 mm 7,6 °C 11,1 °C 0,0 km/h (0 Bft) 100,00 %
05.05.2026 06:02 11,1 °C 79 % 1010,1 hPa 0,0 l/m² 0,0 km/h (0 Bft) N 0 ° 0,000 mm 7,6 °C 11,1 °C 0,0 km/h (0 Bft) 100,00 %
05.05.2026 06:01 11,1 °C 79 % 1010,1 hPa 0,0 l/m² 0,0 km/h (0 Bft) N 0 ° 0,000 mm 7,6 °C 11,1 °C 0,0 km/h (0 Bft) 100,00 %
05.05.2026 06:00 11,1 °C 79 % 1010,2 hPa 0,0 l/m² 0,0 km/h (0 Bft) N 0 ° 0,000 mm 7,6 °C 11,1 °C 0,0 km/h (0 Bft) 100,00 %
05.05.2026 05:59 11,1 °C 79 % 1010,2 hPa 0,0 l/m² 0,0 km/h (0 Bft) N 0 ° 0,000 mm 7,6 °C 11,1 °C 0,0 km/h (0 Bft) 95,65 %
05.05.2026 05:58 11,2 °C 79 % 1010,2 hPa 0,0 l/m² 0,0 km/h (0 Bft) N 0 ° 0,000 mm 7,7 °C 11,2 °C 0,0 km/h (0 Bft) 100,00 %
05.05.2026 05:57 11,2 °C 79 % 1010,1 hPa 0,0 l/m² 0,0 km/h (0 Bft) N 0 ° 0,000 mm 7,7 °C 11,2 °C 0,0 km/h (0 Bft) 100,00 %
05.05.2026 05:56 11,2 °C 79 % 1010,2 hPa 0,0 l/m² 0,0 km/h (0 Bft) N 0 ° 0,000 mm 7,7 °C 11,2 °C 0,0 km/h (0 Bft) 100,00 %
05.05.2026 05:55 11,2 °C 79 % 1010,1 hPa 0,0 l/m² 0,0 km/h (0 Bft) N 0 ° 0,000 mm 7,7 °C 11,2 °C 0,0 km/h (0 Bft) 100,00 %
05.05.2026 05:54 11,2 °C 78 % 1010,2 hPa 0,0 l/m² 0,0 km/h (0 Bft) N 0 ° 0,000 mm 7,5 °C 11,2 °C 0,0 km/h (0 Bft) 100,00 %
05.05.2026 05:53 11,2 °C 78 % 1010,2 hPa 0,0 l/m² 0,0 km/h (0 Bft) N 0 ° 0,000 mm 7,5 °C 11,2 °C 0,0 km/h (0 Bft) 100,00 %
05.05.2026 05:52 11,2 °C 78 % 1010,2 hPa 0,0 l/m² 0,0 km/h (0 Bft) N 0 ° 0,000 mm 7,5 °C 11,2 °C 0,0 km/h (0 Bft) 100,00 %
05.05.2026 05:51 11,2 °C 78 % 1010,2 hPa 0,0 l/m² 0,0 km/h (0 Bft) N 0 ° 0,000 mm 7,5 °C 11,2 °C 0,0 km/h (0 Bft) 100,00 %
05.05.2026 05:50 11,2 °C 78 % 1010,1 hPa 0,0 l/m² 0,0 km/h (0 Bft) N 0 ° 0,000 mm 7,5 °C 11,2 °C 0,0 km/h (0 Bft) 95,65 %
05.05.2026 05:49 11,3 °C 78 % 1010,1 hPa 0,0 l/m² 0,0 km/h (0 Bft) N 0 ° 0,000 mm 7,6 °C 11,3 °C 0,0 km/h (0 Bft) 100,00 %
05.05.2026 05:48 11,3 °C 78 % 1010,1 hPa 0,0 l/m² 0,0 km/h (0 Bft) N 0 ° 0,000 mm 7,6 °C 11,3 °C 0,0 km/h (0 Bft) 100,00 %
05.05.2026 05:47 11,3 °C 78 % 1010,1 hPa 0,0 l/m² 0,0 km/h (0 Bft) N 0 ° 0,000 mm 7,6 °C 11,3 °C 0,0 km/h (0 Bft) 100,00 %
05.05.2026 05:46 11,4 °C 78 % 1010,2 hPa 0,0 l/m² 0,0 km/h (0 Bft) N 0 ° 0,000 mm 7,7 °C 11,4 °C 0,0 km/h (0 Bft) 100,00 %
05.05.2026 05:45 11,4 °C 78 % 1010,2 hPa 0,0 l/m² 0,0 km/h (0 Bft) N 0 ° 0,000 mm 7,7 °C 11,4 °C 0,0 km/h (0 Bft) 100,00 %
05.05.2026 05:44 11,4 °C 78 % 1010,2 hPa 0,0 l/m² 0,0 km/h (0 Bft) N 0 ° 0,000 mm 7,7 °C 11,4 °C 0,0 km/h (0 Bft) 100,00 %
05.05.2026 05:43 11,5 °C 78 % 1010,1 hPa 0,0 l/m² 0,0 km/h (0 Bft) N 0 ° 0,000 mm 7,8 °C 11,5 °C 0,0 km/h (0 Bft) 100,00 %
05.05.2026 05:42 11,6 °C 78 % 1010,0 hPa 0,0 l/m² 0,0 km/h (0 Bft) N 0 ° 0,000 mm 7,9 °C 11,6 °C 0,0 km/h (0 Bft) 100,00 %
05.05.2026 05:41 11,6 °C 78 % 1010,1 hPa 0,0 l/m² 0,0 km/h (0 Bft) N 0 ° 0,000 mm 7,9 °C 11,6 °C 0,0 km/h (0 Bft) 100,00 %
05.05.2026 05:40 11,6 °C 78 % 1010,1 hPa 0,0 l/m² 0,0 km/h (0 Bft) N 0 ° 0,000 mm 7,9 °C 11,6 °C 0,0 km/h (0 Bft) 95,65 %
05.05.2026 05:39 11,5 °C 78 % 1010,0 hPa 0,0 l/m² 0,0 km/h (0 Bft) N 0 ° 0,000 mm 7,8 °C 11,5 °C 0,0 km/h (0 Bft) 100,00 %
05.05.2026 05:38 11,5 °C 78 % 1010,1 hPa 0,0 l/m² 0,0 km/h (0 Bft) N 0 ° 0,000 mm 7,8 °C 11,5 °C 0,0 km/h (0 Bft) 100,00 %
05.05.2026 05:37 11,5 °C 78 % 1010,1 hPa 0,0 l/m² 0,0 km/h (0 Bft) N 0 ° 0,000 mm 7,8 °C 11,5 °C 0,0 km/h (0 Bft) 100,00 %
05.05.2026 05:36 11,4 °C 78 % 1010,1 hPa 0,0 l/m² 0,0 km/h (0 Bft) N 0 ° 0,000 mm 7,7 °C 11,4 °C 0,0 km/h (0 Bft) 100,00 %
05.05.2026 05:35 11,4 °C 78 % 1010,0 hPa 0,0 l/m² 0,0 km/h (0 Bft) N 0 ° 0,000 mm 7,7 °C 11,4 °C 0,0 km/h (0 Bft) 100,00 %
05.05.2026 05:34 11,4 °C 78 % 1010,1 hPa 0,0 l/m² 0,0 km/h (0 Bft) N 0 ° 0,000 mm 7,7 °C 11,4 °C 0,0 km/h (0 Bft) 100,00 %
05.05.2026 05:33 11,4 °C 78 % 1010,1 hPa 0,0 l/m² 0,0 km/h (0 Bft) N 0 ° 0,000 mm 7,7 °C 11,4 °C 0,0 km/h (0 Bft) 100,00 %
05.05.2026 05:32 11,4 °C 78 % 1010,1 hPa 0,0 l/m² 0,0 km/h (0 Bft) N 0 ° 0,000 mm 7,7 °C 11,4 °C 0,0 km/h (0 Bft) 100,00 %
05.05.2026 05:31 11,5 °C 78 % 1010,1 hPa 0,0 l/m² 0,0 km/h (0 Bft) N 0 ° 0,000 mm 7,8 °C 11,5 °C 0,0 km/h (0 Bft) 100,00 %
05.05.2026 05:30 11,6 °C 78 % 1010,1 hPa 0,0 l/m² 0,0 km/h (0 Bft) N 0 ° 0,000 mm 7,9 °C 11,6 °C 0,0 km/h (0 Bft) 95,65 %
05.05.2026 05:29 11,6 °C 77 % 1010,2 hPa 0,0 l/m² 0,0 km/h (0 Bft) N 0 ° 0,000 mm 7,7 °C 11,6 °C 0,0 km/h (0 Bft) 100,00 %
05.05.2026 05:28 11,7 °C 77 % 1010,2 hPa 0,0 l/m² 0,0 km/h (0 Bft) N 0 ° 0,000 mm 7,8 °C 11,7 °C 0,0 km/h (0 Bft) 100,00 %
05.05.2026 05:27 11,8 °C 77 % 1010,2 hPa 0,0 l/m² 0,0 km/h (0 Bft) N 0 ° 0,000 mm 7,9 °C 11,8 °C 0,0 km/h (0 Bft) 100,00 %
05.05.2026 05:26 11,8 °C 76 % 1010,2 hPa 0,0 l/m² 0,0 km/h (0 Bft) N 0 ° 0,000 mm 7,7 °C 11,8 °C 0,0 km/h (0 Bft) 100,00 %
05.05.2026 05:25 11,9 °C 76 % 1010,2 hPa 0,0 l/m² 0,0 km/h (0 Bft) N 0 ° 0,000 mm 7,8 °C 11,9 °C 0,0 km/h (0 Bft) 100,00 %
05.05.2026 05:24 11,9 °C 76 % 1010,2 hPa 0,0 l/m² 0,0 km/h (0 Bft) N 0 ° 0,000 mm 7,8 °C 11,9 °C 0,0 km/h (0 Bft) 100,00 %
05.05.2026 05:23 12,0 °C 76 % 1010,0 hPa 0,0 l/m² 0,0 km/h (0 Bft) N 0 ° 0,000 mm 7,9 °C 12,0 °C 0,0 km/h (0 Bft) 100,00 %
05.05.2026 05:22 12,1 °C 76 % 1010,2 hPa 0,0 l/m² 0,0 km/h (0 Bft) N 0 ° 0,000 mm 8,0 °C 12,1 °C 0,0 km/h (0 Bft) 100,00 %
05.05.2026 05:21 12,1 °C 76 % 1010,1 hPa 0,0 l/m² 0,0 km/h (0 Bft) N 0 ° 0,000 mm 8,0 °C 12,1 °C 0,0 km/h (0 Bft) 95,65 %
05.05.2026 05:20 12,1 °C 76 % 1010,2 hPa 0,0 l/m² 0,0 km/h (0 Bft) N 0 ° 0,000 mm 8,0 °C 12,1 °C 0,0 km/h (0 Bft) 100,00 %
05.05.2026 05:19 12,1 °C 76 % 1010,1 hPa 0,0 l/m² 0,0 km/h (0 Bft) N 0 ° 0,000 mm 8,0 °C 12,1 °C 0,0 km/h (0 Bft) 100,00 %
05.05.2026 05:18 12,1 °C 76 % 1010,1 hPa 0,0 l/m² 0,0 km/h (0 Bft) N 0 ° 0,000 mm 8,0 °C 12,1 °C 0,0 km/h (0 Bft) 100,00 %
05.05.2026 05:17 12,1 °C 76 % 1010,2 hPa 0,0 l/m² 0,0 km/h (0 Bft) N 0 ° 0,000 mm 8,0 °C 12,1 °C 0,0 km/h (0 Bft) 100,00 %
05.05.2026 05:16 12,1 °C 76 % 1010,2 hPa 0,0 l/m² 0,0 km/h (0 Bft) N 0 ° 0,000 mm 8,0 °C 12,1 °C 0,0 km/h (0 Bft) 100,00 %
05.05.2026 05:15 12,1 °C 76 % 1010,2 hPa 0,0 l/m² 0,0 km/h (0 Bft) N 0 ° 0,000 mm 8,0 °C 12,1 °C 0,0 km/h (0 Bft) 100,00 %
05.05.2026 05:14 12,1 °C 76 % 1010,2 hPa 0,0 l/m² 0,0 km/h (0 Bft) N 0 ° 0,000 mm 8,0 °C 12,1 °C 0,0 km/h (0 Bft) 95,65 %
05.05.2026 05:13 12,1 °C 76 % 1010,2 hPa 0,0 l/m² 0,0 km/h (0 Bft) N 0 ° 0,000 mm 8,0 °C 12,1 °C 0,0 km/h (0 Bft) 100,00 %
05.05.2026 05:12 12,0 °C 76 % 1010,2 hPa 0,0 l/m² 0,0 km/h (0 Bft) N 0 ° 0,000 mm 7,9 °C 12,0 °C 0,0 km/h (0 Bft) 100,00 %
05.05.2026 05:11 11,9 °C 77 % 1010,2 hPa 0,0 l/m² 0,0 km/h (0 Bft) N 0 ° 0,000 mm 8,0 °C 11,9 °C 0,0 km/h (0 Bft) 95,65 %
05.05.2026 05:10 11,9 °C 77 % 1010,2 hPa 0,0 l/m² 0,0 km/h (0 Bft) N 0 ° 0,000 mm 8,0 °C 11,9 °C 0,0 km/h (0 Bft) 100,00 %
05.05.2026 05:09 11,8 °C 77 % 1010,2 hPa 0,0 l/m² 0,0 km/h (0 Bft) N 0 ° 0,000 mm 7,9 °C 11,8 °C 0,0 km/h (0 Bft) 95,65 %
05.05.2026 05:08 11,8 °C 77 % 1010,2 hPa 0,0 l/m² 0,0 km/h (0 Bft) N 0 ° 0,000 mm 7,9 °C 11,8 °C 0,0 km/h (0 Bft) 100,00 %
05.05.2026 05:07 11,8 °C 77 % 1010,2 hPa 0,0 l/m² 0,0 km/h (0 Bft) N 0 ° 0,000 mm 7,9 °C 11,8 °C 0,0 km/h (0 Bft) 100,00 %
05.05.2026 05:06 11,8 °C 77 % 1010,2 hPa 0,0 l/m² 0,0 km/h (0 Bft) N 0 ° 0,000 mm 7,9 °C 11,8 °C 0,0 km/h (0 Bft) 100,00 %
05.05.2026 05:05 11,8 °C 77 % 1010,3 hPa 0,0 l/m² 0,0 km/h (0 Bft) N 0 ° 0,000 mm 7,9 °C 11,8 °C 0,0 km/h (0 Bft) 100,00 %
05.05.2026 05:04 11,8 °C 77 % 1010,3 hPa 0,0 l/m² 0,0 km/h (0 Bft) N 0 ° 0,000 mm 7,9 °C 11,8 °C 0,0 km/h (0 Bft) 100,00 %
05.05.2026 05:03 11,9 °C 77 % 1010,3 hPa 0,0 l/m² 0,0 km/h (0 Bft) N 0 ° 0,000 mm 8,0 °C 11,9 °C 0,0 km/h (0 Bft) 100,00 %
05.05.2026 05:02 11,9 °C 76 % 1010,3 hPa 0,0 l/m² 0,0 km/h (0 Bft) N 0 ° 0,000 mm 7,8 °C 11,9 °C 0,0 km/h (0 Bft) 100,00 %
05.05.2026 05:01 11,9 °C 76 % 1010,3 hPa 0,0 l/m² 0,0 km/h (0 Bft) N 0 ° 0,000 mm 7,8 °C 11,9 °C 0,0 km/h (0 Bft) 100,00 %
05.05.2026 05:00 11,9 °C 76 % 1010,3 hPa 0,0 l/m² 0,0 km/h (0 Bft) N 0 ° 0,000 mm 7,8 °C 11,9 °C 0,0 km/h (0 Bft) 100,00 %
05.05.2026 04:59 12,0 °C 76 % 1010,4 hPa 0,0 l/m² 0,0 km/h (0 Bft) N 0 ° 0,000 mm 7,9 °C 12,0 °C 0,0 km/h (0 Bft) 100,00 %
05.05.2026 04:58 12,1 °C 75 % 1010,4 hPa 0,0 l/m² 0,0 km/h (0 Bft) N 0 ° 0,000 mm 7,8 °C 12,1 °C 0,0 km/h (0 Bft) 100,00 %
05.05.2026 04:57 12,1 °C 75 % 1010,3 hPa 0,0 l/m² 0,0 km/h (0 Bft) N 0 ° 0,000 mm 7,8 °C 12,1 °C 0,0 km/h (0 Bft) 100,00 %
05.05.2026 04:56 12,2 °C 75 % 1010,4 hPa 0,0 l/m² 0,0 km/h (0 Bft) N 0 ° 0,000 mm 7,9 °C 12,2 °C 0,0 km/h (0 Bft) 100,00 %
05.05.2026 04:55 12,2 °C 74 % 1010,4 hPa 0,0 l/m² 0,0 km/h (0 Bft) N 0 ° 0,000 mm 7,7 °C 12,2 °C 0,0 km/h (0 Bft) 100,00 %
05.05.2026 04:54 12,2 °C 74 % 1010,4 hPa 0,0 l/m² 0,0 km/h (0 Bft) N 0 ° 0,000 mm 7,7 °C 12,2 °C 0,0 km/h (0 Bft) 100,00 %
05.05.2026 04:53 12,2 °C 74 % 1010,3 hPa 0,0 l/m² 0,0 km/h (0 Bft) N 0 ° 0,000 mm 7,7 °C 12,2 °C 0,0 km/h (0 Bft) 100,00 %
05.05.2026 04:52 12,2 °C 74 % 1010,3 hPa 0,0 l/m² 0,0 km/h (0 Bft) N 0 ° 0,000 mm 7,7 °C 12,2 °C 0,0 km/h (0 Bft) 95,65 %
05.05.2026 04:51 12,3 °C 74 % 1010,4 hPa 0,0 l/m² 0,0 km/h (0 Bft) N 0 ° 0,000 mm 7,8 °C 12,3 °C 0,0 km/h (0 Bft) 100,00 %
05.05.2026 04:50 12,2 °C 73 % 1010,3 hPa 0,0 l/m² 0,0 km/h (0 Bft) N 0 ° 0,000 mm 7,5 °C 12,2 °C 0,0 km/h (0 Bft) 100,00 %
05.05.2026 04:49 12,3 °C 73 % 1010,3 hPa 0,0 l/m² 0,0 km/h (0 Bft) N 0 ° 0,000 mm 7,6 °C 12,3 °C 0,0 km/h (0 Bft) 100,00 %
05.05.2026 04:48 12,3 °C 73 % 1010,3 hPa 0,0 l/m² 0,0 km/h (0 Bft) N 0 ° 0,000 mm 7,6 °C 12,3 °C 0,0 km/h (0 Bft) 100,00 %
05.05.2026 04:47 12,4 °C 73 % 1010,4 hPa 0,0 l/m² 0,0 km/h (0 Bft) N 0 ° 0,000 mm 7,7 °C 12,4 °C 0,0 km/h (0 Bft) 100,00 %
05.05.2026 04:46 12,4 °C 73 % 1010,3 hPa 0,0 l/m² 0,0 km/h (0 Bft) N 0 ° 0,000 mm 7,7 °C 12,4 °C 0,0 km/h (0 Bft) 100,00 %
05.05.2026 04:45 12,4 °C 73 % 1010,3 hPa 0,0 l/m² 0,0 km/h (0 Bft) N 0 ° 0,000 mm 7,7 °C 12,4 °C 0,0 km/h (0 Bft) 95,65 %
05.05.2026 04:44 12,5 °C 73 % 1010,3 hPa 0,0 l/m² 0,0 km/h (0 Bft) N 0 ° 0,000 mm 7,8 °C 12,5 °C 0,0 km/h (0 Bft) 95,65 %
05.05.2026 04:43 12,5 °C 73 % 1010,4 hPa 0,0 l/m² 0,0 km/h (0 Bft) N 0 ° 0,000 mm 7,8 °C 12,5 °C 0,0 km/h (0 Bft) 100,00 %
05.05.2026 04:42 12,5 °C 73 % 1010,5 hPa 0,0 l/m² 0,0 km/h (0 Bft) N 0 ° 0,000 mm 7,8 °C 12,5 °C 0,0 km/h (0 Bft) 100,00 %
05.05.2026 04:41 12,6 °C 73 % 1010,4 hPa 0,0 l/m² 0,0 km/h (0 Bft) N 0 ° 0,000 mm 7,9 °C 12,6 °C 0,0 km/h (0 Bft) 100,00 %
05.05.2026 04:40 12,6 °C 73 % 1010,4 hPa 0,0 l/m² 0,0 km/h (0 Bft) N 0 ° 0,000 mm 7,9 °C 12,6 °C 0,0 km/h (0 Bft) 95,65 %
05.05.2026 04:39 12,6 °C 73 % 1010,4 hPa 0,0 l/m² 0,0 km/h (0 Bft) N 0 ° 0,000 mm 7,9 °C 12,6 °C 0,0 km/h (0 Bft) 100,00 %
05.05.2026 04:38 12,7 °C 73 % 1010,3 hPa 0,0 l/m² 0,0 km/h (0 Bft) N 0 ° 0,000 mm 8,0 °C 12,7 °C 0,0 km/h (0 Bft) 100,00 %
05.05.2026 04:37 12,7 °C 73 % 1010,3 hPa 0,0 l/m² 0,0 km/h (0 Bft) N 0 ° 0,000 mm 8,0 °C 12,7 °C 0,0 km/h (0 Bft) 100,00 %
05.05.2026 04:36 12,7 °C 73 % 1010,3 hPa 0,0 l/m² 0,0 km/h (0 Bft) N 0 ° 0,000 mm 8,0 °C 12,7 °C 0,0 km/h (0 Bft) 100,00 %
05.05.2026 04:35 12,7 °C 72 % 1010,4 hPa 0,0 l/m² 0,0 km/h (0 Bft) N 0 ° 0,000 mm 7,8 °C 12,7 °C 0,0 km/h (0 Bft) 100,00 %
05.05.2026 04:34 12,7 °C 72 % 1010,4 hPa 0,0 l/m² 0,0 km/h (0 Bft) N 0 ° 0,000 mm 7,8 °C 12,7 °C 0,0 km/h (0 Bft) 100,00 %
05.05.2026 04:33 12,8 °C 72 % 1010,4 hPa 0,0 l/m² 0,0 km/h (0 Bft) N 0 ° 0,000 mm 7,9 °C 12,8 °C 0,0 km/h (0 Bft) 100,00 %
05.05.2026 04:32 12,8 °C 72 % 1010,4 hPa 0,0 l/m² 0,0 km/h (0 Bft) N 0 ° 0,000 mm 7,9 °C 12,8 °C 0,0 km/h (0 Bft) 100,00 %
05.05.2026 04:31 12,9 °C 72 % 1010,4 hPa 0,0 l/m² 0,0 km/h (0 Bft) N 0 ° 0,000 mm 8,0 °C 12,9 °C 0,0 km/h (0 Bft) 100,00 %
05.05.2026 04:30 12,9 °C 71 % 1010,3 hPa 0,0 l/m² 0,0 km/h (0 Bft) N 0 ° 0,000 mm 7,8 °C 12,9 °C 0,0 km/h (0 Bft) 100,00 %
05.05.2026 04:29 12,9 °C 71 % 1010,4 hPa 0,0 l/m² 0,0 km/h (0 Bft) N 0 ° 0,000 mm 7,8 °C 12,9 °C 0,0 km/h (0 Bft) 100,00 %
05.05.2026 04:28 13,0 °C 70 % 1010,4 hPa 0,0 l/m² 0,0 km/h (0 Bft) N 0 ° 0,000 mm 7,7 °C 13,0 °C 0,0 km/h (0 Bft) 100,00 %
05.05.2026 04:27 13,1 °C 70 % 1010,3 hPa 0,0 l/m² 0,0 km/h (0 Bft) N 0 ° 0,000 mm 7,8 °C 13,1 °C 0,0 km/h (0 Bft) 100,00 %
05.05.2026 04:26 13,1 °C 71 % 1010,4 hPa 0,0 l/m² 0,0 km/h (0 Bft) N 0 ° 0,000 mm 8,0 °C 13,1 °C 0,0 km/h (0 Bft) 100,00 %
05.05.2026 04:25 13,2 °C 70 % 1010,3 hPa 0,0 l/m² 0,0 km/h (0 Bft) N 0 ° 0,000 mm 7,9 °C 13,2 °C 0,0 km/h (0 Bft) 100,00 %
05.05.2026 04:24 13,2 °C 70 % 1010,3 hPa 0,0 l/m² 0,0 km/h (0 Bft) N 0 ° 0,000 mm 7,9 °C 13,2 °C 0,0 km/h (0 Bft) 100,00 %
05.05.2026 04:23 13,3 °C 70 % 1010,3 hPa 0,0 l/m² 0,0 km/h (0 Bft) N 0 ° 0,000 mm 7,9 °C 13,3 °C 0,0 km/h (0 Bft) 95,65 %
05.05.2026 04:22 13,3 °C 70 % 1010,3 hPa 0,0 l/m² 0,0 km/h (0 Bft) N 0 ° 0,000 mm 7,9 °C 13,3 °C 0,0 km/h (0 Bft) 100,00 %
05.05.2026 04:21 13,3 °C 70 % 1010,4 hPa 0,0 l/m² 0,0 km/h (0 Bft) N 0 ° 0,000 mm 7,9 °C 13,3 °C 0,0 km/h (0 Bft) 100,00 %
05.05.2026 04:20 13,3 °C 70 % 1010,3 hPa 0,0 l/m² 0,0 km/h (0 Bft) N 0 ° 0,000 mm 7,9 °C 13,3 °C 0,0 km/h (0 Bft) 100,00 %
05.05.2026 04:19 13,4 °C 70 % 1010,3 hPa 0,0 l/m² 0,0 km/h (0 Bft) N 0 ° 0,000 mm 8,0 °C 13,4 °C 0,0 km/h (0 Bft) 100,00 %
05.05.2026 04:18 13,4 °C 69 % 1010,3 hPa 0,0 l/m² 0,0 km/h (0 Bft) N 0 ° 0,000 mm 7,8 °C 13,4 °C 0,0 km/h (0 Bft) 100,00 %
05.05.2026 04:17 13,5 °C 69 % 1010,3 hPa 0,0 l/m² 0,0 km/h (0 Bft) N 0 ° 0,000 mm 7,9 °C 13,5 °C 0,0 km/h (0 Bft) 100,00 %
05.05.2026 04:16 13,6 °C 69 % 1010,3 hPa 0,0 l/m² 0,0 km/h (0 Bft) N 0 ° 0,000 mm 8,0 °C 13,6 °C 0,0 km/h (0 Bft) 100,00 %
05.05.2026 04:15 13,6 °C 69 % 1010,3 hPa 0,0 l/m² 0,0 km/h (0 Bft) N 0 ° 0,000 mm 8,0 °C 13,6 °C 0,0 km/h (0 Bft) 100,00 %
05.05.2026 04:14 13,7 °C 69 % 1010,4 hPa 0,0 l/m² 0,0 km/h (0 Bft) W 270 ° 0,000 mm 8,1 °C 13,7 °C 1,6 km/h (1 Bft) 100,00 %
05.05.2026 04:13 13,7 °C 69 % 1010,4 hPa 0,0 l/m² 0,0 km/h (0 Bft) N 0 ° 0,000 mm 8,1 °C 13,7 °C 0,0 km/h (0 Bft) 100,00 %
05.05.2026 04:12 13,8 °C 69 % 1010,4 hPa 0,0 l/m² 0,0 km/h (0 Bft) N 0 ° 0,000 mm 8,2 °C 13,8 °C 0,0 km/h (0 Bft) 100,00 %
05.05.2026 04:11 13,8 °C 69 % 1010,3 hPa 0,0 l/m² 0,0 km/h (0 Bft) N 0 ° 0,000 mm 8,2 °C 13,8 °C 0,0 km/h (0 Bft) 100,00 %
05.05.2026 04:10 13,8 °C 68 % 1010,3 hPa 0,0 l/m² 0,0 km/h (0 Bft) N 0 ° 0,000 mm 8,0 °C 13,8 °C 0,0 km/h (0 Bft) 100,00 %
05.05.2026 04:09 13,8 °C 68 % 1010,4 hPa 0,0 l/m² 0,0 km/h (0 Bft) N 0 ° 0,000 mm 8,0 °C 13,8 °C 0,0 km/h (0 Bft) 95,65 %
05.05.2026 04:08 13,7 °C 68 % 1010,4 hPa 0,0 l/m² 0,0 km/h (0 Bft) N 0 ° 0,000 mm 7,9 °C 13,7 °C 0,0 km/h (0 Bft) 95,65 %
05.05.2026 04:07 13,7 °C 69 % 1010,4 hPa 0,0 l/m² 0,0 km/h (0 Bft) N 0 ° 0,000 mm 8,1 °C 13,7 °C 0,0 km/h (0 Bft) 100,00 %
05.05.2026 04:06 13,6 °C 69 % 1010,4 hPa 0,0 l/m² 0,0 km/h (0 Bft) W 270 ° 0,000 mm 8,0 °C 13,6 °C 1,6 km/h (1 Bft) 100,00 %
05.05.2026 04:05 13,6 °C 69 % 1010,4 hPa 0,0 l/m² 1,6 km/h (1 Bft) W 270 ° 0,000 mm 8,0 °C 13,6 °C 1,6 km/h (1 Bft) 100,00 %
05.05.2026 04:04 13,6 °C 69 % 1010,4 hPa 0,0 l/m² 1,6 km/h (1 Bft) W 270 ° 0,000 mm 8,0 °C 13,6 °C 3,2 km/h (1 Bft) 100,00 %
05.05.2026 04:03 13,7 °C 69 % 1010,4 hPa 0,0 l/m² 3,2 km/h (1 Bft) W 270 ° 0,000 mm 8,1 °C 13,7 °C 3,2 km/h (1 Bft) 100,00 %
05.05.2026 04:02 13,7 °C 69 % 1010,3 hPa 0,0 l/m² 1,6 km/h (1 Bft) W-SW 247 ° 0,000 mm 8,1 °C 13,7 °C 1,6 km/h (1 Bft) 100,00 %
05.05.2026 04:01 13,7 °C 69 % 1010,4 hPa 0,0 l/m² 0,0 km/h (0 Bft) W-SW 247 ° 0,000 mm 8,1 °C 13,7 °C 1,6 km/h (1 Bft) 100,00 %
05.05.2026 04:00 13,7 °C 69 % 1010,4 hPa 0,0 l/m² 0,0 km/h (0 Bft) N 0 ° 0,000 mm 8,1 °C 13,7 °C 0,0 km/h (0 Bft) 100,00 %
05.05.2026 03:59 13,7 °C 69 % 1010,4 hPa 0,0 l/m² 0,0 km/h (0 Bft) W-SW 247 ° 0,000 mm 8,1 °C 13,7 °C 1,6 km/h (1 Bft) 100,00 %
05.05.2026 03:58 13,7 °C 69 % 1010,4 hPa 0,0 l/m² 0,0 km/h (0 Bft) N 0 ° 0,000 mm 8,1 °C 13,7 °C 0,0 km/h (0 Bft) 100,00 %
05.05.2026 03:57 13,7 °C 69 % 1010,3 hPa 0,0 l/m² 0,0 km/h (0 Bft) N 0 ° 0,000 mm 8,1 °C 13,7 °C 0,0 km/h (0 Bft) 95,65 %
05.05.2026 03:56 13,7 °C 69 % 1010,4 hPa 0,0 l/m² 0,0 km/h (0 Bft) N 0 ° 0,000 mm 8,1 °C 13,7 °C 0,0 km/h (0 Bft) 100,00 %
05.05.2026 03:55 13,7 °C 69 % 1010,4 hPa 0,0 l/m² 0,0 km/h (0 Bft) N 0 ° 0,000 mm 8,1 °C 13,7 °C 0,0 km/h (0 Bft) 100,00 %
05.05.2026 03:54 13,7 °C 69 % 1010,4 hPa 0,0 l/m² 0,0 km/h (0 Bft) N 0 ° 0,000 mm 8,1 °C 13,7 °C 0,0 km/h (0 Bft) 100,00 %
05.05.2026 03:53 13,7 °C 69 % 1010,4 hPa 0,0 l/m² 0,0 km/h (0 Bft) N 0 ° 0,000 mm 8,1 °C 13,7 °C 0,0 km/h (0 Bft) 100,00 %
05.05.2026 03:52 13,6 °C 69 % 1010,4 hPa 0,0 l/m² 0,0 km/h (0 Bft) N 0 ° 0,000 mm 8,0 °C 13,6 °C 0,0 km/h (0 Bft) 95,65 %
05.05.2026 03:51 13,6 °C 69 % 1010,4 hPa 0,0 l/m² 0,0 km/h (0 Bft) N 0 ° 0,000 mm 8,0 °C 13,6 °C 0,0 km/h (0 Bft) 95,65 %
05.05.2026 03:50 13,6 °C 70 % 1010,4 hPa 0,0 l/m² 0,0 km/h (0 Bft) N 0 ° 0,000 mm 8,2 °C 13,6 °C 0,0 km/h (0 Bft) 100,00 %
05.05.2026 03:49 13,6 °C 70 % 1010,4 hPa 0,0 l/m² 0,0 km/h (0 Bft) W-SW 247 ° 0,000 mm 8,2 °C 13,6 °C 1,6 km/h (1 Bft) 95,65 %
05.05.2026 03:48 13,6 °C 70 % 1010,5 hPa 0,0 l/m² 0,0 km/h (0 Bft) W-SW 247 ° 0,000 mm 8,2 °C 13,6 °C 1,6 km/h (1 Bft) 100,00 %
05.05.2026 03:47 13,6 °C 70 % 1010,4 hPa 0,0 l/m² 0,0 km/h (0 Bft) N 0 ° 0,000 mm 8,2 °C 13,6 °C 0,0 km/h (0 Bft) 100,00 %
05.05.2026 03:46 13,7 °C 70 % 1010,4 hPa 0,0 l/m² 0,0 km/h (0 Bft) N 0 ° 0,000 mm 8,3 °C 13,7 °C 0,0 km/h (0 Bft) 100,00 %
05.05.2026 03:45 13,7 °C 69 % 1010,4 hPa 0,0 l/m² 0,0 km/h (0 Bft) W-SW 247 ° 0,000 mm 8,1 °C 13,7 °C 1,6 km/h (1 Bft) 100,00 %
05.05.2026 03:44 13,8 °C 69 % 1010,4 hPa 0,0 l/m² 0,0 km/h (0 Bft) N 0 ° 0,000 mm 8,2 °C 13,8 °C 0,0 km/h (0 Bft) 100,00 %
05.05.2026 03:43 13,8 °C 69 % 1010,4 hPa 0,0 l/m² 0,0 km/h (0 Bft) N 0 ° 0,000 mm 8,2 °C 13,8 °C 0,0 km/h (0 Bft) 100,00 %
05.05.2026 03:42 13,9 °C 69 % 1010,4 hPa 0,0 l/m² 0,0 km/h (0 Bft) N 0 ° 0,000 mm 8,3 °C 13,9 °C 0,0 km/h (0 Bft) 100,00 %
05.05.2026 03:41 13,9 °C 69 % 1010,4 hPa 0,0 l/m² 0,0 km/h (0 Bft) N 0 ° 0,000 mm 8,3 °C 13,9 °C 0,0 km/h (0 Bft) 100,00 %
05.05.2026 03:40 14,1 °C 69 % 1010,4 hPa 0,0 l/m² 0,0 km/h (0 Bft) N 0 ° 0,000 mm 8,5 °C 14,1 °C 0,0 km/h (0 Bft) 100,00 %
05.05.2026 03:39 14,1 °C 69 % 1010,5 hPa 0,0 l/m² 0,0 km/h (0 Bft) N 0 ° 0,000 mm 8,5 °C 14,1 °C 0,0 km/h (0 Bft) 100,00 %
05.05.2026 03:38 14,2 °C 68 % 1010,5 hPa 0,0 l/m² 0,0 km/h (0 Bft) W-SW 247 ° 0,000 mm 8,4 °C 14,2 °C 1,6 km/h (1 Bft) 100,00 %
05.05.2026 03:37 14,2 °C 68 % 1010,4 hPa 0,0 l/m² 1,6 km/h (1 Bft) W-SW 247 ° 0,000 mm 8,4 °C 14,2 °C 1,6 km/h (1 Bft) 100,00 %
05.05.2026 03:36 14,2 °C 67 % 1010,4 hPa 0,0 l/m² 0,0 km/h (0 Bft) W-SW 247 ° 0,000 mm 8,2 °C 14,2 °C 1,6 km/h (1 Bft) 100,00 %
05.05.2026 03:35 14,1 °C 68 % 1010,5 hPa 0,0 l/m² 0,0 km/h (0 Bft) W-SW 247 ° 0,000 mm 8,3 °C 14,1 °C 1,6 km/h (1 Bft) 100,00 %
05.05.2026 03:34 14,1 °C 68 % 1010,4 hPa 0,0 l/m² 0,0 km/h (0 Bft) N 0 ° 0,000 mm 8,3 °C 14,1 °C 0,0 km/h (0 Bft) 100,00 %
05.05.2026 03:33 14,0 °C 68 % 1010,5 hPa 0,0 l/m² 0,0 km/h (0 Bft) N 0 ° 0,000 mm 8,2 °C 14,0 °C 0,0 km/h (0 Bft) 100,00 %
05.05.2026 03:32 14,1 °C 68 % 1010,5 hPa 0,0 l/m² 0,0 km/h (0 Bft) W-SW 247 ° 0,000 mm 8,3 °C 14,1 °C 1,6 km/h (1 Bft) 100,00 %
05.05.2026 03:31 14,1 °C 68 % 1010,6 hPa 0,0 l/m² 0,0 km/h (0 Bft) N 0 ° 0,000 mm 8,3 °C 14,1 °C 0,0 km/h (0 Bft) 100,00 %
05.05.2026 03:30 14,1 °C 68 % 1010,5 hPa 0,0 l/m² 0,0 km/h (0 Bft) W-SW 247 ° 0,000 mm 8,3 °C 14,1 °C 1,6 km/h (1 Bft) 100,00 %
05.05.2026 03:29 14,1 °C 68 % 1010,5 hPa 0,0 l/m² 0,0 km/h (0 Bft) W-SW 247 ° 0,000 mm 8,3 °C 14,1 °C 1,6 km/h (1 Bft) 100,00 %
05.05.2026 03:28 14,1 °C 68 % 1010,5 hPa 0,0 l/m² 0,0 km/h (0 Bft) N 0 ° 0,000 mm 8,3 °C 14,1 °C 0,0 km/h (0 Bft) 100,00 %
05.05.2026 03:27 14,1 °C 68 % 1010,5 hPa 0,0 l/m² 0,0 km/h (0 Bft) W-SW 247 ° 0,000 mm 8,3 °C 14,1 °C 1,6 km/h (1 Bft) 95,65 %
05.05.2026 03:26 14,1 °C 68 % 1010,7 hPa 0,0 l/m² 0,0 km/h (0 Bft) W-SW 247 ° 0,000 mm 8,3 °C 14,1 °C 1,6 km/h (1 Bft) 100,00 %
05.05.2026 03:25 14,1 °C 68 % 1010,6 hPa 0,0 l/m² 0,0 km/h (0 Bft) N 0 ° 0,000 mm 8,3 °C 14,1 °C 0,0 km/h (0 Bft) 100,00 %
05.05.2026 03:24 14,2 °C 68 % 1010,6 hPa 0,0 l/m² 1,6 km/h (1 Bft) W-SW 247 ° 0,000 mm 8,4 °C 14,2 °C 3,2 km/h (1 Bft) 100,00 %
05.05.2026 03:23 14,2 °C 67 % 1010,6 hPa 0,0 l/m² 0,0 km/h (0 Bft) W 270 ° 0,000 mm 8,2 °C 14,2 °C 1,6 km/h (1 Bft) 100,00 %
05.05.2026 03:22 14,2 °C 68 % 1010,6 hPa 0,0 l/m² 0,0 km/h (0 Bft) W 270 ° 0,000 mm 8,4 °C 14,2 °C 1,6 km/h (1 Bft) 100,00 %
05.05.2026 03:21 14,2 °C 67 % 1010,7 hPa 0,0 l/m² 1,6 km/h (1 Bft) W 270 ° 0,000 mm 8,2 °C 14,2 °C 3,2 km/h (1 Bft) 100,00 %
05.05.2026 03:20 14,3 °C 67 % 1010,7 hPa 0,0 l/m² 3,2 km/h (1 Bft) W 270 ° 0,000 mm 8,3 °C 14,3 °C 3,2 km/h (1 Bft) 100,00 %
05.05.2026 03:19 14,3 °C 67 % 1010,7 hPa 0,0 l/m² 3,2 km/h (1 Bft) W 270 ° 0,000 mm 8,3 °C 14,3 °C 3,2 km/h (1 Bft) 100,00 %
05.05.2026 03:18 14,3 °C 67 % 1010,6 hPa 0,0 l/m² 3,2 km/h (1 Bft) W 270 ° 0,000 mm 8,3 °C 14,3 °C 3,2 km/h (1 Bft) 95,65 %
05.05.2026 03:17 14,3 °C 67 % 1010,7 hPa 0,0 l/m² 3,2 km/h (1 Bft) W 270 ° 0,000 mm 8,3 °C 14,3 °C 4,8 km/h (1 Bft) 100,00 %
05.05.2026 03:16 14,2 °C 68 % 1010,7 hPa 0,0 l/m² 3,2 km/h (1 Bft) W 270 ° 0,000 mm 8,4 °C 14,2 °C 4,8 km/h (1 Bft) 100,00 %
05.05.2026 03:15 14,2 °C 68 % 1010,7 hPa 0,0 l/m² 3,2 km/h (1 Bft) W 270 ° 0,000 mm 8,4 °C 14,2 °C 4,8 km/h (1 Bft) 100,00 %
05.05.2026 03:14 14,2 °C 68 % 1010,6 hPa 0,0 l/m² 4,8 km/h (1 Bft) W 270 ° 0,000 mm 8,4 °C 14,2 °C 4,8 km/h (1 Bft) 100,00 %
05.05.2026 03:13 14,1 °C 68 % 1010,6 hPa 0,0 l/m² 4,8 km/h (1 Bft) W 270 ° 0,000 mm 8,3 °C 14,1 °C 4,8 km/h (1 Bft) 100,00 %
05.05.2026 03:12 14,1 °C 68 % 1010,7 hPa 0,0 l/m² 3,2 km/h (1 Bft) W 270 ° 0,000 mm 8,3 °C 14,1 °C 3,2 km/h (1 Bft) 100,00 %
05.05.2026 03:11 14,1 °C 68 % 1010,6 hPa 0,0 l/m² 1,6 km/h (1 Bft) W 270 ° 0,000 mm 8,3 °C 14,1 °C 3,2 km/h (1 Bft) 100,00 %
05.05.2026 03:10 14,1 °C 68 % 1010,7 hPa 0,0 l/m² 3,2 km/h (1 Bft) W 270 ° 0,000 mm 8,3 °C 14,1 °C 3,2 km/h (1 Bft) 100,00 %
05.05.2026 03:09 14,1 °C 69 % 1010,6 hPa 0,0 l/m² 3,2 km/h (1 Bft) W-SW 247 ° 0,000 mm 8,5 °C 14,1 °C 3,2 km/h (1 Bft) 100,00 %
05.05.2026 03:08 13,9 °C 69 % 1010,5 hPa 0,0 l/m² 1,6 km/h (1 Bft) W-SW 247 ° 0,000 mm 8,3 °C 13,9 °C 3,2 km/h (1 Bft) 100,00 %
05.05.2026 03:07 13,9 °C 69 % 1010,7 hPa 0,0 l/m² 1,6 km/h (1 Bft) W-SW 247 ° 0,000 mm 8,3 °C 13,9 °C 3,2 km/h (1 Bft) 100,00 %
05.05.2026 03:06 13,9 °C 69 % 1010,6 hPa 0,0 l/m² 1,6 km/h (1 Bft) W-SW 247 ° 0,000 mm 8,3 °C 13,9 °C 1,6 km/h (1 Bft) 100,00 %
05.05.2026 03:05 13,9 °C 69 % 1010,7 hPa 0,0 l/m² 1,6 km/h (1 Bft) W-SW 247 ° 0,000 mm 8,3 °C 13,9 °C 1,6 km/h (1 Bft) 100,00 %
05.05.2026 03:04 13,9 °C 69 % 1010,7 hPa 0,0 l/m² 1,6 km/h (1 Bft) W-SW 247 ° 0,000 mm 8,3 °C 13,9 °C 3,2 km/h (1 Bft) 100,00 %
05.05.2026 03:03 13,9 °C 69 % 1010,7 hPa 0,0 l/m² 1,6 km/h (1 Bft) W-SW 247 ° 0,000 mm 8,3 °C 13,9 °C 3,2 km/h (1 Bft) 100,00 %
05.05.2026 03:02 13,9 °C 68 % 1010,6 hPa 0,0 l/m² 0,0 km/h (0 Bft) W-SW 247 ° 0,000 mm 8,1 °C 13,9 °C 1,6 km/h (1 Bft) 95,65 %
05.05.2026 03:01 13,9 °C 68 % 1010,6 hPa 0,0 l/m² 0,0 km/h (0 Bft) N 0 ° 0,000 mm 8,1 °C 13,9 °C 0,0 km/h (0 Bft) 100,00 %
05.05.2026 03:00 13,9 °C 68 % 1010,7 hPa 0,0 l/m² 0,0 km/h (0 Bft) N 0 ° 0,000 mm 8,1 °C 13,9 °C 0,0 km/h (0 Bft) 100,00 %
05.05.2026 02:59 14,0 °C 68 % 1010,7 hPa 0,0 l/m² 0,0 km/h (0 Bft) N 0 ° 0,000 mm 8,2 °C 14,0 °C 0,0 km/h (0 Bft) 100,00 %
05.05.2026 02:58 13,9 °C 68 % 1010,7 hPa 0,0 l/m² 0,0 km/h (0 Bft) N 0 ° 0,000 mm 8,1 °C 13,9 °C 0,0 km/h (0 Bft) 100,00 %
05.05.2026 02:57 14,0 °C 68 % 1010,6 hPa 0,0 l/m² 0,0 km/h (0 Bft) N 0 ° 0,000 mm 8,2 °C 14,0 °C 0,0 km/h (0 Bft) 100,00 %
05.05.2026 02:56 14,0 °C 68 % 1010,7 hPa 0,0 l/m² 0,0 km/h (0 Bft) SW 225 ° 0,000 mm 8,2 °C 14,0 °C 1,6 km/h (1 Bft) 100,00 %
05.05.2026 02:55 14,0 °C 68 % 1010,6 hPa 0,0 l/m² 0,0 km/h (0 Bft) SW 225 ° 0,000 mm 8,2 °C 14,0 °C 1,6 km/h (1 Bft) 100,00 %
05.05.2026 02:54 13,9 °C 69 % 1010,7 hPa 0,0 l/m² 0,0 km/h (0 Bft) SW 225 ° 0,000 mm 8,3 °C 13,9 °C 1,6 km/h (1 Bft) 95,65 %
05.05.2026 02:53 13,9 °C 69 % 1010,6 hPa 0,0 l/m² 1,6 km/h (1 Bft) SW 225 ° 0,000 mm 8,3 °C 13,9 °C 3,2 km/h (1 Bft) 95,65 %
05.05.2026 02:52 13,9 °C 69 % 1010,5 hPa 0,0 l/m² 1,6 km/h (1 Bft) SW 225 ° 0,000 mm 8,3 °C 13,9 °C 3,2 km/h (1 Bft) 100,00 %
05.05.2026 02:51 13,9 °C 69 % 1010,5 hPa 0,0 l/m² 1,6 km/h (1 Bft) SW 225 ° 0,000 mm 8,3 °C 13,9 °C 1,6 km/h (1 Bft) 100,00 %
05.05.2026 02:50 13,8 °C 69 % 1010,6 hPa 0,0 l/m² 1,6 km/h (1 Bft) SW 225 ° 0,000 mm 8,2 °C 13,8 °C 3,2 km/h (1 Bft) 100,00 %
05.05.2026 02:49 13,9 °C 69 % 1010,6 hPa 0,0 l/m² 0,0 km/h (0 Bft) N 0 ° 0,000 mm 8,3 °C 13,9 °C 0,0 km/h (0 Bft) 95,65 %
05.05.2026 02:48 13,9 °C 69 % 1010,7 hPa 0,0 l/m² 0,0 km/h (0 Bft) N 0 ° 0,000 mm 8,3 °C 13,9 °C 0,0 km/h (0 Bft) 100,00 %
05.05.2026 02:47 13,9 °C 69 % 1010,7 hPa 0,0 l/m² 0,0 km/h (0 Bft) N 0 ° 0,000 mm 8,3 °C 13,9 °C 0,0 km/h (0 Bft) 95,65 %
05.05.2026 02:46 13,9 °C 69 % 1010,7 hPa 0,0 l/m² 0,0 km/h (0 Bft) N 0 ° 0,000 mm 8,3 °C 13,9 °C 0,0 km/h (0 Bft) 100,00 %
05.05.2026 02:45 14,0 °C 68 % 1010,7 hPa 0,0 l/m² 0,0 km/h (0 Bft) N 0 ° 0,000 mm 8,2 °C 14,0 °C 0,0 km/h (0 Bft) 100,00 %
05.05.2026 02:44 14,1 °C 68 % 1010,7 hPa 0,0 l/m² 0,0 km/h (0 Bft) N 0 ° 0,000 mm 8,3 °C 14,1 °C 0,0 km/h (0 Bft) 100,00 %
05.05.2026 02:43 14,1 °C 68 % 1010,7 hPa 0,0 l/m² 0,0 km/h (0 Bft) SW 225 ° 0,000 mm 8,3 °C 14,1 °C 1,6 km/h (1 Bft) 100,00 %
05.05.2026 02:42 14,1 °C 68 % 1010,7 hPa 0,0 l/m² 0,0 km/h (0 Bft) SW 225 ° 0,000 mm 8,3 °C 14,1 °C 1,6 km/h (1 Bft) 100,00 %
05.05.2026 02:41 14,2 °C 68 % 1010,6 hPa 0,0 l/m² 1,6 km/h (1 Bft) SW 225 ° 0,000 mm 8,4 °C 14,2 °C 1,6 km/h (1 Bft) 100,00 %
05.05.2026 02:40 14,3 °C 68 % 1010,7 hPa 0,0 l/m² 0,0 km/h (0 Bft) SW 225 ° 0,000 mm 8,5 °C 14,3 °C 1,6 km/h (1 Bft) 100,00 %
05.05.2026 02:39 14,3 °C 67 % 1010,7 hPa 0,0 l/m² 0,0 km/h (0 Bft) SW 225 ° 0,000 mm 8,3 °C 14,3 °C 1,6 km/h (1 Bft) 100,00 %
05.05.2026 02:38 14,4 °C 67 % 1010,6 hPa 0,0 l/m² 0,0 km/h (0 Bft) SW 225 ° 0,000 mm 8,4 °C 14,4 °C 1,6 km/h (1 Bft) 100,00 %
05.05.2026 02:37 14,5 °C 67 % 1010,7 hPa 0,0 l/m² 0,0 km/h (0 Bft) N 0 ° 0,000 mm 8,4 °C 14,5 °C 0,0 km/h (0 Bft) 100,00 %
05.05.2026 02:36 14,6 °C 67 % 1010,8 hPa 0,0 l/m² 1,6 km/h (1 Bft) SW 225 ° 0,000 mm 8,5 °C 14,6 °C 3,2 km/h (1 Bft) 100,00 %
05.05.2026 02:35 14,6 °C 67 % 1010,7 hPa 0,0 l/m² 0,0 km/h (0 Bft) SW 225 ° 0,000 mm 8,5 °C 14,6 °C 3,2 km/h (1 Bft) 100,00 %
05.05.2026 02:34 14,6 °C 67 % 1010,7 hPa 0,0 l/m² 1,6 km/h (1 Bft) SW 225 ° 0,000 mm 8,5 °C 14,6 °C 1,6 km/h (1 Bft) 100,00 %
05.05.2026 02:33 14,6 °C 67 % 1010,7 hPa 0,0 l/m² 1,6 km/h (1 Bft) SW 225 ° 0,000 mm 8,5 °C 14,6 °C 1,6 km/h (1 Bft) 100,00 %
05.05.2026 02:32 14,6 °C 67 % 1010,7 hPa 0,0 l/m² 0,0 km/h (0 Bft) SW 225 ° 0,000 mm 8,5 °C 14,6 °C 1,6 km/h (1 Bft) 95,65 %
05.05.2026 02:31 14,7 °C 67 % 1010,7 hPa 0,0 l/m² 1,6 km/h (1 Bft) SW 225 ° 0,000 mm 8,6 °C 14,7 °C 1,6 km/h (1 Bft) 100,00 %
05.05.2026 02:30 14,7 °C 67 % 1010,8 hPa 0,0 l/m² 0,0 km/h (0 Bft) SW 225 ° 0,000 mm 8,6 °C 14,7 °C 1,6 km/h (1 Bft) 100,00 %
05.05.2026 02:29 14,7 °C 66 % 1010,8 hPa 0,0 l/m² 3,2 km/h (1 Bft) SW 225 ° 0,000 mm 8,4 °C 14,7 °C 3,2 km/h (1 Bft) 100,00 %
05.05.2026 02:28 14,7 °C 66 % 1010,7 hPa 0,0 l/m² 1,6 km/h (1 Bft) SW 225 ° 0,000 mm 8,4 °C 14,7 °C 3,2 km/h (1 Bft) 100,00 %
05.05.2026 02:27 14,7 °C 66 % 1010,8 hPa 0,0 l/m² 1,6 km/h (1 Bft) SW 225 ° 0,000 mm 8,4 °C 14,7 °C 3,2 km/h (1 Bft) 100,00 %
05.05.2026 02:26 14,8 °C 66 % 1010,8 hPa 0,0 l/m² 1,6 km/h (1 Bft) SW 225 ° 0,000 mm 8,5 °C 14,8 °C 3,2 km/h (1 Bft) 100,00 %
05.05.2026 02:25 14,8 °C 66 % 1010,8 hPa 0,0 l/m² 1,6 km/h (1 Bft) SW 225 ° 0,000 mm 8,5 °C 14,8 °C 3,2 km/h (1 Bft) 95,65 %
05.05.2026 02:24 14,8 °C 66 % 1010,8 hPa 0,0 l/m² 3,2 km/h (1 Bft) SW 225 ° 0,000 mm 8,5 °C 14,8 °C 6,4 km/h (2 Bft) 100,00 %
05.05.2026 02:23 14,8 °C 66 % 1010,7 hPa 0,0 l/m² 4,8 km/h (1 Bft) SW 225 ° 0,000 mm 8,5 °C 14,8 °C 6,4 km/h (2 Bft) 100,00 %
05.05.2026 02:22 14,8 °C 66 % 1010,8 hPa 0,0 l/m² 4,8 km/h (1 Bft) SW 225 ° 0,000 mm 8,5 °C 14,8 °C 8,0 km/h (2 Bft) 100,00 %
05.05.2026 02:21 14,7 °C 66 % 1010,8 hPa 0,0 l/m² 4,8 km/h (1 Bft) SW 225 ° 0,000 mm 8,4 °C 14,7 °C 6,4 km/h (2 Bft) 100,00 %
05.05.2026 02:20 14,7 °C 67 % 1010,8 hPa 0,0 l/m² 3,2 km/h (1 Bft) SW 225 ° 0,000 mm 8,6 °C 14,7 °C 4,8 km/h (1 Bft) 100,00 %
05.05.2026 02:19 14,7 °C 67 % 1010,8 hPa 0,0 l/m² 3,2 km/h (1 Bft) SW 225 ° 0,000 mm 8,6 °C 14,7 °C 3,2 km/h (1 Bft) 100,00 %
05.05.2026 02:18 14,7 °C 66 % 1010,7 hPa 0,0 l/m² 3,2 km/h (1 Bft) SW 225 ° 0,000 mm 8,4 °C 14,7 °C 4,8 km/h (1 Bft) 100,00 %
05.05.2026 02:17 14,7 °C 66 % 1010,8 hPa 0,0 l/m² 3,2 km/h (1 Bft) SW 225 ° 0,000 mm 8,4 °C 14,7 °C 3,2 km/h (1 Bft) 95,65 %
05.05.2026 02:16 14,7 °C 66 % 1010,8 hPa 0,0 l/m² 3,2 km/h (1 Bft) SW 225 ° 0,000 mm 8,4 °C 14,7 °C 3,2 km/h (1 Bft) 100,00 %
05.05.2026 02:15 14,7 °C 66 % 1010,9 hPa 0,0 l/m² 6,4 km/h (2 Bft) SW 225 ° 0,000 mm 8,4 °C 14,7 °C 8,0 km/h (2 Bft) 100,00 %
05.05.2026 02:14 14,6 °C 67 % 1010,9 hPa 0,0 l/m² 4,8 km/h (1 Bft) SW 225 ° 0,000 mm 8,5 °C 14,6 °C 8,0 km/h (2 Bft) 100,00 %
05.05.2026 02:13 14,6 °C 67 % 1010,8 hPa 0,0 l/m² 4,8 km/h (1 Bft) SW 225 ° 0,000 mm 8,5 °C 14,6 °C 6,4 km/h (2 Bft) 100,00 %
05.05.2026 02:12 14,6 °C 67 % 1010,8 hPa 0,0 l/m² 3,2 km/h (1 Bft) SW 225 ° 0,000 mm 8,5 °C 14,6 °C 4,8 km/h (1 Bft) 100,00 %
05.05.2026 02:11 14,6 °C 67 % 1010,8 hPa 0,0 l/m² 1,6 km/h (1 Bft) SW 225 ° 0,000 mm 8,5 °C 14,6 °C 3,2 km/h (1 Bft) 100,00 %
05.05.2026 02:10 14,7 °C 67 % 1010,8 hPa 0,0 l/m² 0,0 km/h (0 Bft) N 0 ° 0,000 mm 8,6 °C 14,7 °C 0,0 km/h (0 Bft) 100,00 %
05.05.2026 02:09 14,7 °C 66 % 1010,9 hPa 0,0 l/m² 0,0 km/h (0 Bft) SW 225 ° 0,000 mm 8,4 °C 14,7 °C 1,6 km/h (1 Bft) 100,00 %
05.05.2026 02:08 14,8 °C 66 % 1010,9 hPa 0,0 l/m² 0,0 km/h (0 Bft) SW 225 ° 0,000 mm 8,5 °C 14,8 °C 1,6 km/h (1 Bft) 100,00 %
05.05.2026 02:07 14,8 °C 66 % 1010,9 hPa 0,0 l/m² 0,0 km/h (0 Bft) SW 225 ° 0,000 mm 8,5 °C 14,8 °C 1,6 km/h (1 Bft) 100,00 %
05.05.2026 02:06 14,8 °C 66 % 1010,9 hPa 0,0 l/m² 1,6 km/h (1 Bft) SW 225 ° 0,000 mm 8,5 °C 14,8 °C 1,6 km/h (1 Bft) 95,65 %
05.05.2026 02:05 14,8 °C 66 % 1010,9 hPa 0,0 l/m² 1,6 km/h (1 Bft) SW 225 ° 0,000 mm 8,5 °C 14,8 °C 3,2 km/h (1 Bft) 100,00 %
05.05.2026 02:04 14,9 °C 66 % 1010,9 hPa 0,0 l/m² 1,6 km/h (1 Bft) SW 225 ° 0,000 mm 8,6 °C 14,9 °C 1,6 km/h (1 Bft) 100,00 %
05.05.2026 02:03 14,9 °C 66 % 1010,9 hPa 0,0 l/m² 0,0 km/h (0 Bft) SW 225 ° 0,000 mm 8,6 °C 14,9 °C 1,6 km/h (1 Bft) 100,00 %
05.05.2026 02:02 14,9 °C 65 % 1010,9 hPa 0,0 l/m² 0,0 km/h (0 Bft) SW 225 ° 0,000 mm 8,4 °C 14,9 °C 1,6 km/h (1 Bft) 100,00 %
05.05.2026 02:01 15,0 °C 65 % 1010,9 hPa 0,0 l/m² 1,6 km/h (1 Bft) SW 225 ° 0,000 mm 8,5 °C 15,0 °C 3,2 km/h (1 Bft) 100,00 %
05.05.2026 02:00 15,0 °C 65 % 1011,0 hPa 0,0 l/m² 1,6 km/h (1 Bft) SW 225 ° 0,000 mm 8,5 °C 15,0 °C 3,2 km/h (1 Bft) 100,00 %
05.05.2026 01:59 15,0 °C 65 % 1010,9 hPa 0,0 l/m² 1,6 km/h (1 Bft) SW 225 ° 0,000 mm 8,5 °C 15,0 °C 4,8 km/h (1 Bft) 100,00 %
05.05.2026 01:58 15,0 °C 65 % 1010,9 hPa 0,0 l/m² 1,6 km/h (1 Bft) SW 225 ° 0,000 mm 8,5 °C 15,0 °C 3,2 km/h (1 Bft) 95,65 %
05.05.2026 01:57 15,1 °C 65 % 1010,9 hPa 0,0 l/m² 3,2 km/h (1 Bft) SW 225 ° 0,000 mm 8,6 °C 15,1 °C 4,8 km/h (1 Bft) 100,00 %
05.05.2026 01:56 15,0 °C 65 % 1010,9 hPa 0,0 l/m² 3,2 km/h (1 Bft) SW 225 ° 0,000 mm 8,5 °C 15,0 °C 4,8 km/h (1 Bft) 100,00 %
05.05.2026 01:55 15,0 °C 65 % 1010,9 hPa 0,0 l/m² 3,2 km/h (1 Bft) SW 225 ° 0,000 mm 8,5 °C 15,0 °C 4,8 km/h (1 Bft) 100,00 %
05.05.2026 01:54 15,0 °C 65 % 1010,9 hPa 0,0 l/m² 3,2 km/h (1 Bft) SW 225 ° 0,000 mm 8,5 °C 15,0 °C 3,2 km/h (1 Bft) 100,00 %
05.05.2026 01:53 15,0 °C 65 % 1010,9 hPa 0,0 l/m² 1,6 km/h (1 Bft) SW 225 ° 0,000 mm 8,5 °C 15,0 °C 3,2 km/h (1 Bft) 100,00 %
05.05.2026 01:52 15,0 °C 65 % 1010,9 hPa 0,0 l/m² 3,2 km/h (1 Bft) SW 225 ° 0,000 mm 8,5 °C 15,0 °C 3,2 km/h (1 Bft) 100,00 %
05.05.2026 01:51 15,1 °C 65 % 1011,0 hPa 0,0 l/m² 0,0 km/h (0 Bft) SW 225 ° 0,000 mm 8,6 °C 15,1 °C 1,6 km/h (1 Bft) 100,00 %
05.05.2026 01:50 15,1 °C 65 % 1011,0 hPa 0,0 l/m² 0,0 km/h (0 Bft) SW 225 ° 0,000 mm 8,6 °C 15,1 °C 1,6 km/h (1 Bft) 100,00 %
05.05.2026 01:49 15,1 °C 65 % 1011,0 hPa 0,0 l/m² 1,6 km/h (1 Bft) SW 225 ° 0,000 mm 8,6 °C 15,1 °C 1,6 km/h (1 Bft) 100,00 %
05.05.2026 01:48 15,1 °C 65 % 1011,1 hPa 0,0 l/m² 0,0 km/h (0 Bft) SW 225 ° 0,000 mm 8,6 °C 15,1 °C 1,6 km/h (1 Bft) 95,65 %
05.05.2026 01:47 15,1 °C 65 % 1011,1 hPa 0,0 l/m² 0,0 km/h (0 Bft) SW 225 ° 0,000 mm 8,6 °C 15,1 °C 1,6 km/h (1 Bft) 100,00 %
05.05.2026 01:46 15,1 °C 65 % 1011,1 hPa 0,0 l/m² 1,6 km/h (1 Bft) SW 225 ° 0,000 mm 8,6 °C 15,1 °C 3,2 km/h (1 Bft) 100,00 %
05.05.2026 01:45 15,1 °C 65 % 1011,1 hPa 0,0 l/m² 0,0 km/h (0 Bft) SW 225 ° 0,000 mm 8,6 °C 15,1 °C 1,6 km/h (1 Bft) 100,00 %
05.05.2026 01:44 15,1 °C 65 % 1011,0 hPa 0,0 l/m² 1,6 km/h (1 Bft) SW 225 ° 0,000 mm 8,6 °C 15,1 °C 1,6 km/h (1 Bft) 100,00 %
05.05.2026 01:43 15,1 °C 65 % 1011,0 hPa 0,0 l/m² 0,0 km/h (0 Bft) N 0 ° 0,000 mm 8,6 °C 15,1 °C 0,0 km/h (0 Bft) 100,00 %
05.05.2026 01:42 15,2 °C 65 % 1011,1 hPa 0,0 l/m² 0,0 km/h (0 Bft) N 0 ° 0,000 mm 8,7 °C 15,2 °C 0,0 km/h (0 Bft) 100,00 %
05.05.2026 01:41 15,2 °C 64 % 1011,1 hPa 0,0 l/m² 0,0 km/h (0 Bft) N 0 ° 0,000 mm 8,4 °C 15,2 °C 0,0 km/h (0 Bft) 100,00 %
05.05.2026 01:40 15,2 °C 64 % 1011,1 hPa 0,0 l/m² 0,0 km/h (0 Bft) N 0 ° 0,000 mm 8,4 °C 15,2 °C 0,0 km/h (0 Bft) 100,00 %
05.05.2026 01:39 15,3 °C 64 % 1011,1 hPa 0,0 l/m² 0,0 km/h (0 Bft) N 0 ° 0,000 mm 8,5 °C 15,3 °C 0,0 km/h (0 Bft) 100,00 %
05.05.2026 01:38 15,3 °C 64 % 1011,1 hPa 0,0 l/m² 0,0 km/h (0 Bft) N 0 ° 0,000 mm 8,5 °C 15,3 °C 0,0 km/h (0 Bft) 100,00 %
05.05.2026 01:37 15,3 °C 64 % 1011,1 hPa 0,0 l/m² 0,0 km/h (0 Bft) N 0 ° 0,000 mm 8,5 °C 15,3 °C 0,0 km/h (0 Bft) 100,00 %
05.05.2026 01:36 15,3 °C 64 % 1011,2 hPa 0,0 l/m² 0,0 km/h (0 Bft) N 0 ° 0,000 mm 8,5 °C 15,3 °C 0,0 km/h (0 Bft) 95,65 %
05.05.2026 01:35 15,3 °C 64 % 1011,2 hPa 0,0 l/m² 0,0 km/h (0 Bft) N 0 ° 0,000 mm 8,5 °C 15,3 °C 0,0 km/h (0 Bft) 100,00 %
05.05.2026 01:34 15,4 °C 64 % 1011,2 hPa 0,0 l/m² 0,0 km/h (0 Bft) N 0 ° 0,000 mm 8,6 °C 15,4 °C 0,0 km/h (0 Bft) 100,00 %
05.05.2026 01:33 15,4 °C 64 % 1011,2 hPa 0,0 l/m² 0,0 km/h (0 Bft) N 0 ° 0,000 mm 8,6 °C 15,4 °C 0,0 km/h (0 Bft) 100,00 %
05.05.2026 01:32 15,4 °C 64 % 1011,1 hPa 0,0 l/m² 0,0 km/h (0 Bft) N 0 ° 0,000 mm 8,6 °C 15,4 °C 0,0 km/h (0 Bft) 100,00 %
05.05.2026 01:31 15,4 °C 63 % 1011,2 hPa 0,0 l/m² 0,0 km/h (0 Bft) N 0 ° 0,000 mm 8,4 °C 15,4 °C 0,0 km/h (0 Bft) 100,00 %
05.05.2026 01:30 15,4 °C 63 % 1011,2 hPa 0,0 l/m² 0,0 km/h (0 Bft) N 0 ° 0,000 mm 8,4 °C 15,4 °C 0,0 km/h (0 Bft) 100,00 %
05.05.2026 01:29 15,4 °C 63 % 1011,2 hPa 0,0 l/m² 0,0 km/h (0 Bft) N 0 ° 0,000 mm 8,4 °C 15,4 °C 0,0 km/h (0 Bft) 100,00 %
05.05.2026 01:28 15,4 °C 63 % 1011,2 hPa 0,0 l/m² 0,0 km/h (0 Bft) SW 225 ° 0,000 mm 8,4 °C 15,4 °C 1,6 km/h (1 Bft) 100,00 %
05.05.2026 01:27 15,4 °C 63 % 1011,2 hPa 0,0 l/m² 0,0 km/h (0 Bft) SW 225 ° 0,000 mm 8,4 °C 15,4 °C 1,6 km/h (1 Bft) 100,00 %
05.05.2026 01:26 15,4 °C 63 % 1011,2 hPa 0,0 l/m² 0,0 km/h (0 Bft) SW 225 ° 0,000 mm 8,4 °C 15,4 °C 1,6 km/h (1 Bft) 100,00 %
05.05.2026 01:25 15,5 °C 63 % 1011,3 hPa 0,0 l/m² 0,0 km/h (0 Bft) SW 225 ° 0,000 mm 8,5 °C 15,5 °C 1,6 km/h (1 Bft) 100,00 %
05.05.2026 01:24 15,5 °C 63 % 1011,2 hPa 0,0 l/m² 0,0 km/h (0 Bft) SW 225 ° 0,000 mm 8,5 °C 15,5 °C 1,6 km/h (1 Bft) 100,00 %
05.05.2026 01:23 15,5 °C 63 % 1011,2 hPa 0,0 l/m² 0,0 km/h (0 Bft) N 0 ° 0,000 mm 8,5 °C 15,5 °C 0,0 km/h (0 Bft) 100,00 %
05.05.2026 01:22 15,6 °C 63 % 1011,3 hPa 0,0 l/m² 0,0 km/h (0 Bft) SW 225 ° 0,000 mm 8,6 °C 15,6 °C 1,6 km/h (1 Bft) 100,00 %
05.05.2026 01:21 15,6 °C 63 % 1011,3 hPa 0,0 l/m² 0,0 km/h (0 Bft) SW 225 ° 0,000 mm 8,6 °C 15,6 °C 1,6 km/h (1 Bft) 100,00 %
05.05.2026 01:20 15,6 °C 63 % 1011,2 hPa 0,0 l/m² 1,6 km/h (1 Bft) SW 225 ° 0,000 mm 8,6 °C 15,6 °C 1,6 km/h (1 Bft) 100,00 %
05.05.2026 01:19 15,6 °C 63 % 1011,3 hPa 0,0 l/m² 1,6 km/h (1 Bft) SW 225 ° 0,000 mm 8,6 °C 15,6 °C 3,2 km/h (1 Bft) 100,00 %
05.05.2026 01:18 15,6 °C 63 % 1011,3 hPa 0,0 l/m² 1,6 km/h (1 Bft) SW 225 ° 0,000 mm 8,6 °C 15,6 °C 3,2 km/h (1 Bft) 100,00 %
05.05.2026 01:17 15,7 °C 63 % 1011,3 hPa 0,0 l/m² 1,6 km/h (1 Bft) SW 225 ° 0,000 mm 8,7 °C 15,7 °C 3,2 km/h (1 Bft) 100,00 %
05.05.2026 01:16 15,7 °C 63 % 1011,4 hPa 0,0 l/m² 1,6 km/h (1 Bft) SW 225 ° 0,000 mm 8,7 °C 15,7 °C 1,6 km/h (1 Bft) 100,00 %
05.05.2026 01:15 15,7 °C 63 % 1011,3 hPa 0,0 l/m² 0,0 km/h (0 Bft) S-SW 202 ° 0,000 mm 8,7 °C 15,7 °C 1,6 km/h (1 Bft) 100,00 %
05.05.2026 01:14 15,7 °C 63 % 1011,4 hPa 0,0 l/m² 0,0 km/h (0 Bft) N 0 ° 0,000 mm 8,7 °C 15,7 °C 0,0 km/h (0 Bft) 100,00 %
05.05.2026 01:13 15,8 °C 63 % 1011,4 hPa 0,0 l/m² 0,0 km/h (0 Bft) S-SW 202 ° 0,000 mm 8,8 °C 15,8 °C 1,6 km/h (1 Bft) 100,00 %
05.05.2026 01:12 15,8 °C 62 % 1011,3 hPa 0,0 l/m² 0,0 km/h (0 Bft) S-SW 202 ° 0,000 mm 8,5 °C 15,8 °C 1,6 km/h (1 Bft) 100,00 %
05.05.2026 01:11 15,8 °C 62 % 1011,4 hPa 0,0 l/m² 1,6 km/h (1 Bft) S-SW 202 ° 0,000 mm 8,5 °C 15,8 °C 1,6 km/h (1 Bft) 100,00 %
05.05.2026 01:10 15,8 °C 62 % 1011,4 hPa 0,0 l/m² 1,6 km/h (1 Bft) S-SW 202 ° 0,000 mm 8,5 °C 15,8 °C 3,2 km/h (1 Bft) 100,00 %
05.05.2026 01:09 15,9 °C 62 % 1011,4 hPa 0,0 l/m² 0,0 km/h (0 Bft) S-SW 202 ° 0,000 mm 8,6 °C 15,9 °C 1,6 km/h (1 Bft) 100,00 %
05.05.2026 01:08 16,0 °C 62 % 1011,4 hPa 0,0 l/m² 1,6 km/h (1 Bft) S-SW 202 ° 0,000 mm 8,7 °C 16,0 °C 3,2 km/h (1 Bft) 100,00 %
05.05.2026 01:07 16,1 °C 62 % 1011,4 hPa 0,0 l/m² 3,2 km/h (1 Bft) S-SW 202 ° 0,000 mm 8,8 °C 16,1 °C 3,2 km/h (1 Bft) 100,00 %
05.05.2026 01:06 16,2 °C 61 % 1011,4 hPa 0,0 l/m² 3,2 km/h (1 Bft) SW 225 ° 0,000 mm 8,7 °C 16,2 °C 4,8 km/h (1 Bft) 100,00 %
05.05.2026 01:05 16,3 °C 61 % 1011,4 hPa 0,0 l/m² 1,6 km/h (1 Bft) SW 225 ° 0,000 mm 8,8 °C 16,3 °C 3,2 km/h (1 Bft) 100,00 %
05.05.2026 01:04 16,3 °C 61 % 1011,4 hPa 0,0 l/m² 1,6 km/h (1 Bft) SW 225 ° 0,000 mm 8,8 °C 16,3 °C 3,2 km/h (1 Bft) 100,00 %
05.05.2026 01:03 16,4 °C 61 % 1011,5 hPa 0,0 l/m² 1,6 km/h (1 Bft) SW 225 ° 0,000 mm 8,9 °C 16,4 °C 3,2 km/h (1 Bft) 100,00 %
05.05.2026 01:02 16,6 °C 61 % 1011,4 hPa 0,0 l/m² 1,6 km/h (1 Bft) SW 225 ° 0,000 mm 9,0 °C 16,6 °C 3,2 km/h (1 Bft) 100,00 %
05.05.2026 01:01 16,6 °C 61 % 1011,4 hPa 0,0 l/m² 1,6 km/h (1 Bft) SW 225 ° 0,000 mm 9,0 °C 16,6 °C 1,6 km/h (1 Bft) 91,30 %
05.05.2026 01:00 16,7 °C 60 % 1011,4 hPa 0,0 l/m² 3,2 km/h (1 Bft) SW 225 ° 0,000 mm 8,9 °C 16,7 °C 4,8 km/h (1 Bft) 100,00 %
05.05.2026 00:59 16,8 °C 60 % 1011,4 hPa 0,0 l/m² 1,6 km/h (1 Bft) SW 225 ° 0,000 mm 9,0 °C 16,8 °C 3,2 km/h (1 Bft) 100,00 %
05.05.2026 00:58 16,9 °C 60 % 1011,5 hPa 0,0 l/m² 3,2 km/h (1 Bft) S-SW 202 ° 0,000 mm 9,1 °C 16,9 °C 6,4 km/h (2 Bft) 100,00 %
05.05.2026 00:57 16,9 °C 60 % 1011,4 hPa 0,0 l/m² 4,8 km/h (1 Bft) SW 225 ° 0,000 mm 9,1 °C 16,9 °C 6,4 km/h (2 Bft) 100,00 %
05.05.2026 00:56 16,9 °C 60 % 1011,4 hPa 0,0 l/m² 4,8 km/h (1 Bft) SW 225 ° 0,000 mm 9,1 °C 16,9 °C 6,4 km/h (2 Bft) 95,65 %
05.05.2026 00:55 17,1 °C 60 % 1011,5 hPa 0,0 l/m² 3,2 km/h (1 Bft) SW 225 ° 0,000 mm 9,3 °C 17,1 °C 6,4 km/h (2 Bft) 100,00 %
05.05.2026 00:54 17,1 °C 59 % 1011,5 hPa 0,0 l/m² 4,8 km/h (1 Bft) SW 225 ° 0,000 mm 9,0 °C 17,1 °C 8,0 km/h (2 Bft) 100,00 %
05.05.2026 00:53 17,1 °C 59 % 1011,4 hPa 0,0 l/m² 4,8 km/h (1 Bft) SW 225 ° 0,000 mm 9,0 °C 17,1 °C 6,4 km/h (2 Bft) 100,00 %
05.05.2026 00:52 17,1 °C 59 % 1011,5 hPa 0,0 l/m² 4,8 km/h (1 Bft) SW 225 ° 0,000 mm 9,0 °C 17,1 °C 6,4 km/h (2 Bft) 100,00 %
05.05.2026 00:51 17,1 °C 59 % 1011,5 hPa 0,0 l/m² 6,4 km/h (2 Bft) SW 225 ° 0,000 mm 9,0 °C 17,1 °C 6,4 km/h (2 Bft) 95,65 %
05.05.2026 00:50 17,2 °C 59 % 1011,5 hPa 0,0 l/m² 4,8 km/h (1 Bft) SW 225 ° 0,000 mm 9,1 °C 17,2 °C 6,4 km/h (2 Bft) 100,00 %
05.05.2026 00:49 17,2 °C 59 % 1011,5 hPa 0,0 l/m² 4,8 km/h (1 Bft) SW 225 ° 0,000 mm 9,1 °C 17,2 °C 8,0 km/h (2 Bft) 100,00 %
05.05.2026 00:48 17,2 °C 59 % 1011,5 hPa 0,0 l/m² 6,4 km/h (2 Bft) SW 225 ° 0,000 mm 9,1 °C 17,2 °C 8,0 km/h (2 Bft) 100,00 %
05.05.2026 00:47 17,2 °C 59 % 1011,5 hPa 0,0 l/m² 3,2 km/h (1 Bft) SW 225 ° 0,000 mm 9,1 °C 17,2 °C 4,8 km/h (1 Bft) 100,00 %
05.05.2026 00:46 17,2 °C 59 % 1011,5 hPa 0,0 l/m² 6,4 km/h (2 Bft) SW 225 ° 0,000 mm 9,1 °C 17,2 °C 8,0 km/h (2 Bft) 100,00 %
05.05.2026 00:45 17,2 °C 59 % 1011,5 hPa 0,0 l/m² 4,8 km/h (1 Bft) SW 225 ° 0,000 mm 9,1 °C 17,2 °C 8,0 km/h (2 Bft) 100,00 %
05.05.2026 00:44 17,2 °C 59 % 1011,5 hPa 0,0 l/m² 4,8 km/h (1 Bft) SW 225 ° 0,000 mm 9,1 °C 17,2 °C 8,0 km/h (2 Bft) 100,00 %
05.05.2026 00:43 17,2 °C 59 % 1011,5 hPa 0,0 l/m² 4,8 km/h (1 Bft) SW 225 ° 0,000 mm 9,1 °C 17,2 °C 6,4 km/h (2 Bft) 100,00 %
05.05.2026 00:42 17,2 °C 59 % 1011,5 hPa 0,0 l/m² 4,8 km/h (1 Bft) SW 225 ° 0,000 mm 9,1 °C 17,2 °C 6,4 km/h (2 Bft) 100,00 %
05.05.2026 00:41 17,1 °C 59 % 1011,6 hPa 0,0 l/m² 3,2 km/h (1 Bft) W-SW 247 ° 0,000 mm 9,0 °C 17,1 °C 9,7 km/h (2 Bft) 100,00 %
05.05.2026 00:40 17,1 °C 59 % 1011,5 hPa 0,0 l/m² 3,2 km/h (1 Bft) W-SW 247 ° 0,000 mm 9,0 °C 17,1 °C 6,4 km/h (2 Bft) 100,00 %
05.05.2026 00:39 17,1 °C 59 % 1011,5 hPa 0,0 l/m² 6,4 km/h (2 Bft) SW 225 ° 0,000 mm 9,0 °C 17,1 °C 9,7 km/h (2 Bft) 100,00 %
05.05.2026 00:38 17,0 °C 59 % 1011,5 hPa 0,0 l/m² 4,8 km/h (1 Bft) SW 225 ° 0,000 mm 8,9 °C 17,0 °C 8,0 km/h (2 Bft) 100,00 %
05.05.2026 00:37 16,9 °C 60 % 1011,6 hPa 0,0 l/m² 4,8 km/h (1 Bft) SW 225 ° 0,000 mm 9,1 °C 16,9 °C 8,0 km/h (2 Bft) 100,00 %
05.05.2026 00:36 16,9 °C 60 % 1011,6 hPa 0,0 l/m² 4,8 km/h (1 Bft) SW 225 ° 0,000 mm 9,1 °C 16,9 °C 6,4 km/h (2 Bft) 100,00 %
05.05.2026 00:35 17,0 °C 60 % 1011,5 hPa 0,0 l/m² 6,4 km/h (2 Bft) SW 225 ° 0,000 mm 9,2 °C 17,0 °C 8,0 km/h (2 Bft) 100,00 %
05.05.2026 00:34 17,1 °C 60 % 1011,6 hPa 0,0 l/m² 4,8 km/h (1 Bft) SW 225 ° 0,000 mm 9,3 °C 17,1 °C 6,4 km/h (2 Bft) 100,00 %
05.05.2026 00:33 17,1 °C 60 % 1011,5 hPa 0,0 l/m² 4,8 km/h (1 Bft) SW 225 ° 0,000 mm 9,3 °C 17,1 °C 6,4 km/h (2 Bft) 100,00 %
05.05.2026 00:32 17,1 °C 59 % 1011,5 hPa 0,0 l/m² 3,2 km/h (1 Bft) SW 225 ° 0,000 mm 9,0 °C 17,1 °C 4,8 km/h (1 Bft) 100,00 %
05.05.2026 00:31 17,1 °C 59 % 1011,6 hPa 0,0 l/m² 3,2 km/h (1 Bft) SW 225 ° 0,000 mm 9,0 °C 17,1 °C 4,8 km/h (1 Bft) 100,00 %
05.05.2026 00:30 17,2 °C 59 % 1011,6 hPa 0,0 l/m² 3,2 km/h (1 Bft) SW 225 ° 0,000 mm 9,1 °C 17,2 °C 6,4 km/h (2 Bft) 100,00 %
05.05.2026 00:29 17,2 °C 59 % 1011,6 hPa 0,0 l/m² 3,2 km/h (1 Bft) S-SW 202 ° 0,000 mm 9,1 °C 17,2 °C 6,4 km/h (2 Bft) 95,65 %
05.05.2026 00:28 17,3 °C 59 % 1011,6 hPa 0,0 l/m² 3,2 km/h (1 Bft) SW 225 ° 0,000 mm 9,2 °C 17,3 °C 6,4 km/h (2 Bft) 100,00 %
05.05.2026 00:27 17,4 °C 59 % 1011,6 hPa 0,0 l/m² 1,6 km/h (1 Bft) SW 225 ° 0,000 mm 9,3 °C 17,4 °C 1,6 km/h (1 Bft) 100,00 %
05.05.2026 00:26 17,4 °C 59 % 1011,6 hPa 0,0 l/m² 1,6 km/h (1 Bft) SW 225 ° 0,000 mm 9,3 °C 17,4 °C 1,6 km/h (1 Bft) 100,00 %
05.05.2026 00:25 17,5 °C 58 % 1011,5 hPa 0,0 l/m² 3,2 km/h (1 Bft) SW 225 ° 0,000 mm 9,1 °C 17,5 °C 4,8 km/h (1 Bft) 100,00 %
05.05.2026 00:24 17,6 °C 58 % 1011,6 hPa 0,0 l/m² 3,2 km/h (1 Bft) S-SW 202 ° 0,000 mm 9,2 °C 17,6 °C 8,0 km/h (2 Bft) 100,00 %
05.05.2026 00:23 17,6 °C 58 % 1011,6 hPa 0,0 l/m² 4,8 km/h (1 Bft) S-SW 202 ° 0,000 mm 9,2 °C 17,6 °C 8,0 km/h (2 Bft) 100,00 %
05.05.2026 00:22 17,7 °C 58 % 1011,6 hPa 0,0 l/m² 4,8 km/h (1 Bft) SW 225 ° 0,000 mm 9,3 °C 17,7 °C 6,4 km/h (2 Bft) 95,65 %
05.05.2026 00:21 17,8 °C 57 % 1011,7 hPa 0,0 l/m² 3,2 km/h (1 Bft) SW 225 ° 0,000 mm 9,2 °C 17,8 °C 6,4 km/h (2 Bft) 100,00 %
05.05.2026 00:20 17,8 °C 57 % 1011,6 hPa 0,0 l/m² 0,0 km/h (0 Bft) SW 225 ° 0,000 mm 9,2 °C 17,8 °C 1,6 km/h (1 Bft) 100,00 %
05.05.2026 00:19 17,9 °C 57 % 1011,6 hPa 0,0 l/m² 1,6 km/h (1 Bft) SW 225 ° 0,000 mm 9,3 °C 17,9 °C 1,6 km/h (1 Bft) 100,00 %
05.05.2026 00:18 18,0 °C 57 % 1011,6 hPa 0,0 l/m² 1,6 km/h (1 Bft) SW 225 ° 0,000 mm 9,4 °C 18,0 °C 3,2 km/h (1 Bft) 100,00 %
05.05.2026 00:17 18,1 °C 56 % 1011,7 hPa 0,0 l/m² 0,0 km/h (0 Bft) SW 225 ° 0,000 mm 9,2 °C 18,1 °C 1,6 km/h (1 Bft) 95,65 %
05.05.2026 00:16 18,2 °C 56 % 1011,7 hPa 0,0 l/m² 0,0 km/h (0 Bft) SW 225 ° 0,000 mm 9,3 °C 18,2 °C 1,6 km/h (1 Bft) 100,00 %
05.05.2026 00:15 18,2 °C 56 % 1011,6 hPa 0,0 l/m² 0,0 km/h (0 Bft) SW 225 ° 0,000 mm 9,3 °C 18,2 °C 1,6 km/h (1 Bft) 100,00 %
05.05.2026 00:14 18,2 °C 56 % 1011,6 hPa 0,0 l/m² 0,0 km/h (0 Bft) S-SW 202 ° 0,000 mm 9,3 °C 18,2 °C 1,6 km/h (1 Bft) 100,00 %
05.05.2026 00:13 18,3 °C 56 % 1011,6 hPa 0,0 l/m² 1,6 km/h (1 Bft) S-SW 202 ° 0,000 mm 9,4 °C 18,3 °C 4,8 km/h (1 Bft) 100,00 %
05.05.2026 00:12 18,3 °C 56 % 1011,6 hPa 0,0 l/m² 3,2 km/h (1 Bft) S-SW 202 ° 0,000 mm 9,4 °C 18,3 °C 4,8 km/h (1 Bft) 100,00 %
05.05.2026 00:11 18,3 °C 55 % 1011,7 hPa 0,0 l/m² 4,8 km/h (1 Bft) S-SW 202 ° 0,000 mm 9,1 °C 18,3 °C 4,8 km/h (1 Bft) 100,00 %
05.05.2026 00:10 18,3 °C 55 % 1011,7 hPa 0,0 l/m² 1,6 km/h (1 Bft) SW 225 ° 0,000 mm 9,1 °C 18,3 °C 1,6 km/h (1 Bft) 100,00 %
05.05.2026 00:09 18,4 °C 55 % 1011,8 hPa 0,0 l/m² 1,6 km/h (1 Bft) SW 225 ° 0,000 mm 9,2 °C 18,4 °C 1,6 km/h (1 Bft) 100,00 %
05.05.2026 00:08 18,4 °C 55 % 1011,6 hPa 0,0 l/m² 1,6 km/h (1 Bft) SW 225 ° 0,000 mm 9,2 °C 18,4 °C 1,6 km/h (1 Bft) 100,00 %
05.05.2026 00:07 18,4 °C 55 % 1011,7 hPa 0,0 l/m² 0,0 km/h (0 Bft) SW 225 ° 0,000 mm 9,2 °C 18,4 °C 1,6 km/h (1 Bft) 100,00 %
05.05.2026 00:06 18,5 °C 55 % 1011,7 hPa 0,0 l/m² 1,6 km/h (1 Bft) SW 225 ° 0,000 mm 9,3 °C 18,5 °C 3,2 km/h (1 Bft) 100,00 %
05.05.2026 00:05 18,5 °C 55 % 1011,7 hPa 0,0 l/m² 1,6 km/h (1 Bft) SW 225 ° 0,000 mm 9,3 °C 18,5 °C 1,6 km/h (1 Bft) 100,00 %
05.05.2026 00:04 18,5 °C 55 % 1011,6 hPa 0,0 l/m² 0,0 km/h (0 Bft) SW 225 ° 0,000 mm 9,3 °C 18,5 °C 3,2 km/h (1 Bft) 100,00 %
05.05.2026 00:03 18,6 °C 55 % 1011,6 hPa 0,0 l/m² 1,6 km/h (1 Bft) SW 225 ° 0,000 mm 9,4 °C 18,6 °C 3,2 km/h (1 Bft) 95,65 %
05.05.2026 00:02 18,7 °C 54 % 1011,6 hPa 0,0 l/m² 0,0 km/h (0 Bft) N 0 ° 0,000 mm 9,2 °C 18,7 °C 0,0 km/h (0 Bft) 0,00 %
05.05.2026 00:01 18,7 °C 54 % 1011,6 hPa 0,0 l/m² 3,2 km/h (1 Bft) SW 225 ° 0,000 mm 9,2 °C 18,7 °C 3,2 km/h (1 Bft) 8,70 %
05.05.2026 00:00 18,7 °C 54 % 1011,7 hPa 0,0 l/m² 1,6 km/h (1 Bft) W-SW 247 ° 0,000 mm 9,2 °C 18,7 °C 3,2 km/h (1 Bft) 100,00 %
04.05.2026 23:59 18,7 °C 54 % 1011,7 hPa 0,0 l/m² 1,6 km/h (1 Bft) W-SW 247 ° 0,000 mm 9,2 °C 18,7 °C 1,6 km/h (1 Bft) 100,00 %
04.05.2026 23:58 18,8 °C 54 % 1011,7 hPa 0,0 l/m² 1,6 km/h (1 Bft) W-SW 247 ° 0,000 mm 9,3 °C 18,8 °C 1,6 km/h (1 Bft) 100,00 %
04.05.2026 23:57 18,8 °C 54 % 1011,7 hPa 0,0 l/m² 1,6 km/h (1 Bft) SW 225 ° 0,000 mm 9,3 °C 18,8 °C 3,2 km/h (1 Bft) 95,65 %
04.05.2026 23:56 18,8 °C 54 % 1011,6 hPa 0,0 l/m² 3,2 km/h (1 Bft) SW 225 ° 0,000 mm 9,3 °C 18,8 °C 4,8 km/h (1 Bft) 100,00 %
04.05.2026 23:55 18,8 °C 54 % 1011,7 hPa 0,0 l/m² 3,2 km/h (1 Bft) SW 225 ° 0,000 mm 9,3 °C 18,8 °C 4,8 km/h (1 Bft) 100,00 %
04.05.2026 23:54 18,8 °C 54 % 1011,7 hPa 0,0 l/m² 3,2 km/h (1 Bft) SW 225 ° 0,000 mm 9,3 °C 18,8 °C 3,2 km/h (1 Bft) 95,65 %
04.05.2026 23:53 18,8 °C 54 % 1011,7 hPa 0,0 l/m² 1,6 km/h (1 Bft) SW 225 ° 0,000 mm 9,3 °C 18,8 °C 3,2 km/h (1 Bft) 100,00 %
04.05.2026 23:52 18,8 °C 54 % 1011,6 hPa 0,0 l/m² 1,6 km/h (1 Bft) SW 225 ° 0,000 mm 9,3 °C 18,8 °C 1,6 km/h (1 Bft) 100,00 %
04.05.2026 23:51 18,9 °C 54 % 1011,6 hPa 0,0 l/m² 1,6 km/h (1 Bft) SW 225 ° 0,000 mm 9,4 °C 18,9 °C 1,6 km/h (1 Bft) 100,00 %
04.05.2026 23:50 18,9 °C 53 % 1011,6 hPa 0,0 l/m² 0,0 km/h (0 Bft) SW 225 ° 0,000 mm 9,1 °C 18,9 °C 1,6 km/h (1 Bft) 100,00 %
04.05.2026 23:49 19,0 °C 53 % 1011,6 hPa 0,0 l/m² 0,0 km/h (0 Bft) N 0 ° 0,000 mm 9,2 °C 19,0 °C 0,0 km/h (0 Bft) 100,00 %
04.05.2026 23:48 19,1 °C 53 % 1011,6 hPa 0,0 l/m² 0,0 km/h (0 Bft) SW 225 ° 0,000 mm 9,3 °C 19,1 °C 1,6 km/h (1 Bft) 100,00 %
04.05.2026 23:47 19,2 °C 53 % 1011,5 hPa 0,0 l/m² 0,0 km/h (0 Bft) SW 225 ° 0,000 mm 9,4 °C 19,2 °C 1,6 km/h (1 Bft) 100,00 %
04.05.2026 23:46 19,2 °C 53 % 1011,5 hPa 0,0 l/m² 1,6 km/h (1 Bft) SW 225 ° 0,000 mm 9,4 °C 19,2 °C 1,6 km/h (1 Bft) 100,00 %
04.05.2026 23:45 19,3 °C 53 % 1011,4 hPa 0,0 l/m² 1,6 km/h (1 Bft) SW 225 ° 0,000 mm 9,5 °C 19,3 °C 1,6 km/h (1 Bft) 100,00 %
04.05.2026 23:44 19,3 °C 52 % 1011,4 hPa 0,0 l/m² 1,6 km/h (1 Bft) SW 225 ° 0,000 mm 9,2 °C 19,3 °C 3,2 km/h (1 Bft) 100,00 %
04.05.2026 23:43 19,3 °C 52 % 1011,5 hPa 0,0 l/m² 1,6 km/h (1 Bft) SW 225 ° 0,000 mm 9,2 °C 19,3 °C 3,2 km/h (1 Bft) 100,00 %
04.05.2026 23:42 19,4 °C 52 % 1011,4 hPa 0,0 l/m² 0,0 km/h (0 Bft) N 0 ° 0,000 mm 9,3 °C 19,4 °C 0,0 km/h (0 Bft) 100,00 %
04.05.2026 23:41 19,4 °C 52 % 1011,5 hPa 0,0 l/m² 0,0 km/h (0 Bft) W-NW 292 ° 0,000 mm 9,3 °C 19,4 °C 1,6 km/h (1 Bft) 100,00 %
04.05.2026 23:40 19,4 °C 52 % 1011,4 hPa 0,0 l/m² 0,0 km/h (0 Bft) W-NW 292 ° 0,000 mm 9,3 °C 19,4 °C 1,6 km/h (1 Bft) 100,00 %
04.05.2026 23:39 19,4 °C 52 % 1011,4 hPa 0,0 l/m² 1,6 km/h (1 Bft) W-SW 247 ° 0,000 mm 9,3 °C 19,4 °C 4,8 km/h (1 Bft) 100,00 %
04.05.2026 23:38 19,5 °C 52 % 1011,4 hPa 0,0 l/m² 1,6 km/h (1 Bft) W 270 ° 0,000 mm 9,4 °C 19,5 °C 3,2 km/h (1 Bft) 100,00 %
04.05.2026 23:37 19,5 °C 52 % 1011,3 hPa 0,0 l/m² 0,0 km/h (0 Bft) W 270 ° 0,000 mm 9,4 °C 19,5 °C 3,2 km/h (1 Bft) 95,65 %
04.05.2026 23:36 19,5 °C 52 % 1011,4 hPa 0,0 l/m² 1,6 km/h (1 Bft) W-NW 292 ° 0,000 mm 9,4 °C 19,5 °C 4,8 km/h (1 Bft) 100,00 %
04.05.2026 23:35 19,6 °C 52 % 1011,4 hPa 0,0 l/m² 3,2 km/h (1 Bft) W-NW 292 ° 0,000 mm 9,5 °C 19,6 °C 8,0 km/h (2 Bft) 95,65 %
04.05.2026 23:34 19,6 °C 52 % 1011,4 hPa 0,0 l/m² 4,8 km/h (1 Bft) W-NW 292 ° 0,000 mm 9,5 °C 19,6 °C 11,3 km/h (2 Bft) 100,00 %
04.05.2026 23:33 19,6 °C 52 % 1011,4 hPa 0,0 l/m² 3,2 km/h (1 Bft) W-NW 292 ° 0,000 mm 9,5 °C 19,6 °C 8,0 km/h (2 Bft) 100,00 %
04.05.2026 23:32 19,6 °C 52 % 1011,3 hPa 0,0 l/m² 6,4 km/h (2 Bft) N-NW 337 ° 0,000 mm 9,5 °C 19,6 °C 8,0 km/h (2 Bft) 100,00 %
04.05.2026 23:31 19,6 °C 52 % 1011,5 hPa 0,0 l/m² 3,2 km/h (1 Bft) W-NW 292 ° 0,000 mm 9,5 °C 19,6 °C 6,4 km/h (2 Bft) 100,00 %
04.05.2026 23:30 19,6 °C 51 % 1011,4 hPa 0,0 l/m² 3,2 km/h (1 Bft) W-NW 292 ° 0,000 mm 9,2 °C 19,6 °C 6,4 km/h (2 Bft) 100,00 %
04.05.2026 23:29 19,7 °C 51 % 1011,5 hPa 0,0 l/m² 4,8 km/h (1 Bft) W-NW 292 ° 0,000 mm 9,3 °C 19,7 °C 9,7 km/h (2 Bft) 100,00 %
04.05.2026 23:28 19,7 °C 51 % 1011,5 hPa 0,0 l/m² 6,4 km/h (2 Bft) W-NW 292 ° 0,000 mm 9,3 °C 19,7 °C 11,3 km/h (2 Bft) 100,00 %
04.05.2026 23:27 19,7 °C 51 % 1011,5 hPa 0,0 l/m² 4,8 km/h (1 Bft) NW 315 ° 0,000 mm 9,3 °C 19,7 °C 8,0 km/h (2 Bft) 100,00 %
04.05.2026 23:26 19,7 °C 51 % 1011,5 hPa 0,0 l/m² 4,8 km/h (1 Bft) NW 315 ° 0,000 mm 9,3 °C 19,7 °C 8,0 km/h (2 Bft) 100,00 %
04.05.2026 23:25 19,7 °C 51 % 1011,4 hPa 0,0 l/m² 6,4 km/h (2 Bft) W-NW 292 ° 0,000 mm 9,3 °C 19,7 °C 9,7 km/h (2 Bft) 100,00 %
04.05.2026 23:24 19,8 °C 51 % 1011,4 hPa 0,0 l/m² 4,8 km/h (1 Bft) NW 315 ° 0,000 mm 9,4 °C 19,8 °C 9,7 km/h (2 Bft) 100,00 %
04.05.2026 23:23 19,8 °C 51 % 1011,5 hPa 0,0 l/m² 4,8 km/h (1 Bft) N-NW 337 ° 0,000 mm 9,4 °C 19,8 °C 8,0 km/h (2 Bft) 100,00 %
04.05.2026 23:22 19,8 °C 51 % 1011,5 hPa 0,0 l/m² 8,0 km/h (2 Bft) N-NW 337 ° 0,000 mm 9,4 °C 19,1 °C 11,3 km/h (2 Bft) 100,00 %
04.05.2026 23:21 19,8 °C 51 % 1011,5 hPa 0,0 l/m² 8,0 km/h (2 Bft) N-NW 337 ° 0,000 mm 9,4 °C 19,1 °C 12,9 km/h (3 Bft) 100,00 %
04.05.2026 23:20 19,9 °C 50 % 1011,6 hPa 0,0 l/m² 8,0 km/h (2 Bft) N 360 ° 0,000 mm 9,2 °C 19,2 °C 12,9 km/h (3 Bft) 100,00 %
04.05.2026 23:19 19,9 °C 50 % 1011,4 hPa 0,0 l/m² 6,4 km/h (2 Bft) W-NW 292 ° 0,000 mm 9,2 °C 19,9 °C 12,9 km/h (3 Bft) 100,00 %
04.05.2026 23:18 20,0 °C 50 % 1011,5 hPa 0,0 l/m² 9,7 km/h (2 Bft) N 360 ° 0,000 mm 9,3 °C 18,7 °C 14,5 km/h (3 Bft) 95,65 %
04.05.2026 23:17 20,0 °C 50 % 1011,5 hPa 0,0 l/m² 9,7 km/h (2 Bft) N-NW 337 ° 0,000 mm 9,3 °C 18,7 °C 11,3 km/h (2 Bft) 100,00 %
04.05.2026 23:16 20,1 °C 50 % 1011,6 hPa 0,0 l/m² 11,3 km/h (2 Bft) N 360 ° 0,000 mm 9,3 °C 18,3 °C 16,1 km/h (3 Bft) 100,00 %
04.05.2026 23:15 20,0 °C 50 % 1011,5 hPa 0,0 l/m² 8,0 km/h (2 Bft) W-NW 292 ° 0,000 mm 9,3 °C 19,4 °C 11,3 km/h (2 Bft) 100,00 %
04.05.2026 23:14 20,0 °C 50 % 1011,5 hPa 0,0 l/m² 9,7 km/h (2 Bft) N-NW 337 ° 0,000 mm 9,3 °C 18,7 °C 14,5 km/h (3 Bft) 100,00 %
04.05.2026 23:13 20,1 °C 50 % 1011,5 hPa 0,0 l/m² 11,3 km/h (2 Bft) N 360 ° 0,000 mm 9,3 °C 18,3 °C 14,5 km/h (3 Bft) 95,65 %
04.05.2026 23:12 20,1 °C 50 % 1011,6 hPa 0,0 l/m² 9,7 km/h (2 Bft) W-NW 292 ° 0,000 mm 9,3 °C 18,8 °C 14,5 km/h (3 Bft) 100,00 %
04.05.2026 23:11 20,1 °C 49 % 1011,6 hPa 0,0 l/m² 6,4 km/h (2 Bft) NW 315 ° 0,000 mm 9,0 °C 20,1 °C 11,3 km/h (2 Bft) 95,65 %
04.05.2026 23:10 20,1 °C 49 % 1011,6 hPa 0,0 l/m² 8,0 km/h (2 Bft) W-NW 292 ° 0,000 mm 9,0 °C 19,5 °C 16,1 km/h (3 Bft) 100,00 %
04.05.2026 23:09 20,2 °C 49 % 1011,6 hPa 0,0 l/m² 6,4 km/h (2 Bft) W-NW 292 ° 0,000 mm 9,1 °C 20,2 °C 11,3 km/h (2 Bft) 95,65 %
04.05.2026 23:08 20,2 °C 49 % 1011,5 hPa 0,0 l/m² 8,0 km/h (2 Bft) W-NW 292 ° 0,000 mm 9,1 °C 19,6 °C 12,9 km/h (3 Bft) 100,00 %
04.05.2026 23:07 20,2 °C 49 % 1011,5 hPa 0,0 l/m² 9,7 km/h (2 Bft) N-NW 337 ° 0,000 mm 9,1 °C 19,0 °C 14,5 km/h (3 Bft) 95,65 %
04.05.2026 23:06 20,2 °C 49 % 1011,6 hPa 0,0 l/m² 6,4 km/h (2 Bft) W-NW 292 ° 0,000 mm 9,1 °C 20,2 °C 11,3 km/h (2 Bft) 100,00 %
04.05.2026 23:05 20,2 °C 49 % 1011,6 hPa 0,0 l/m² 8,0 km/h (2 Bft) N-NW 337 ° 0,000 mm 9,1 °C 19,6 °C 12,9 km/h (3 Bft) 100,00 %
04.05.2026 23:04 20,2 °C 49 % 1011,5 hPa 0,0 l/m² 6,4 km/h (2 Bft) NW 315 ° 0,000 mm 9,1 °C 20,2 °C 11,3 km/h (2 Bft) 100,00 %
04.05.2026 23:03 20,2 °C 49 % 1011,5 hPa 0,0 l/m² 9,7 km/h (2 Bft) W-NW 292 ° 0,000 mm 9,1 °C 19,0 °C 12,9 km/h (3 Bft) 100,00 %
04.05.2026 23:02 20,2 °C 49 % 1011,6 hPa 0,0 l/m² 11,3 km/h (2 Bft) W-NW 292 ° 0,000 mm 9,1 °C 18,5 °C 19,3 km/h (3 Bft) 100,00 %
04.05.2026 23:01 20,3 °C 49 % 1011,5 hPa 0,0 l/m² 6,4 km/h (2 Bft) W 270 ° 0,000 mm 9,2 °C 20,3 °C 16,1 km/h (3 Bft) 95,65 %
04.05.2026 23:00 20,3 °C 49 % 1011,6 hPa 0,0 l/m² 11,3 km/h (2 Bft) W 270 ° 0,000 mm 9,2 °C 18,6 °C 16,1 km/h (3 Bft) 100,00 %
04.05.2026 22:59 20,2 °C 48 % 1011,6 hPa 0,0 l/m² 9,7 km/h (2 Bft) W 270 ° 0,000 mm 8,8 °C 19,0 °C 20,9 km/h (4 Bft) 100,00 %
04.05.2026 22:58 20,2 °C 49 % 1011,6 hPa 0,0 l/m² 6,4 km/h (2 Bft) NW 315 ° 0,000 mm 9,1 °C 20,2 °C 12,9 km/h (3 Bft) 100,00 %
04.05.2026 22:57 20,2 °C 49 % 1011,7 hPa 0,0 l/m² 6,4 km/h (2 Bft) W 270 ° 0,000 mm 9,1 °C 20,2 °C 12,9 km/h (3 Bft) 100,00 %
04.05.2026 22:56 20,2 °C 49 % 1011,6 hPa 0,0 l/m² 12,9 km/h (3 Bft) W-NW 292 ° 0,000 mm 9,1 °C 18,0 °C 17,7 km/h (3 Bft) 100,00 %
04.05.2026 22:55 20,2 °C 49 % 1011,6 hPa 0,0 l/m² 6,4 km/h (2 Bft) W-NW 292 ° 0,000 mm 9,1 °C 20,2 °C 9,7 km/h (2 Bft) 100,00 %
04.05.2026 22:54 20,2 °C 49 % 1011,6 hPa 0,0 l/m² 4,8 km/h (1 Bft) W-NW 292 ° 0,000 mm 9,1 °C 20,2 °C 9,7 km/h (2 Bft) 100,00 %
04.05.2026 22:53 20,2 °C 49 % 1011,6 hPa 0,0 l/m² 6,4 km/h (2 Bft) W-NW 292 ° 0,000 mm 9,1 °C 20,2 °C 11,3 km/h (2 Bft) 100,00 %
04.05.2026 22:52 20,2 °C 49 % 1011,6 hPa 0,0 l/m² 8,0 km/h (2 Bft) NW 315 ° 0,000 mm 9,1 °C 19,6 °C 12,9 km/h (3 Bft) 100,00 %
04.05.2026 22:51 20,2 °C 49 % 1011,6 hPa 0,0 l/m² 11,3 km/h (2 Bft) NW 315 ° 0,000 mm 9,1 °C 18,5 °C 17,7 km/h (3 Bft) 100,00 %
04.05.2026 22:50 20,2 °C 49 % 1011,6 hPa 0,0 l/m² 11,3 km/h (2 Bft) NW 315 ° 0,000 mm 9,1 °C 18,5 °C 16,1 km/h (3 Bft) 100,00 %
04.05.2026 22:49 20,1 °C 49 % 1011,5 hPa 0,0 l/m² 9,7 km/h (2 Bft) NW 315 ° 0,000 mm 9,0 °C 18,8 °C 12,9 km/h (3 Bft) 100,00 %
04.05.2026 22:48 20,1 °C 49 % 1011,6 hPa 0,0 l/m² 8,0 km/h (2 Bft) N-NW 337 ° 0,000 mm 9,0 °C 19,5 °C 12,9 km/h (3 Bft) 100,00 %
04.05.2026 22:47 20,1 °C 49 % 1011,6 hPa 0,0 l/m² 8,0 km/h (2 Bft) W-NW 292 ° 0,000 mm 9,0 °C 19,5 °C 11,3 km/h (2 Bft) 100,00 %
04.05.2026 22:46 20,1 °C 49 % 1011,5 hPa 0,0 l/m² 8,0 km/h (2 Bft) W-NW 292 ° 0,000 mm 9,0 °C 19,5 °C 11,3 km/h (2 Bft) 100,00 %
04.05.2026 22:45 20,0 °C 49 % 1011,6 hPa 0,0 l/m² 8,0 km/h (2 Bft) N-NW 337 ° 0,000 mm 9,0 °C 19,4 °C 11,3 km/h (2 Bft) 100,00 %
04.05.2026 22:44 20,0 °C 49 % 1011,6 hPa 0,0 l/m² 8,0 km/h (2 Bft) NW 315 ° 0,000 mm 9,0 °C 19,4 °C 16,1 km/h (3 Bft) 100,00 %
04.05.2026 22:43 19,9 °C 50 % 1011,7 hPa 0,0 l/m² 6,4 km/h (2 Bft) NW 315 ° 0,000 mm 9,2 °C 19,9 °C 14,5 km/h (3 Bft) 100,00 %
04.05.2026 22:42 19,9 °C 50 % 1011,7 hPa 0,0 l/m² 3,2 km/h (1 Bft) W 270 ° 0,000 mm 9,2 °C 19,9 °C 6,4 km/h (2 Bft) 100,00 %
04.05.2026 22:41 19,9 °C 50 % 1011,7 hPa 0,0 l/m² 4,8 km/h (1 Bft) W 270 ° 0,000 mm 9,2 °C 19,9 °C 11,3 km/h (2 Bft) 100,00 %
04.05.2026 22:40 19,8 °C 50 % 1011,7 hPa 0,0 l/m² 8,0 km/h (2 Bft) W-NW 292 ° 0,000 mm 9,1 °C 19,1 °C 11,3 km/h (2 Bft) 100,00 %
04.05.2026 22:39 19,8 °C 50 % 1011,7 hPa 0,0 l/m² 6,4 km/h (2 Bft) W-NW 292 ° 0,000 mm 9,1 °C 19,8 °C 9,7 km/h (2 Bft) 100,00 %
04.05.2026 22:38 19,8 °C 50 % 1011,6 hPa 0,0 l/m² 4,8 km/h (1 Bft) W 270 ° 0,000 mm 9,1 °C 19,8 °C 9,7 km/h (2 Bft) 100,00 %
04.05.2026 22:37 19,8 °C 50 % 1011,6 hPa 0,0 l/m² 4,8 km/h (1 Bft) W-NW 292 ° 0,000 mm 9,1 °C 19,8 °C 8,0 km/h (2 Bft) 95,65 %
04.05.2026 22:36 19,7 °C 50 % 1011,6 hPa 0,0 l/m² 4,8 km/h (1 Bft) N-NW 337 ° 0,000 mm 9,0 °C 19,7 °C 8,0 km/h (2 Bft) 100,00 %
04.05.2026 22:35 19,6 °C 50 % 1011,6 hPa 0,0 l/m² 6,4 km/h (2 Bft) N-NW 337 ° 0,000 mm 8,9 °C 19,6 °C 11,3 km/h (2 Bft) 100,00 %
04.05.2026 22:34 19,6 °C 51 % 1011,6 hPa 0,0 l/m² 6,4 km/h (2 Bft) NW 315 ° 0,000 mm 9,2 °C 19,6 °C 11,3 km/h (2 Bft) 100,00 %
04.05.2026 22:33 19,5 °C 51 % 1011,5 hPa 0,0 l/m² 6,4 km/h (2 Bft) W-NW 292 ° 0,000 mm 9,1 °C 19,5 °C 9,7 km/h (2 Bft) 100,00 %
04.05.2026 22:32 19,4 °C 51 % 1011,5 hPa 0,0 l/m² 6,4 km/h (2 Bft) W-NW 292 ° 0,000 mm 9,0 °C 19,4 °C 12,9 km/h (3 Bft) 100,00 %
04.05.2026 22:31 19,3 °C 51 % 1011,6 hPa 0,0 l/m² 8,0 km/h (2 Bft) W-NW 292 ° 0,000 mm 8,9 °C 18,6 °C 11,3 km/h (2 Bft) 100,00 %
04.05.2026 22:30 19,1 °C 52 % 1011,5 hPa 0,0 l/m² 8,0 km/h (2 Bft) N-NW 337 ° 0,000 mm 9,0 °C 18,4 °C 12,9 km/h (3 Bft) 100,00 %
04.05.2026 22:29 18,9 °C 52 % 1011,6 hPa 0,0 l/m² 9,7 km/h (2 Bft) N 360 ° 0,000 mm 8,8 °C 17,5 °C 14,5 km/h (3 Bft) 100,00 %
04.05.2026 22:28 18,8 °C 53 % 1011,7 hPa 0,0 l/m² 9,7 km/h (2 Bft) W-NW 292 ° 0,000 mm 9,0 °C 17,4 °C 14,5 km/h (3 Bft) 100,00 %
04.05.2026 22:27 18,6 °C 54 % 1011,7 hPa 0,0 l/m² 8,0 km/h (2 Bft) W-NW 292 ° 0,000 mm 9,1 °C 17,9 °C 11,3 km/h (2 Bft) 100,00 %
04.05.2026 22:26 18,4 °C 55 % 1011,7 hPa 0,0 l/m² 6,4 km/h (2 Bft) W-NW 292 ° 0,000 mm 9,2 °C 18,4 °C 9,7 km/h (2 Bft) 100,00 %
04.05.2026 22:25 18,3 °C 55 % 1011,8 hPa 0,0 l/m² 9,7 km/h (2 Bft) W 270 ° 0,000 mm 9,1 °C 16,9 °C 16,1 km/h (3 Bft) 100,00 %
04.05.2026 22:24 18,2 °C 55 % 1011,8 hPa 0,0 l/m² 8,0 km/h (2 Bft) W 270 ° 0,000 mm 9,0 °C 17,5 °C 12,9 km/h (3 Bft) 100,00 %
04.05.2026 22:23 18,2 °C 55 % 1011,8 hPa 0,0 l/m² 3,2 km/h (1 Bft) W-SW 247 ° 0,000 mm 9,0 °C 18,2 °C 6,4 km/h (2 Bft) 100,00 %
04.05.2026 22:22 18,2 °C 55 % 1011,7 hPa 0,0 l/m² 6,4 km/h (2 Bft) W 270 ° 0,000 mm 9,0 °C 18,2 °C 11,3 km/h (2 Bft) 100,00 %
04.05.2026 22:21 18,2 °C 55 % 1011,7 hPa 0,0 l/m² 11,3 km/h (2 Bft) W-SW 247 ° 0,000 mm 9,0 °C 16,2 °C 16,1 km/h (3 Bft) 100,00 %
04.05.2026 22:20 18,2 °C 55 % 1011,7 hPa 0,0 l/m² 8,0 km/h (2 Bft) W-SW 247 ° 0,000 mm 9,0 °C 17,5 °C 12,9 km/h (3 Bft) 100,00 %
04.05.2026 22:19 18,3 °C 55 % 1011,6 hPa 0,0 l/m² 12,9 km/h (3 Bft) W-SW 247 ° 0,000 mm 9,1 °C 15,8 °C 17,7 km/h (3 Bft) 100,00 %
04.05.2026 22:18 18,2 °C 55 % 1011,5 hPa 0,0 l/m² 9,7 km/h (2 Bft) W-SW 247 ° 0,000 mm 9,0 °C 16,8 °C 14,5 km/h (3 Bft) 95,65 %
04.05.2026 22:17 18,2 °C 54 % 1011,4 hPa 0,0 l/m² 4,8 km/h (1 Bft) W-SW 247 ° 0,000 mm 8,7 °C 18,2 °C 12,9 km/h (3 Bft) 100,00 %
04.05.2026 22:16 18,2 °C 55 % 1011,3 hPa 0,0 l/m² 1,6 km/h (1 Bft) W-SW 247 ° 0,000 mm 9,0 °C 18,2 °C 4,8 km/h (1 Bft) 100,00 %
04.05.2026 22:15 18,3 °C 55 % 1011,3 hPa 0,0 l/m² 1,6 km/h (1 Bft) SW 225 ° 0,000 mm 9,1 °C 18,3 °C 3,2 km/h (1 Bft) 100,00 %
04.05.2026 22:14 18,4 °C 55 % 1011,3 hPa 0,0 l/m² 3,2 km/h (1 Bft) SW 225 ° 0,000 mm 9,2 °C 18,4 °C 4,8 km/h (1 Bft) 100,00 %
04.05.2026 22:13 18,5 °C 54 % 1011,3 hPa 0,0 l/m² 4,8 km/h (1 Bft) SW 225 ° 0,000 mm 9,0 °C 18,5 °C 6,4 km/h (2 Bft) 100,00 %
04.05.2026 22:12 18,6 °C 54 % 1011,3 hPa 0,0 l/m² 3,2 km/h (1 Bft) SW 225 ° 0,000 mm 9,1 °C 18,6 °C 4,8 km/h (1 Bft) 100,00 %
04.05.2026 22:11 18,7 °C 54 % 1011,2 hPa 0,0 l/m² 3,2 km/h (1 Bft) SW 225 ° 0,000 mm 9,2 °C 18,7 °C 3,2 km/h (1 Bft) 100,00 %
04.05.2026 22:10 18,9 °C 53 % 1011,2 hPa 0,0 l/m² 3,2 km/h (1 Bft) SW 225 ° 0,000 mm 9,1 °C 18,9 °C 3,2 km/h (1 Bft) 100,00 %
04.05.2026 22:09 19,0 °C 53 % 1011,1 hPa 0,0 l/m² 1,6 km/h (1 Bft) W-SW 247 ° 0,000 mm 9,2 °C 19,0 °C 3,2 km/h (1 Bft) 100,00 %
04.05.2026 22:08 19,2 °C 52 % 1011,1 hPa 0,0 l/m² 3,2 km/h (1 Bft) SW 225 ° 0,000 mm 9,1 °C 19,2 °C 4,8 km/h (1 Bft) 100,00 %
04.05.2026 22:07 19,3 °C 52 % 1011,0 hPa 0,0 l/m² 1,6 km/h (1 Bft) W-SW 247 ° 0,000 mm 9,2 °C 19,3 °C 3,2 km/h (1 Bft) 100,00 %
04.05.2026 22:06 19,5 °C 51 % 1011,1 hPa 0,0 l/m² 0,0 km/h (0 Bft) N 0 ° 0,000 mm 9,1 °C 19,5 °C 0,0 km/h (0 Bft) 100,00 %
04.05.2026 22:05 19,6 °C 51 % 1011,0 hPa 0,0 l/m² 0,0 km/h (0 Bft) N 0 ° 0,000 mm 9,2 °C 19,6 °C 0,0 km/h (0 Bft) 100,00 %
04.05.2026 22:04 19,7 °C 50 % 1011,0 hPa 0,0 l/m² 0,0 km/h (0 Bft) N 0 ° 0,000 mm 9,0 °C 19,7 °C 0,0 km/h (0 Bft) 100,00 %
04.05.2026 22:03 19,8 °C 48 % 1011,0 hPa 0,0 l/m² 0,0 km/h (0 Bft) W 270 ° 0,000 mm 8,5 °C 19,8 °C 1,6 km/h (1 Bft) 95,65 %
04.05.2026 22:02 19,8 °C 48 % 1011,0 hPa 0,0 l/m² 0,0 km/h (0 Bft) W 270 ° 0,000 mm 8,5 °C 19,8 °C 1,6 km/h (1 Bft) 100,00 %
04.05.2026 22:01 19,9 °C 48 % 1011,0 hPa 0,0 l/m² 1,6 km/h (1 Bft) W 270 ° 0,000 mm 8,6 °C 19,9 °C 3,2 km/h (1 Bft) 100,00 %
04.05.2026 22:00 20,0 °C 48 % 1010,9 hPa 0,0 l/m² 1,6 km/h (1 Bft) W 270 ° 0,000 mm 8,7 °C 20,0 °C 3,2 km/h (1 Bft) 100,00 %
04.05.2026 21:59 20,1 °C 47 % 1010,9 hPa 0,0 l/m² 3,2 km/h (1 Bft) W 270 ° 0,000 mm 8,4 °C 20,1 °C 3,2 km/h (1 Bft) 95,65 %
04.05.2026 21:58 20,2 °C 47 % 1010,9 hPa 0,0 l/m² 1,6 km/h (1 Bft) W 270 ° 0,000 mm 8,5 °C 20,2 °C 3,2 km/h (1 Bft) 100,00 %
04.05.2026 21:57 20,2 °C 47 % 1010,9 hPa 0,0 l/m² 1,6 km/h (1 Bft) W 270 ° 0,000 mm 8,5 °C 20,2 °C 3,2 km/h (1 Bft) 100,00 %
04.05.2026 21:56 20,3 °C 47 % 1010,9 hPa 0,0 l/m² 0,0 km/h (0 Bft) W 270 ° 0,000 mm 8,6 °C 20,3 °C 1,6 km/h (1 Bft) 100,00 %
04.05.2026 21:55 20,3 °C 46 % 1010,8 hPa 0,0 l/m² 1,6 km/h (1 Bft) W 270 ° 0,000 mm 8,3 °C 20,3 °C 3,2 km/h (1 Bft) 100,00 %
04.05.2026 21:54 20,4 °C 46 % 1010,8 hPa 0,0 l/m² 3,2 km/h (1 Bft) W 270 ° 0,000 mm 8,4 °C 20,4 °C 3,2 km/h (1 Bft) 100,00 %
04.05.2026 21:53 20,4 °C 46 % 1010,8 hPa 0,0 l/m² 1,6 km/h (1 Bft) W 270 ° 0,000 mm 8,4 °C 20,4 °C 3,2 km/h (1 Bft) 100,00 %
04.05.2026 21:52 20,4 °C 45 % 1010,9 hPa 0,0 l/m² 0,0 km/h (0 Bft) W 270 ° 0,000 mm 8,1 °C 20,4 °C 1,6 km/h (1 Bft) 100,00 %
04.05.2026 21:51 20,5 °C 45 % 1010,8 hPa 0,0 l/m² 0,0 km/h (0 Bft) N 0 ° 0,000 mm 8,2 °C 20,5 °C 0,0 km/h (0 Bft) 21,74 %
04.05.2026 21:50 20,6 °C 45 % 1010,7 hPa 0,0 l/m² 0,0 km/h (0 Bft) N 0 ° 0,000 mm 8,2 °C 20,6 °C 0,0 km/h (0 Bft) 56,52 %
04.05.2026 21:49 20,6 °C 45 % 1010,6 hPa 0,0 l/m² 0,0 km/h (0 Bft) W 270 ° 0,000 mm 8,2 °C 20,6 °C 1,6 km/h (1 Bft) 100,00 %
04.05.2026 21:48 20,7 °C 45 % 1010,7 hPa 0,0 l/m² 0,0 km/h (0 Bft) W 270 ° 0,000 mm 8,3 °C 20,7 °C 1,6 km/h (1 Bft) 100,00 %
04.05.2026 21:47 20,7 °C 45 % 1010,6 hPa 0,0 l/m² 0,0 km/h (0 Bft) N 0 ° 0,000 mm 8,3 °C 20,7 °C 0,0 km/h (0 Bft) 95,65 %
04.05.2026 21:46 20,7 °C 44 % 1010,7 hPa 0,0 l/m² 0,0 km/h (0 Bft) N 0 ° 0,000 mm 8,0 °C 20,7 °C 0,0 km/h (0 Bft) 100,00 %
04.05.2026 21:45 20,7 °C 44 % 1010,6 hPa 0,0 l/m² 1,6 km/h (1 Bft) W 270 ° 0,000 mm 8,0 °C 20,7 °C 3,2 km/h (1 Bft) 100,00 %
04.05.2026 21:44 20,7 °C 45 % 1010,5 hPa 0,0 l/m² 1,6 km/h (1 Bft) W 270 ° 0,000 mm 8,3 °C 20,7 °C 3,2 km/h (1 Bft) 100,00 %
04.05.2026 21:43 20,8 °C 45 % 1010,7 hPa 0,0 l/m² 0,0 km/h (0 Bft) N 0 ° 0,000 mm 8,4 °C 20,8 °C 0,0 km/h (0 Bft) 100,00 %
04.05.2026 21:42 20,8 °C 45 % 1010,6 hPa 0,0 l/m² 0,0 km/h (0 Bft) N 0 ° 0,000 mm 8,4 °C 20,8 °C 0,0 km/h (0 Bft) 100,00 %
04.05.2026 21:41 20,8 °C 45 % 1010,6 hPa 0,0 l/m² 1,6 km/h (1 Bft) W 270 ° 0,000 mm 8,4 °C 20,8 °C 1,6 km/h (1 Bft) 100,00 %
04.05.2026 21:40 20,8 °C 44 % 1010,5 hPa 0,0 l/m² 1,6 km/h (1 Bft) W 270 ° 0,000 mm 8,1 °C 20,8 °C 3,2 km/h (1 Bft) 100,00 %
04.05.2026 21:39 20,9 °C 45 % 1010,5 hPa 0,0 l/m² 1,6 km/h (1 Bft) W 270 ° 0,000 mm 8,5 °C 20,9 °C 3,2 km/h (1 Bft) 95,65 %
04.05.2026 21:38 20,9 °C 45 % 1010,6 hPa 0,0 l/m² 1,6 km/h (1 Bft) W 270 ° 0,000 mm 8,5 °C 20,9 °C 1,6 km/h (1 Bft) 100,00 %
04.05.2026 21:37 20,9 °C 45 % 1010,6 hPa 0,0 l/m² 1,6 km/h (1 Bft) W 270 ° 0,000 mm 8,5 °C 20,9 °C 1,6 km/h (1 Bft) 100,00 %
04.05.2026 21:36 20,9 °C 45 % 1010,6 hPa 0,0 l/m² 1,6 km/h (1 Bft) W 270 ° 0,000 mm 8,5 °C 20,9 °C 3,2 km/h (1 Bft) 100,00 %
04.05.2026 21:35 21,0 °C 45 % 1010,7 hPa 0,0 l/m² 3,2 km/h (1 Bft) W 270 ° 0,000 mm 8,6 °C 21,0 °C 3,2 km/h (1 Bft) 100,00 %
04.05.2026 21:34 21,1 °C 44 % 1010,5 hPa 0,0 l/m² 1,6 km/h (1 Bft) W 270 ° 0,000 mm 8,4 °C 21,1 °C 1,6 km/h (1 Bft) 100,00 %
04.05.2026 21:33 21,1 °C 44 % 1010,7 hPa 0,0 l/m² 1,6 km/h (1 Bft) W 270 ° 0,000 mm 8,4 °C 21,1 °C 1,6 km/h (1 Bft) 100,00 %
04.05.2026 21:32 21,1 °C 44 % 1010,6 hPa 0,0 l/m² 1,6 km/h (1 Bft) W 270 ° 0,000 mm 8,4 °C 21,1 °C 1,6 km/h (1 Bft) 100,00 %
04.05.2026 21:31 21,2 °C 44 % 1010,6 hPa 0,0 l/m² 1,6 km/h (1 Bft) W 270 ° 0,000 mm 8,5 °C 21,2 °C 3,2 km/h (1 Bft) 100,00 %
04.05.2026 21:30 21,3 °C 44 % 1010,6 hPa 0,0 l/m² 0,0 km/h (0 Bft) W 270 ° 0,000 mm 8,5 °C 21,3 °C 3,2 km/h (1 Bft) 100,00 %
04.05.2026 21:29 21,3 °C 44 % 1010,5 hPa 0,0 l/m² 0,0 km/h (0 Bft) W 270 ° 0,000 mm 8,5 °C 21,3 °C 1,6 km/h (1 Bft) 100,00 %
04.05.2026 21:28 21,4 °C 44 % 1010,5 hPa 0,0 l/m² 1,6 km/h (1 Bft) W 270 ° 0,000 mm 8,6 °C 21,4 °C 1,6 km/h (1 Bft) 100,00 %
04.05.2026 21:27 21,5 °C 44 % 1010,6 hPa 0,0 l/m² 1,6 km/h (1 Bft) W 270 ° 0,000 mm 8,7 °C 21,5 °C 1,6 km/h (1 Bft) 100,00 %
04.05.2026 21:26 21,6 °C 43 % 1010,6 hPa 0,0 l/m² 1,6 km/h (1 Bft) W 270 ° 0,000 mm 8,5 °C 21,6 °C 1,6 km/h (1 Bft) 100,00 %
04.05.2026 21:25 21,6 °C 43 % 1010,5 hPa 0,0 l/m² 0,0 km/h (0 Bft) W 270 ° 0,000 mm 8,5 °C 21,6 °C 1,6 km/h (1 Bft) 100,00 %
04.05.2026 21:24 21,6 °C 43 % 1010,6 hPa 0,0 l/m² 1,6 km/h (1 Bft) W 270 ° 0,000 mm 8,5 °C 21,6 °C 1,6 km/h (1 Bft) 100,00 %
04.05.2026 21:23 21,6 °C 44 % 1010,5 hPa 0,0 l/m² 1,6 km/h (1 Bft) W 270 ° 0,000 mm 8,8 °C 21,6 °C 1,6 km/h (1 Bft) 100,00 %
04.05.2026 21:22 21,6 °C 43 % 1010,6 hPa 0,0 l/m² 0,0 km/h (0 Bft) W 270 ° 0,000 mm 8,5 °C 21,6 °C 1,6 km/h (1 Bft) 95,65 %
04.05.2026 21:21 21,6 °C 43 % 1010,6 hPa 0,0 l/m² 1,6 km/h (1 Bft) W 270 ° 0,000 mm 8,5 °C 21,6 °C 3,2 km/h (1 Bft) 100,00 %
04.05.2026 21:20 21,5 °C 43 % 1010,6 hPa 0,0 l/m² 1,6 km/h (1 Bft) W 270 ° 0,000 mm 8,4 °C 21,5 °C 1,6 km/h (1 Bft) 100,00 %
04.05.2026 21:19 21,5 °C 43 % 1010,6 hPa 0,0 l/m² 0,0 km/h (0 Bft) W 270 ° 0,000 mm 8,4 °C 21,5 °C 1,6 km/h (1 Bft) 100,00 %
04.05.2026 21:18 21,6 °C 44 % 1010,5 hPa 0,0 l/m² 1,6 km/h (1 Bft) W 270 ° 0,000 mm 8,8 °C 21,6 °C 1,6 km/h (1 Bft) 95,65 %
04.05.2026 21:17 21,5 °C 44 % 1010,6 hPa 0,0 l/m² 1,6 km/h (1 Bft) W 270 ° 0,000 mm 8,7 °C 21,5 °C 1,6 km/h (1 Bft) 100,00 %
04.05.2026 21:16 21,6 °C 44 % 1010,5 hPa 0,0 l/m² 0,0 km/h (0 Bft) N 0 ° 0,000 mm 8,8 °C 21,6 °C 0,0 km/h (0 Bft) 100,00 %
04.05.2026 21:15 21,6 °C 44 % 1010,5 hPa 0,0 l/m² 0,0 km/h (0 Bft) W 270 ° 0,000 mm 8,8 °C 21,6 °C 1,6 km/h (1 Bft) 100,00 %
04.05.2026 21:14 21,6 °C 44 % 1010,4 hPa 0,0 l/m² 0,0 km/h (0 Bft) W 270 ° 0,000 mm 8,8 °C 21,6 °C 1,6 km/h (1 Bft) 100,00 %
04.05.2026 21:13 21,6 °C 44 % 1010,5 hPa 0,0 l/m² 0,0 km/h (0 Bft) W 270 ° 0,000 mm 8,8 °C 21,6 °C 1,6 km/h (1 Bft) 100,00 %
04.05.2026 21:12 21,6 °C 44 % 1010,4 hPa 0,0 l/m² 0,0 km/h (0 Bft) W 270 ° 0,000 mm 8,8 °C 21,6 °C 1,6 km/h (1 Bft) 100,00 %
04.05.2026 21:11 21,6 °C 44 % 1010,5 hPa 0,0 l/m² 0,0 km/h (0 Bft) W 270 ° 0,000 mm 8,8 °C 21,6 °C 1,6 km/h (1 Bft) 100,00 %
04.05.2026 21:10 21,6 °C 44 % 1010,5 hPa 0,0 l/m² 1,6 km/h (1 Bft) W 270 ° 0,000 mm 8,8 °C 21,6 °C 1,6 km/h (1 Bft) 100,00 %
04.05.2026 21:09 21,6 °C 44 % 1010,6 hPa 0,0 l/m² 0,0 km/h (0 Bft) N 0 ° 0,000 mm 8,8 °C 21,6 °C 0,0 km/h (0 Bft) 100,00 %
04.05.2026 21:08 21,6 °C 44 % 1010,5 hPa 0,0 l/m² 0,0 km/h (0 Bft) W 270 ° 0,000 mm 8,8 °C 21,6 °C 1,6 km/h (1 Bft) 100,00 %
04.05.2026 21:07 21,7 °C 44 % 1010,5 hPa 0,0 l/m² 0,0 km/h (0 Bft) N 0 ° 0,000 mm 8,9 °C 21,7 °C 0,0 km/h (0 Bft) 100,00 %
04.05.2026 21:06 21,7 °C 44 % 1010,4 hPa 0,0 l/m² 0,0 km/h (0 Bft) W 270 ° 0,000 mm 8,9 °C 21,7 °C 1,6 km/h (1 Bft) 100,00 %
04.05.2026 21:05 21,7 °C 44 % 1010,4 hPa 0,0 l/m² 0,0 km/h (0 Bft) N 0 ° 0,000 mm 8,9 °C 21,7 °C 0,0 km/h (0 Bft) 100,00 %
04.05.2026 21:04 21,7 °C 44 % 1010,5 hPa 0,0 l/m² 0,0 km/h (0 Bft) W 270 ° 0,000 mm 8,9 °C 21,7 °C 1,6 km/h (1 Bft) 100,00 %
04.05.2026 21:03 21,8 °C 44 % 1010,5 hPa 0,0 l/m² 0,0 km/h (0 Bft) N 0 ° 0,000 mm 9,0 °C 21,8 °C 0,0 km/h (0 Bft) 100,00 %
04.05.2026 21:02 21,8 °C 44 % 1010,5 hPa 0,0 l/m² 0,0 km/h (0 Bft) N 0 ° 0,000 mm 9,0 °C 21,8 °C 0,0 km/h (0 Bft) 100,00 %
04.05.2026 21:01 21,8 °C 44 % 1010,4 hPa 0,0 l/m² 0,0 km/h (0 Bft) W 270 ° 0,000 mm 9,0 °C 21,8 °C 1,6 km/h (1 Bft) 91,30 %
04.05.2026 21:00 21,8 °C 44 % 1010,4 hPa 0,0 l/m² 0,0 km/h (0 Bft) SW 225 ° 0,000 mm 9,0 °C 21,8 °C 1,6 km/h (1 Bft) 100,00 %
04.05.2026 20:59 21,9 °C 44 % 1010,4 hPa 0,0 l/m² 0,0 km/h (0 Bft) SW 225 ° 0,000 mm 9,1 °C 21,9 °C 1,6 km/h (1 Bft) 100,00 %
04.05.2026 20:58 21,9 °C 44 % 1010,4 hPa 0,0 l/m² 0,0 km/h (0 Bft) N 0 ° 0,000 mm 9,1 °C 21,9 °C 0,0 km/h (0 Bft) 95,65 %
04.05.2026 20:57 21,9 °C 44 % 1010,4 hPa 0,0 l/m² 0,0 km/h (0 Bft) N 0 ° 0,000 mm 9,1 °C 21,9 °C 0,0 km/h (0 Bft) 100,00 %
04.05.2026 20:56 21,9 °C 44 % 1010,3 hPa 0,0 l/m² 0,0 km/h (0 Bft) SW 225 ° 0,000 mm 9,1 °C 21,9 °C 1,6 km/h (1 Bft) 100,00 %
04.05.2026 20:55 21,9 °C 44 % 1010,4 hPa 0,0 l/m² 1,6 km/h (1 Bft) S-SO 157 ° 0,000 mm 9,1 °C 21,9 °C 3,2 km/h (1 Bft) 100,00 %
04.05.2026 20:54 21,9 °C 44 % 1010,4 hPa 0,0 l/m² 0,0 km/h (0 Bft) W 270 ° 0,000 mm 9,1 °C 21,9 °C 1,6 km/h (1 Bft) 95,65 %
04.05.2026 20:53 21,9 °C 44 % 1010,4 hPa 0,0 l/m² 1,6 km/h (1 Bft) W-NW 292 ° 0,000 mm 9,1 °C 21,9 °C 1,6 km/h (1 Bft) 100,00 %
04.05.2026 20:52 22,0 °C 44 % 1010,3 hPa 0,0 l/m² 0,0 km/h (0 Bft) W-NW 292 ° 0,000 mm 9,2 °C 22,0 °C 1,6 km/h (1 Bft) 100,00 %
04.05.2026 20:51 22,1 °C 44 % 1010,3 hPa 0,0 l/m² 0,0 km/h (0 Bft) W 270 ° 0,000 mm 9,3 °C 22,1 °C 1,6 km/h (1 Bft) 100,00 %
04.05.2026 20:50 22,1 °C 44 % 1010,3 hPa 0,0 l/m² 0,0 km/h (0 Bft) SW 225 ° 0,000 mm 9,3 °C 22,1 °C 1,6 km/h (1 Bft) 100,00 %
04.05.2026 20:49 22,1 °C 44 % 1010,3 hPa 0,0 l/m² 0,0 km/h (0 Bft) N 0 ° 0,000 mm 9,3 °C 22,1 °C 0,0 km/h (0 Bft) 100,00 %
04.05.2026 20:48 22,2 °C 44 % 1010,3 hPa 0,0 l/m² 0,0 km/h (0 Bft) SW 225 ° 0,000 mm 9,4 °C 22,2 °C 1,6 km/h (1 Bft) 100,00 %
04.05.2026 20:47 22,2 °C 44 % 1010,3 hPa 0,0 l/m² 0,0 km/h (0 Bft) N 0 ° 0,000 mm 9,4 °C 22,2 °C 0,0 km/h (0 Bft) 100,00 %
04.05.2026 20:46 22,2 °C 44 % 1010,3 hPa 0,0 l/m² 0,0 km/h (0 Bft) N 0 ° 0,000 mm 9,4 °C 22,2 °C 0,0 km/h (0 Bft) 100,00 %
04.05.2026 20:45 22,3 °C 44 % 1010,3 hPa 0,0 l/m² 0,0 km/h (0 Bft) SW 225 ° 0,000 mm 9,5 °C 22,3 °C 1,6 km/h (1 Bft) 100,00 %
04.05.2026 20:44 22,3 °C 44 % 1010,3 hPa 0,0 l/m² 1,6 km/h (1 Bft) W-NW 292 ° 0,000 mm 9,5 °C 22,3 °C 3,2 km/h (1 Bft) 95,65 %
04.05.2026 20:43 22,4 °C 44 % 1010,3 hPa 0,0 l/m² 1,6 km/h (1 Bft) W-NW 292 ° 0,000 mm 9,5 °C 22,4 °C 4,8 km/h (1 Bft) 100,00 %
04.05.2026 20:42 22,4 °C 43 % 1010,3 hPa 0,0 l/m² 1,6 km/h (1 Bft) SW 225 ° 0,000 mm 9,2 °C 22,4 °C 3,2 km/h (1 Bft) 100,00 %
04.05.2026 20:41 22,4 °C 43 % 1010,3 hPa 0,0 l/m² 0,0 km/h (0 Bft) N 0 ° 0,000 mm 9,2 °C 22,4 °C 0,0 km/h (0 Bft) 100,00 %
04.05.2026 20:40 22,5 °C 44 % 1010,3 hPa 0,0 l/m² 0,0 km/h (0 Bft) N 0 ° 0,000 mm 9,6 °C 22,5 °C 0,0 km/h (0 Bft) 100,00 %
04.05.2026 20:39 22,6 °C 43 % 1010,2 hPa 0,0 l/m² 0,0 km/h (0 Bft) SW 225 ° 0,000 mm 9,4 °C 22,6 °C 1,6 km/h (1 Bft) 100,00 %
04.05.2026 20:38 22,6 °C 43 % 1010,3 hPa 0,0 l/m² 1,6 km/h (1 Bft) SW 225 ° 0,000 mm 9,4 °C 22,6 °C 3,2 km/h (1 Bft) 100,00 %
04.05.2026 20:37 22,7 °C 43 % 1010,2 hPa 0,0 l/m² 0,0 km/h (0 Bft) SW 225 ° 0,000 mm 9,5 °C 22,7 °C 1,6 km/h (1 Bft) 100,00 %
04.05.2026 20:36 22,7 °C 43 % 1010,2 hPa 0,0 l/m² 0,0 km/h (0 Bft) N 0 ° 0,000 mm 9,5 °C 22,7 °C 0,0 km/h (0 Bft) 100,00 %
04.05.2026 20:35 22,7 °C 43 % 1010,3 hPa 0,0 l/m² 0,0 km/h (0 Bft) W 270 ° 0,000 mm 9,5 °C 22,7 °C 1,6 km/h (1 Bft) 95,65 %
04.05.2026 20:34 22,8 °C 43 % 1010,2 hPa 0,0 l/m² 3,2 km/h (1 Bft) N-NO 22 ° 0,000 mm 9,6 °C 22,8 °C 4,8 km/h (1 Bft) 100,00 %
04.05.2026 20:33 22,8 °C 43 % 1010,2 hPa 0,0 l/m² 1,6 km/h (1 Bft) W-SW 247 ° 0,000 mm 9,6 °C 22,8 °C 4,8 km/h (1 Bft) 100,00 %
04.05.2026 20:32 22,8 °C 43 % 1010,2 hPa 0,0 l/m² 1,6 km/h (1 Bft) O-SO 112 ° 0,000 mm 9,6 °C 22,8 °C 4,8 km/h (1 Bft) 100,00 %
04.05.2026 20:31 22,9 °C 42 % 1010,2 hPa 0,0 l/m² 1,6 km/h (1 Bft) SW 225 ° 0,000 mm 9,3 °C 22,9 °C 3,2 km/h (1 Bft) 100,00 %
04.05.2026 20:30 22,9 °C 42 % 1010,2 hPa 0,0 l/m² 0,0 km/h (0 Bft) SW 225 ° 0,000 mm 9,3 °C 22,9 °C 3,2 km/h (1 Bft) 100,00 %
04.05.2026 20:29 22,9 °C 42 % 1010,3 hPa 0,0 l/m² 1,6 km/h (1 Bft) SW 225 ° 0,000 mm 9,3 °C 22,9 °C 1,6 km/h (1 Bft) 95,65 %
04.05.2026 20:28 23,0 °C 42 % 1010,3 hPa 0,0 l/m² 3,2 km/h (1 Bft) S-SW 202 ° 0,000 mm 9,4 °C 23,0 °C 4,8 km/h (1 Bft) 100,00 %
04.05.2026 20:27 23,0 °C 42 % 1010,2 hPa 0,0 l/m² 1,6 km/h (1 Bft) W 270 ° 0,000 mm 9,4 °C 23,0 °C 1,6 km/h (1 Bft) 95,65 %
04.05.2026 20:26 23,0 °C 42 % 1010,3 hPa 0,0 l/m² 3,2 km/h (1 Bft) W-NW 292 ° 0,000 mm 9,4 °C 23,0 °C 4,8 km/h (1 Bft) 100,00 %
04.05.2026 20:25 23,0 °C 42 % 1010,3 hPa 0,0 l/m² 3,2 km/h (1 Bft) NW 315 ° 0,000 mm 9,4 °C 23,0 °C 4,8 km/h (1 Bft) 100,00 %
04.05.2026 20:24 23,0 °C 42 % 1010,3 hPa 0,0 l/m² 1,6 km/h (1 Bft) W 270 ° 0,000 mm 9,4 °C 23,0 °C 4,8 km/h (1 Bft) 100,00 %
04.05.2026 20:23 23,1 °C 42 % 1010,3 hPa 0,0 l/m² 1,6 km/h (1 Bft) W 270 ° 0,000 mm 9,5 °C 23,1 °C 3,2 km/h (1 Bft) 100,00 %
04.05.2026 20:22 23,1 °C 42 % 1010,2 hPa 0,0 l/m² 3,2 km/h (1 Bft) SW 225 ° 0,000 mm 9,5 °C 23,1 °C 6,4 km/h (2 Bft) 100,00 %
04.05.2026 20:21 23,1 °C 42 % 1010,3 hPa 0,0 l/m² 1,6 km/h (1 Bft) SW 225 ° 0,000 mm 9,5 °C 23,1 °C 3,2 km/h (1 Bft) 100,00 %
04.05.2026 20:20 23,1 °C 42 % 1010,2 hPa 0,0 l/m² 1,6 km/h (1 Bft) W 270 ° 0,000 mm 9,5 °C 23,1 °C 3,2 km/h (1 Bft) 100,00 %
04.05.2026 20:19 23,1 °C 42 % 1010,2 hPa 0,0 l/m² 3,2 km/h (1 Bft) S-SW 202 ° 0,000 mm 9,5 °C 23,1 °C 4,8 km/h (1 Bft) 100,00 %
04.05.2026 20:18 23,1 °C 42 % 1010,2 hPa 0,0 l/m² 1,6 km/h (1 Bft) W 270 ° 0,000 mm 9,5 °C 23,1 °C 3,2 km/h (1 Bft) 100,00 %
04.05.2026 20:17 23,1 °C 42 % 1010,2 hPa 0,0 l/m² 1,6 km/h (1 Bft) W-NW 292 ° 0,000 mm 9,5 °C 23,1 °C 3,2 km/h (1 Bft) 95,65 %
04.05.2026 20:16 23,1 °C 42 % 1010,2 hPa 0,0 l/m² 1,6 km/h (1 Bft) W-NW 292 ° 0,000 mm 9,5 °C 23,1 °C 4,8 km/h (1 Bft) 100,00 %
04.05.2026 20:15 23,2 °C 42 % 1010,3 hPa 0,0 l/m² 1,6 km/h (1 Bft) SW 225 ° 0,000 mm 9,6 °C 23,2 °C 3,2 km/h (1 Bft) 100,00 %
04.05.2026 20:14 23,2 °C 42 % 1010,2 hPa 0,0 l/m² 3,2 km/h (1 Bft) S-SO 157 ° 0,000 mm 9,6 °C 23,2 °C 8,0 km/h (2 Bft) 100,00 %
04.05.2026 20:13 23,2 °C 42 % 1010,3 hPa 0,0 l/m² 1,6 km/h (1 Bft) W 270 ° 0,000 mm 9,6 °C 23,2 °C 4,8 km/h (1 Bft) 100,00 %
04.05.2026 20:12 23,2 °C 42 % 1010,3 hPa 0,0 l/m² 0,0 km/h (0 Bft) W-NW 292 ° 0,000 mm 9,6 °C 23,2 °C 3,2 km/h (1 Bft) 100,00 %
04.05.2026 20:11 23,3 °C 42 % 1010,3 hPa 0,0 l/m² 0,0 km/h (0 Bft) W 270 ° 0,000 mm 9,7 °C 23,3 °C 1,6 km/h (1 Bft) 100,00 %
04.05.2026 20:10 23,3 °C 42 % 1010,4 hPa 0,0 l/m² 1,6 km/h (1 Bft) W-NW 292 ° 0,000 mm 9,7 °C 23,3 °C 3,2 km/h (1 Bft) 100,00 %
04.05.2026 20:09 23,3 °C 42 % 1010,2 hPa 0,0 l/m² 0,0 km/h (0 Bft) W-SW 247 ° 0,000 mm 9,7 °C 23,3 °C 1,6 km/h (1 Bft) 100,00 %
04.05.2026 20:08 23,3 °C 42 % 1010,3 hPa 0,0 l/m² 0,0 km/h (0 Bft) N 0 ° 0,000 mm 9,7 °C 23,3 °C 0,0 km/h (0 Bft) 100,00 %
04.05.2026 20:07 23,4 °C 42 % 1010,3 hPa 0,0 l/m² 0,0 km/h (0 Bft) W-NW 292 ° 0,000 mm 9,7 °C 23,4 °C 1,6 km/h (1 Bft) 100,00 %
04.05.2026 20:06 23,4 °C 42 % 1010,2 hPa 0,0 l/m² 1,6 km/h (1 Bft) W 270 ° 0,000 mm 9,7 °C 23,4 °C 3,2 km/h (1 Bft) 95,65 %
04.05.2026 20:05 23,5 °C 42 % 1010,2 hPa 0,0 l/m² 3,2 km/h (1 Bft) S-SW 202 ° 0,000 mm 9,8 °C 23,5 °C 4,8 km/h (1 Bft) 100,00 %
04.05.2026 20:04 23,5 °C 42 % 1010,3 hPa 0,0 l/m² 1,6 km/h (1 Bft) W 270 ° 0,000 mm 9,8 °C 23,5 °C 3,2 km/h (1 Bft) 100,00 %
04.05.2026 20:03 23,6 °C 41 % 1010,3 hPa 0,0 l/m² 1,6 km/h (1 Bft) SW 225 ° 0,000 mm 9,6 °C 23,6 °C 4,8 km/h (1 Bft) 100,00 %
04.05.2026 20:02 23,6 °C 41 % 1010,2 hPa 0,0 l/m² 3,2 km/h (1 Bft) NW 315 ° 0,000 mm 9,6 °C 23,6 °C 3,2 km/h (1 Bft) 100,00 %
04.05.2026 20:01 23,6 °C 41 % 1010,2 hPa 0,0 l/m² 0,0 km/h (0 Bft) W 270 ° 0,000 mm 9,6 °C 23,6 °C 1,6 km/h (1 Bft) 100,00 %
04.05.2026 20:00 23,6 °C 41 % 1010,2 hPa 0,0 l/m² 1,6 km/h (1 Bft) S-SW 202 ° 0,000 mm 9,6 °C 23,6 °C 3,2 km/h (1 Bft) 95,65 %
04.05.2026 19:59 23,7 °C 41 % 1010,2 hPa 0,0 l/m² 1,6 km/h (1 Bft) O 90 ° 0,000 mm 9,7 °C 23,7 °C 4,8 km/h (1 Bft) 100,00 %
04.05.2026 19:58 23,7 °C 41 % 1010,2 hPa 0,0 l/m² 1,6 km/h (1 Bft) S-SW 202 ° 0,000 mm 9,7 °C 23,7 °C 3,2 km/h (1 Bft) 100,00 %
04.05.2026 19:57 23,7 °C 41 % 1010,2 hPa 0,0 l/m² 1,6 km/h (1 Bft) W 270 ° 0,000 mm 9,7 °C 23,7 °C 4,8 km/h (1 Bft) 100,00 %
04.05.2026 19:56 23,8 °C 41 % 1010,3 hPa 0,0 l/m² 0,0 km/h (0 Bft) W-SW 247 ° 0,000 mm 9,7 °C 23,8 °C 1,6 km/h (1 Bft) 95,65 %
04.05.2026 19:55 23,8 °C 41 % 1010,3 hPa 0,0 l/m² 3,2 km/h (1 Bft) O-SO 112 ° 0,000 mm 9,7 °C 23,8 °C 4,8 km/h (1 Bft) 100,00 %
04.05.2026 19:54 23,8 °C 40 % 1010,3 hPa 0,0 l/m² 1,6 km/h (1 Bft) S-SW 202 ° 0,000 mm 9,4 °C 23,8 °C 3,2 km/h (1 Bft) 100,00 %
04.05.2026 19:53 23,9 °C 40 % 1010,3 hPa 0,0 l/m² 1,6 km/h (1 Bft) W-SW 247 ° 0,000 mm 9,5 °C 23,9 °C 1,6 km/h (1 Bft) 100,00 %
04.05.2026 19:52 23,9 °C 40 % 1010,3 hPa 0,0 l/m² 0,0 km/h (0 Bft) W-SW 247 ° 0,000 mm 9,5 °C 23,9 °C 1,6 km/h (1 Bft) 100,00 %
04.05.2026 19:51 23,9 °C 40 % 1010,3 hPa 0,0 l/m² 1,6 km/h (1 Bft) W-SW 247 ° 0,000 mm 9,5 °C 23,9 °C 4,8 km/h (1 Bft) 100,00 %
04.05.2026 19:50 24,0 °C 40 % 1010,3 hPa 0,0 l/m² 0,0 km/h (0 Bft) W 270 ° 0,000 mm 9,6 °C 24,0 °C 1,6 km/h (1 Bft) 100,00 %
04.05.2026 19:49 24,1 °C 40 % 1010,3 hPa 0,0 l/m² 1,6 km/h (1 Bft) SW 225 ° 0,000 mm 9,6 °C 24,1 °C 3,2 km/h (1 Bft) 100,00 %
04.05.2026 19:48 24,1 °C 40 % 1010,3 hPa 0,0 l/m² 1,6 km/h (1 Bft) O 90 ° 0,000 mm 9,6 °C 24,1 °C 3,2 km/h (1 Bft) 100,00 %
04.05.2026 19:47 24,1 °C 40 % 1010,2 hPa 0,0 l/m² 1,6 km/h (1 Bft) S-SW 202 ° 0,000 mm 9,6 °C 24,1 °C 6,4 km/h (2 Bft) 100,00 %
04.05.2026 19:46 24,2 °C 40 % 1010,2 hPa 0,0 l/m² 1,6 km/h (1 Bft) O 90 ° 0,000 mm 9,7 °C 24,2 °C 6,4 km/h (2 Bft) 100,00 %
04.05.2026 19:45 24,2 °C 40 % 1010,2 hPa 0,0 l/m² 0,0 km/h (0 Bft) W-SW 247 ° 0,000 mm 9,7 °C 24,2 °C 1,6 km/h (1 Bft) 100,00 %
04.05.2026 19:44 24,2 °C 39 % 1010,2 hPa 0,0 l/m² 0,0 km/h (0 Bft) W-SW 247 ° 0,000 mm 9,4 °C 24,2 °C 1,6 km/h (1 Bft) 100,00 %
04.05.2026 19:43 24,2 °C 39 % 1010,2 hPa 0,0 l/m² 1,6 km/h (1 Bft) W-NW 292 ° 0,000 mm 9,4 °C 24,2 °C 4,8 km/h (1 Bft) 100,00 %
04.05.2026 19:42 24,3 °C 39 % 1010,1 hPa 0,0 l/m² 3,2 km/h (1 Bft) S 180 ° 0,000 mm 9,4 °C 24,3 °C 4,8 km/h (1 Bft) 100,00 %
04.05.2026 19:41 24,3 °C 39 % 1010,2 hPa 0,0 l/m² 0,0 km/h (0 Bft) W-SW 247 ° 0,000 mm 9,4 °C 24,3 °C 3,2 km/h (1 Bft) 100,00 %
04.05.2026 19:40 24,3 °C 39 % 1010,2 hPa 0,0 l/m² 1,6 km/h (1 Bft) W-NW 292 ° 0,000 mm 9,4 °C 24,3 °C 3,2 km/h (1 Bft) 100,00 %
04.05.2026 19:39 24,3 °C 39 % 1010,1 hPa 0,0 l/m² 3,2 km/h (1 Bft) O-NO 67 ° 0,000 mm 9,4 °C 24,3 °C 6,4 km/h (2 Bft) 100,00 %
04.05.2026 19:38 24,3 °C 39 % 1010,2 hPa 0,0 l/m² 0,0 km/h (0 Bft) N 0 ° 0,000 mm 9,4 °C 24,3 °C 0,0 km/h (0 Bft) 100,00 %
04.05.2026 19:37 24,3 °C 39 % 1010,1 hPa 0,0 l/m² 0,0 km/h (0 Bft) W 270 ° 0,000 mm 9,4 °C 24,3 °C 1,6 km/h (1 Bft) 100,00 %
04.05.2026 19:36 24,4 °C 39 % 1010,1 hPa 0,0 l/m² 1,6 km/h (1 Bft) W 270 ° 0,000 mm 9,5 °C 24,4 °C 3,2 km/h (1 Bft) 100,00 %
04.05.2026 19:35 24,4 °C 39 % 1010,1 hPa 0,0 l/m² 1,6 km/h (1 Bft) W-NW 292 ° 0,000 mm 9,5 °C 24,4 °C 3,2 km/h (1 Bft) 100,00 %
04.05.2026 19:34 24,4 °C 39 % 1010,1 hPa 0,0 l/m² 1,6 km/h (1 Bft) W-NW 292 ° 0,000 mm 9,5 °C 24,4 °C 3,2 km/h (1 Bft) 95,65 %
04.05.2026 19:33 24,5 °C 38 % 1010,1 hPa 0,0 l/m² 4,8 km/h (1 Bft) NW 315 ° 0,000 mm 9,2 °C 24,5 °C 8,0 km/h (2 Bft) 100,00 %
04.05.2026 19:32 24,5 °C 38 % 1010,1 hPa 0,0 l/m² 3,2 km/h (1 Bft) O-NO 67 ° 0,000 mm 9,2 °C 24,5 °C 4,8 km/h (1 Bft) 95,65 %
04.05.2026 19:31 24,6 °C 38 % 1010,1 hPa 0,0 l/m² 3,2 km/h (1 Bft) W-NW 292 ° 0,000 mm 9,3 °C 24,6 °C 6,4 km/h (2 Bft) 100,00 %
04.05.2026 19:30 24,6 °C 38 % 1010,2 hPa 0,0 l/m² 3,2 km/h (1 Bft) W-NW 292 ° 0,000 mm 9,3 °C 24,6 °C 6,4 km/h (2 Bft) 95,65 %
04.05.2026 19:29 24,6 °C 38 % 1010,1 hPa 0,0 l/m² 1,6 km/h (1 Bft) W-NW 292 ° 0,000 mm 9,3 °C 24,6 °C 3,2 km/h (1 Bft) 95,65 %
04.05.2026 19:28 24,7 °C 38 % 1010,1 hPa 0,0 l/m² 1,6 km/h (1 Bft) W-NW 292 ° 0,000 mm 9,4 °C 24,7 °C 1,6 km/h (1 Bft) 100,00 %
04.05.2026 19:27 24,7 °C 38 % 1010,1 hPa 0,0 l/m² 3,2 km/h (1 Bft) W 270 ° 0,000 mm 9,4 °C 24,7 °C 6,4 km/h (2 Bft) 100,00 %
04.05.2026 19:26 24,7 °C 38 % 1010,1 hPa 0,0 l/m² 3,2 km/h (1 Bft) W 270 ° 0,000 mm 9,4 °C 24,7 °C 4,8 km/h (1 Bft) 100,00 %
04.05.2026 19:25 24,7 °C 38 % 1010,2 hPa 0,0 l/m² 4,8 km/h (1 Bft) NO 45 ° 0,000 mm 9,4 °C 24,7 °C 8,0 km/h (2 Bft) 95,65 %
04.05.2026 19:24 24,8 °C 38 % 1010,2 hPa 0,0 l/m² 3,2 km/h (1 Bft) NO 45 ° 0,000 mm 9,5 °C 24,8 °C 6,4 km/h (2 Bft) 100,00 %
04.05.2026 19:23 24,8 °C 38 % 1010,1 hPa 0,0 l/m² 1,6 km/h (1 Bft) W-NW 292 ° 0,000 mm 9,5 °C 24,8 °C 4,8 km/h (1 Bft) 100,00 %
04.05.2026 19:22 24,8 °C 38 % 1010,1 hPa 0,0 l/m² 1,6 km/h (1 Bft) W-SW 247 ° 0,000 mm 9,5 °C 24,8 °C 3,2 km/h (1 Bft) 100,00 %
04.05.2026 19:21 24,9 °C 38 % 1010,2 hPa 0,0 l/m² 1,6 km/h (1 Bft) W-NW 292 ° 0,000 mm 9,6 °C 24,9 °C 4,8 km/h (1 Bft) 100,00 %
04.05.2026 19:20 24,9 °C 38 % 1010,2 hPa 0,0 l/m² 1,6 km/h (1 Bft) W-SW 247 ° 0,000 mm 9,6 °C 24,9 °C 4,8 km/h (1 Bft) 100,00 %
04.05.2026 19:19 24,9 °C 37 % 1010,1 hPa 0,0 l/m² 3,2 km/h (1 Bft) W 270 ° 0,000 mm 9,2 °C 24,9 °C 6,4 km/h (2 Bft) 100,00 %
04.05.2026 19:18 25,0 °C 37 % 1010,2 hPa 0,0 l/m² 3,2 km/h (1 Bft) N 360 ° 0,000 mm 9,3 °C 25,0 °C 4,8 km/h (1 Bft) 100,00 %
04.05.2026 19:17 25,1 °C 37 % 1010,2 hPa 0,0 l/m² 4,8 km/h (1 Bft) NW 315 ° 0,000 mm 9,4 °C 25,1 °C 8,0 km/h (2 Bft) 100,00 %
04.05.2026 19:16 25,1 °C 37 % 1010,2 hPa 0,0 l/m² 4,8 km/h (1 Bft) N-NO 22 ° 0,000 mm 9,4 °C 25,1 °C 9,7 km/h (2 Bft) 100,00 %
04.05.2026 19:15 25,1 °C 37 % 1010,2 hPa 0,0 l/m² 1,6 km/h (1 Bft) W-NW 292 ° 0,000 mm 9,4 °C 25,1 °C 3,2 km/h (1 Bft) 100,00 %
04.05.2026 19:14 25,1 °C 37 % 1010,2 hPa 0,0 l/m² 3,2 km/h (1 Bft) N 360 ° 0,000 mm 9,4 °C 25,1 °C 6,4 km/h (2 Bft) 100,00 %
04.05.2026 19:13 25,2 °C 37 % 1010,2 hPa 0,0 l/m² 1,6 km/h (1 Bft) W-NW 292 ° 0,000 mm 9,5 °C 25,2 °C 4,8 km/h (1 Bft) 100,00 %
04.05.2026 19:12 25,2 °C 37 % 1010,2 hPa 0,0 l/m² 3,2 km/h (1 Bft) N 360 ° 0,000 mm 9,5 °C 25,2 °C 8,0 km/h (2 Bft) 91,30 %
04.05.2026 19:11 25,2 °C 37 % 1010,1 hPa 0,0 l/m² 3,2 km/h (1 Bft) SW 225 ° 0,000 mm 9,5 °C 25,2 °C 6,4 km/h (2 Bft) 100,00 %
04.05.2026 19:10 25,2 °C 37 % 1010,1 hPa 0,0 l/m² 3,2 km/h (1 Bft) NO 45 ° 0,000 mm 9,5 °C 25,2 °C 4,8 km/h (1 Bft) 100,00 %
04.05.2026 19:09 25,3 °C 37 % 1010,1 hPa 0,0 l/m² 3,2 km/h (1 Bft) W 270 ° 0,000 mm 9,6 °C 25,3 °C 6,4 km/h (2 Bft) 100,00 %
04.05.2026 19:08 25,3 °C 37 % 1010,1 hPa 0,0 l/m² 6,4 km/h (2 Bft) N-NO 22 ° 0,000 mm 9,6 °C 25,3 °C 9,7 km/h (2 Bft) 100,00 %
04.05.2026 19:07 25,3 °C 37 % 1010,2 hPa 0,0 l/m² 4,8 km/h (1 Bft) SW 225 ° 0,000 mm 9,6 °C 25,3 °C 12,9 km/h (3 Bft) 100,00 %
04.05.2026 19:06 25,4 °C 37 % 1010,1 hPa 0,0 l/m² 4,8 km/h (1 Bft) W-NW 292 ° 0,000 mm 9,6 °C 25,4 °C 8,0 km/h (2 Bft) 100,00 %
04.05.2026 19:05 25,5 °C 37 % 1010,2 hPa 0,0 l/m² 4,8 km/h (1 Bft) N 360 ° 0,000 mm 9,7 °C 25,5 °C 8,0 km/h (2 Bft) 100,00 %
04.05.2026 19:04 25,6 °C 37 % 1010,2 hPa 0,0 l/m² 4,8 km/h (1 Bft) NO 45 ° 0,000 mm 9,8 °C 25,6 °C 9,7 km/h (2 Bft) 100,00 %
04.05.2026 19:03 25,6 °C 36 % 1010,2 hPa 0,0 l/m² 4,8 km/h (1 Bft) SW 225 ° 0,000 mm 9,4 °C 25,6 °C 6,4 km/h (2 Bft) 100,00 %
04.05.2026 19:02 25,6 °C 36 % 1010,2 hPa 0,0 l/m² 6,4 km/h (2 Bft) NO 45 ° 0,000 mm 9,4 °C 25,6 °C 9,7 km/h (2 Bft) 100,00 %
04.05.2026 19:01 25,7 °C 37 % 1010,2 hPa 0,0 l/m² 3,2 km/h (1 Bft) NO 45 ° 0,000 mm 9,9 °C 25,7 °C 4,8 km/h (1 Bft) 100,00 %
04.05.2026 19:00 25,7 °C 36 % 1010,2 hPa 0,0 l/m² 3,2 km/h (1 Bft) N-NO 22 ° 0,000 mm 9,5 °C 25,7 °C 6,4 km/h (2 Bft) 100,00 %
04.05.2026 18:59 25,7 °C 36 % 1010,2 hPa 0,0 l/m² 3,2 km/h (1 Bft) N 360 ° 0,000 mm 9,5 °C 25,7 °C 8,0 km/h (2 Bft) 100,00 %
04.05.2026 18:58 25,7 °C 36 % 1010,2 hPa 0,0 l/m² 1,6 km/h (1 Bft) W-NW 292 ° 0,000 mm 9,5 °C 25,7 °C 3,2 km/h (1 Bft) 100,00 %
04.05.2026 18:57 25,7 °C 36 % 1010,2 hPa 0,0 l/m² 3,2 km/h (1 Bft) N 360 ° 0,000 mm 9,5 °C 25,7 °C 6,4 km/h (2 Bft) 100,00 %
04.05.2026 18:56 25,7 °C 36 % 1010,3 hPa 0,0 l/m² 3,2 km/h (1 Bft) O 90 ° 0,000 mm 9,5 °C 25,7 °C 6,4 km/h (2 Bft) 100,00 %
04.05.2026 18:55 25,7 °C 36 % 1010,2 hPa 0,0 l/m² 3,2 km/h (1 Bft) O 90 ° 0,000 mm 9,5 °C 25,7 °C 8,0 km/h (2 Bft) 100,00 %
04.05.2026 18:54 25,7 °C 36 % 1010,3 hPa 0,0 l/m² 6,4 km/h (2 Bft) O-NO 67 ° 0,000 mm 9,5 °C 25,7 °C 9,7 km/h (2 Bft) 100,00 %
04.05.2026 18:53 25,7 °C 35 % 1010,2 hPa 0,0 l/m² 4,8 km/h (1 Bft) N 360 ° 0,000 mm 9,1 °C 25,7 °C 9,7 km/h (2 Bft) 100,00 %
04.05.2026 18:52 25,8 °C 36 % 1010,3 hPa 0,0 l/m² 4,8 km/h (1 Bft) N 360 ° 0,000 mm 9,6 °C 25,8 °C 14,5 km/h (3 Bft) 100,00 %
04.05.2026 18:51 25,8 °C 35 % 1010,2 hPa 0,0 l/m² 1,6 km/h (1 Bft) W-NW 292 ° 0,000 mm 9,2 °C 25,8 °C 3,2 km/h (1 Bft) 100,00 %
04.05.2026 18:50 25,8 °C 35 % 1010,3 hPa 0,0 l/m² 3,2 km/h (1 Bft) O-NO 67 ° 0,000 mm 9,2 °C 25,8 °C 4,8 km/h (1 Bft) 100,00 %
04.05.2026 18:49 25,8 °C 35 % 1010,3 hPa 0,0 l/m² 1,6 km/h (1 Bft) W-NW 292 ° 0,000 mm 9,2 °C 25,8 °C 4,8 km/h (1 Bft) 95,65 %
04.05.2026 18:48 25,8 °C 35 % 1010,3 hPa 0,0 l/m² 1,6 km/h (1 Bft) W-NW 292 ° 0,000 mm 9,2 °C 25,8 °C 6,4 km/h (2 Bft) 100,00 %
04.05.2026 18:47 25,8 °C 35 % 1010,3 hPa 0,0 l/m² 3,2 km/h (1 Bft) NO 45 ° 0,000 mm 9,2 °C 25,8 °C 4,8 km/h (1 Bft) 100,00 %
04.05.2026 18:46 25,9 °C 35 % 1010,3 hPa 0,0 l/m² 3,2 km/h (1 Bft) N-NO 22 ° 0,000 mm 9,3 °C 25,9 °C 6,4 km/h (2 Bft) 100,00 %
04.05.2026 18:45 25,8 °C 34 % 1010,3 hPa 0,0 l/m² 3,2 km/h (1 Bft) NW 315 ° 0,000 mm 8,7 °C 25,8 °C 3,2 km/h (1 Bft) 100,00 %
04.05.2026 18:44 25,9 °C 35 % 1010,3 hPa 0,0 l/m² 3,2 km/h (1 Bft) W 270 ° 0,000 mm 9,3 °C 25,9 °C 6,4 km/h (2 Bft) 100,00 %
04.05.2026 18:43 25,9 °C 34 % 1010,4 hPa 0,0 l/m² 4,8 km/h (1 Bft) NO 45 ° 0,000 mm 8,8 °C 25,9 °C 8,0 km/h (2 Bft) 100,00 %
04.05.2026 18:42 25,9 °C 35 % 1010,3 hPa 0,0 l/m² 1,6 km/h (1 Bft) W-NW 292 ° 0,000 mm 9,3 °C 25,9 °C 8,0 km/h (2 Bft) 100,00 %
04.05.2026 18:41 25,9 °C 35 % 1010,4 hPa 0,0 l/m² 3,2 km/h (1 Bft) N 360 ° 0,000 mm 9,3 °C 25,9 °C 6,4 km/h (2 Bft) 100,00 %
04.05.2026 18:40 25,8 °C 35 % 1010,3 hPa 0,0 l/m² 3,2 km/h (1 Bft) W-NW 292 ° 0,000 mm 9,2 °C 25,8 °C 8,0 km/h (2 Bft) 100,00 %
04.05.2026 18:39 25,8 °C 35 % 1010,3 hPa 0,0 l/m² 3,2 km/h (1 Bft) N 360 ° 0,000 mm 9,2 °C 25,8 °C 8,0 km/h (2 Bft) 100,00 %
04.05.2026 18:38 25,8 °C 35 % 1010,4 hPa 0,0 l/m² 1,6 km/h (1 Bft) W-SW 247 ° 0,000 mm 9,2 °C 25,8 °C 4,8 km/h (1 Bft) 100,00 %
04.05.2026 18:37 25,8 °C 35 % 1010,4 hPa 0,0 l/m² 6,4 km/h (2 Bft) O-NO 67 ° 0,000 mm 9,2 °C 25,8 °C 9,7 km/h (2 Bft) 100,00 %
04.05.2026 18:36 25,8 °C 35 % 1010,4 hPa 0,0 l/m² 6,4 km/h (2 Bft) W-NW 292 ° 0,000 mm 9,2 °C 25,8 °C 12,9 km/h (3 Bft) 100,00 %
04.05.2026 18:35 25,8 °C 35 % 1010,4 hPa 0,0 l/m² 3,2 km/h (1 Bft) NW 315 ° 0,000 mm 9,2 °C 25,8 °C 6,4 km/h (2 Bft) 100,00 %
04.05.2026 18:34 25,9 °C 35 % 1010,5 hPa 0,0 l/m² 3,2 km/h (1 Bft) NW 315 ° 0,000 mm 9,3 °C 25,9 °C 6,4 km/h (2 Bft) 100,00 %
04.05.2026 18:33 25,9 °C 35 % 1010,4 hPa 0,0 l/m² 4,8 km/h (1 Bft) N 360 ° 0,000 mm 9,3 °C 25,9 °C 6,4 km/h (2 Bft) 100,00 %
04.05.2026 18:32 25,9 °C 35 % 1010,4 hPa 0,0 l/m² 4,8 km/h (1 Bft) W-NW 292 ° 0,000 mm 9,3 °C 25,9 °C 12,9 km/h (3 Bft) 100,00 %
04.05.2026 18:31 26,0 °C 34 % 1010,4 hPa 0,0 l/m² 8,0 km/h (2 Bft) N 360 ° 0,000 mm 8,9 °C 25,7 °C 14,5 km/h (3 Bft) 100,00 %
04.05.2026 18:30 26,0 °C 34 % 1010,4 hPa 0,0 l/m² 3,2 km/h (1 Bft) W 270 ° 0,000 mm 8,9 °C 26,0 °C 9,7 km/h (2 Bft) 100,00 %
04.05.2026 18:29 26,0 °C 34 % 1010,5 hPa 0,0 l/m² 1,6 km/h (1 Bft) NW 315 ° 0,000 mm 8,9 °C 26,0 °C 4,8 km/h (1 Bft) 100,00 %
04.05.2026 18:28 26,0 °C 33 % 1010,4 hPa 0,0 l/m² 3,2 km/h (1 Bft) NO 45 ° 0,000 mm 8,5 °C 26,0 °C 4,8 km/h (1 Bft) 100,00 %
04.05.2026 18:27 26,1 °C 33 % 1010,5 hPa 0,0 l/m² 6,4 km/h (2 Bft) N-NO 22 ° 0,000 mm 8,6 °C 26,1 °C 11,3 km/h (2 Bft) 100,00 %
04.05.2026 18:26 26,1 °C 34 % 1010,5 hPa 0,0 l/m² 6,4 km/h (2 Bft) NO 45 ° 0,000 mm 9,0 °C 26,1 °C 9,7 km/h (2 Bft) 100,00 %
04.05.2026 18:25 26,1 °C 34 % 1010,5 hPa 0,0 l/m² 3,2 km/h (1 Bft) O-NO 67 ° 0,000 mm 9,0 °C 26,1 °C 4,8 km/h (1 Bft) 100,00 %
04.05.2026 18:24 26,2 °C 34 % 1010,5 hPa 0,0 l/m² 3,2 km/h (1 Bft) N-NO 22 ° 0,000 mm 9,1 °C 26,2 °C 6,4 km/h (2 Bft) 100,00 %
04.05.2026 18:23 26,2 °C 33 % 1010,5 hPa 0,0 l/m² 6,4 km/h (2 Bft) N 360 ° 0,000 mm 8,6 °C 26,2 °C 11,3 km/h (2 Bft) 100,00 %
04.05.2026 18:22 26,2 °C 34 % 1010,5 hPa 0,0 l/m² 6,4 km/h (2 Bft) N-NO 22 ° 0,000 mm 9,1 °C 26,2 °C 9,7 km/h (2 Bft) 100,00 %
04.05.2026 18:21 26,3 °C 34 % 1010,5 hPa 0,0 l/m² 3,2 km/h (1 Bft) W 270 ° 0,000 mm 9,2 °C 26,3 °C 6,4 km/h (2 Bft) 100,00 %
04.05.2026 18:20 26,3 °C 33 % 1010,5 hPa 0,0 l/m² 9,7 km/h (2 Bft) N-NO 22 ° 0,000 mm 8,7 °C 25,7 °C 14,5 km/h (3 Bft) 100,00 %
04.05.2026 18:19 26,4 °C 34 % 1010,5 hPa 0,0 l/m² 3,2 km/h (1 Bft) NW 315 ° 0,000 mm 9,3 °C 26,4 °C 8,0 km/h (2 Bft) 100,00 %
04.05.2026 18:18 26,4 °C 34 % 1010,5 hPa 0,0 l/m² 1,6 km/h (1 Bft) NW 315 ° 0,000 mm 9,3 °C 26,4 °C 4,8 km/h (1 Bft) 100,00 %
04.05.2026 18:17 26,4 °C 33 % 1010,5 hPa 0,0 l/m² 4,8 km/h (1 Bft) N-NO 22 ° 0,000 mm 8,8 °C 26,4 °C 8,0 km/h (2 Bft) 95,65 %
04.05.2026 18:16 26,4 °C 34 % 1010,6 hPa 0,0 l/m² 0,0 km/h (0 Bft) W-NW 292 ° 0,000 mm 9,3 °C 26,4 °C 1,6 km/h (1 Bft) 100,00 %
04.05.2026 18:15 26,3 °C 33 % 1010,5 hPa 0,0 l/m² 3,2 km/h (1 Bft) N-NW 337 ° 0,000 mm 8,7 °C 26,3 °C 8,0 km/h (2 Bft) 100,00 %
04.05.2026 18:14 26,4 °C 33 % 1010,5 hPa 0,0 l/m² 4,8 km/h (1 Bft) W 270 ° 0,000 mm 8,8 °C 26,4 °C 8,0 km/h (2 Bft) 100,00 %
04.05.2026 18:13 26,4 °C 32 % 1010,6 hPa 0,0 l/m² 6,4 km/h (2 Bft) N 360 ° 0,000 mm 8,4 °C 26,4 °C 9,7 km/h (2 Bft) 100,00 %
04.05.2026 18:12 26,4 °C 33 % 1010,6 hPa 0,0 l/m² 4,8 km/h (1 Bft) W-NW 292 ° 0,000 mm 8,8 °C 26,4 °C 11,3 km/h (2 Bft) 100,00 %
04.05.2026 18:11 26,4 °C 33 % 1010,6 hPa 0,0 l/m² 3,2 km/h (1 Bft) W-NW 292 ° 0,000 mm 8,8 °C 26,4 °C 9,7 km/h (2 Bft) 100,00 %
04.05.2026 18:10 26,4 °C 33 % 1010,6 hPa 0,0 l/m² 3,2 km/h (1 Bft) N 360 ° 0,000 mm 8,8 °C 26,4 °C 6,4 km/h (2 Bft) 100,00 %
04.05.2026 18:09 26,5 °C 33 % 1010,6 hPa 0,0 l/m² 6,4 km/h (2 Bft) NO 45 ° 0,000 mm 8,9 °C 26,5 °C 9,7 km/h (2 Bft) 100,00 %
04.05.2026 18:08 26,6 °C 34 % 1010,6 hPa 0,0 l/m² 4,8 km/h (1 Bft) N 360 ° 0,000 mm 9,4 °C 26,6 °C 8,0 km/h (2 Bft) 95,65 %
04.05.2026 18:07 26,6 °C 34 % 1010,6 hPa 0,0 l/m² 1,6 km/h (1 Bft) W 270 ° 0,000 mm 9,4 °C 26,6 °C 3,2 km/h (1 Bft) 100,00 %
04.05.2026 18:06 26,5 °C 33 % 1010,5 hPa 0,0 l/m² 3,2 km/h (1 Bft) W-NW 292 ° 0,000 mm 8,9 °C 26,5 °C 6,4 km/h (2 Bft) 100,00 %
04.05.2026 18:05 26,4 °C 33 % 1010,6 hPa 0,0 l/m² 1,6 km/h (1 Bft) O-NO 67 ° 0,000 mm 8,8 °C 26,4 °C 4,8 km/h (1 Bft) 100,00 %
04.05.2026 18:04 26,4 °C 32 % 1010,6 hPa 0,0 l/m² 3,2 km/h (1 Bft) N-NO 22 ° 0,000 mm 8,4 °C 26,4 °C 6,4 km/h (2 Bft) 100,00 %
04.05.2026 18:03 26,4 °C 34 % 1010,6 hPa 0,0 l/m² 4,8 km/h (1 Bft) O-NO 67 ° 0,000 mm 9,3 °C 26,4 °C 6,4 km/h (2 Bft) 100,00 %
04.05.2026 18:02 26,5 °C 34 % 1010,7 hPa 0,0 l/m² 3,2 km/h (1 Bft) S-SW 202 ° 0,000 mm 9,3 °C 26,5 °C 12,9 km/h (3 Bft) 100,00 %
04.05.2026 18:01 26,4 °C 33 % 1010,6 hPa 0,0 l/m² 3,2 km/h (1 Bft) NW 315 ° 0,000 mm 8,8 °C 26,4 °C 3,2 km/h (1 Bft) 100,00 %
04.05.2026 18:00 26,4 °C 33 % 1010,7 hPa 0,0 l/m² 3,2 km/h (1 Bft) W-NW 292 ° 0,000 mm 8,8 °C 26,4 °C 6,4 km/h (2 Bft) 95,65 %
04.05.2026 17:59 26,4 °C 33 % 1010,6 hPa 0,0 l/m² 3,2 km/h (1 Bft) W-NW 292 ° 0,000 mm 8,8 °C 26,4 °C 6,4 km/h (2 Bft) 100,00 %
04.05.2026 17:58 26,4 °C 33 % 1010,6 hPa 0,0 l/m² 4,8 km/h (1 Bft) N-NW 337 ° 0,000 mm 8,8 °C 26,4 °C 8,0 km/h (2 Bft) 95,65 %
04.05.2026 17:57 26,4 °C 33 % 1010,6 hPa 0,0 l/m² 1,6 km/h (1 Bft) W 270 ° 0,000 mm 8,8 °C 26,4 °C 3,2 km/h (1 Bft) 100,00 %
04.05.2026 17:56 26,3 °C 32 % 1010,7 hPa 0,0 l/m² 3,2 km/h (1 Bft) W-NW 292 ° 0,000 mm 8,3 °C 26,3 °C 8,0 km/h (2 Bft) 100,00 %
04.05.2026 17:55 26,4 °C 33 % 1010,7 hPa 0,0 l/m² 3,2 km/h (1 Bft) SW 225 ° 0,000 mm 8,8 °C 26,4 °C 6,4 km/h (2 Bft) 95,65 %
04.05.2026 17:54 26,4 °C 33 % 1010,6 hPa 0,0 l/m² 3,2 km/h (1 Bft) W 270 ° 0,000 mm 8,8 °C 26,4 °C 4,8 km/h (1 Bft) 100,00 %
04.05.2026 17:53 26,4 °C 32 % 1010,7 hPa 0,0 l/m² 4,8 km/h (1 Bft) NW 315 ° 0,000 mm 8,4 °C 26,4 °C 12,9 km/h (3 Bft) 100,00 %
04.05.2026 17:52 26,5 °C 33 % 1010,7 hPa 0,0 l/m² 3,2 km/h (1 Bft) N-NO 22 ° 0,000 mm 8,9 °C 26,5 °C 8,0 km/h (2 Bft) 100,00 %
04.05.2026 17:51 26,5 °C 32 % 1010,7 hPa 0,0 l/m² 3,2 km/h (1 Bft) W-NW 292 ° 0,000 mm 8,4 °C 26,5 °C 6,4 km/h (2 Bft) 100,00 %
04.05.2026 17:50 26,6 °C 32 % 1010,7 hPa 0,0 l/m² 4,8 km/h (1 Bft) N-NW 337 ° 0,000 mm 8,5 °C 26,6 °C 8,0 km/h (2 Bft) 100,00 %
04.05.2026 17:49 26,6 °C 32 % 1010,7 hPa 0,0 l/m² 4,8 km/h (1 Bft) W 270 ° 0,000 mm 8,5 °C 26,6 °C 9,7 km/h (2 Bft) 100,00 %
04.05.2026 17:48 26,7 °C 33 % 1010,7 hPa 0,0 l/m² 1,6 km/h (1 Bft) W-NW 292 ° 0,000 mm 9,1 °C 26,7 °C 3,2 km/h (1 Bft) 95,65 %
04.05.2026 17:47 26,8 °C 33 % 1010,7 hPa 0,0 l/m² 3,2 km/h (1 Bft) W 270 ° 0,000 mm 9,2 °C 26,8 °C 4,8 km/h (1 Bft) 100,00 %
04.05.2026 17:46 26,8 °C 32 % 1010,8 hPa 0,0 l/m² 1,6 km/h (1 Bft) N-NO 22 ° 0,000 mm 8,7 °C 26,8 °C 4,8 km/h (1 Bft) 100,00 %
04.05.2026 17:45 26,8 °C 32 % 1010,8 hPa 0,0 l/m² 1,6 km/h (1 Bft) W-NW 292 ° 0,000 mm 8,7 °C 26,8 °C 3,2 km/h (1 Bft) 95,65 %
04.05.2026 17:44 26,8 °C 31 % 1010,8 hPa 0,0 l/m² 6,4 km/h (2 Bft) N-NO 22 ° 0,000 mm 8,2 °C 26,8 °C 8,0 km/h (2 Bft) 100,00 %
04.05.2026 17:43 26,9 °C 32 % 1010,8 hPa 0,0 l/m² 3,2 km/h (1 Bft) W-SW 247 ° 0,000 mm 8,8 °C 26,9 °C 6,4 km/h (2 Bft) 100,00 %
04.05.2026 17:42 26,9 °C 32 % 1010,8 hPa 0,0 l/m² 1,6 km/h (1 Bft) W-NW 292 ° 0,000 mm 8,8 °C 26,9 °C 3,2 km/h (1 Bft) 100,00 %
04.05.2026 17:41 26,9 °C 32 % 1010,9 hPa 0,0 l/m² 4,8 km/h (1 Bft) N 360 ° 0,000 mm 8,8 °C 26,9 °C 9,7 km/h (2 Bft) 100,00 %
04.05.2026 17:40 27,1 °C 32 % 1010,8 hPa 0,0 l/m² 4,8 km/h (1 Bft) W-NW 292 ° 0,000 mm 9,0 °C 27,1 °C 11,3 km/h (2 Bft) 100,00 %
04.05.2026 17:39 27,0 °C 31 % 1010,7 hPa 0,0 l/m² 3,2 km/h (1 Bft) W-SW 247 ° 0,000 mm 8,4 °C 27,0 °C 6,4 km/h (2 Bft) 100,00 %
04.05.2026 17:38 27,0 °C 31 % 1010,7 hPa 0,0 l/m² 3,2 km/h (1 Bft) W-NW 292 ° 0,000 mm 8,4 °C 27,0 °C 6,4 km/h (2 Bft) 100,00 %
04.05.2026 17:37 27,0 °C 32 % 1010,7 hPa 0,0 l/m² 3,2 km/h (1 Bft) W 270 ° 0,000 mm 8,9 °C 27,0 °C 6,4 km/h (2 Bft) 100,00 %
04.05.2026 17:36 27,0 °C 32 % 1010,8 hPa 0,0 l/m² 4,8 km/h (1 Bft) O-SO 112 ° 0,000 mm 8,9 °C 27,0 °C 8,0 km/h (2 Bft) 100,00 %
04.05.2026 17:35 27,0 °C 32 % 1010,7 hPa 0,0 l/m² 3,2 km/h (1 Bft) SW 225 ° 0,000 mm 8,9 °C 27,0 °C 8,0 km/h (2 Bft) 100,00 %
04.05.2026 17:34 27,0 °C 33 % 1010,8 hPa 0,0 l/m² 3,2 km/h (1 Bft) NW 315 ° 0,000 mm 9,3 °C 27,0 °C 8,0 km/h (2 Bft) 100,00 %
04.05.2026 17:33 26,9 °C 33 % 1010,7 hPa 0,0 l/m² 3,2 km/h (1 Bft) W-SW 247 ° 0,000 mm 9,3 °C 26,9 °C 6,4 km/h (2 Bft) 100,00 %
04.05.2026 17:32 26,9 °C 34 % 1010,6 hPa 0,0 l/m² 1,6 km/h (1 Bft) SW 225 ° 0,000 mm 9,7 °C 26,9 °C 4,8 km/h (1 Bft) 100,00 %
04.05.2026 17:31 26,8 °C 33 % 1010,7 hPa 0,0 l/m² 3,2 km/h (1 Bft) NW 315 ° 0,000 mm 9,2 °C 26,8 °C 4,8 km/h (1 Bft) 100,00 %
04.05.2026 17:30 26,8 °C 33 % 1010,7 hPa 0,0 l/m² 1,6 km/h (1 Bft) W-NW 292 ° 0,000 mm 9,2 °C 26,8 °C 4,8 km/h (1 Bft) 100,00 %
04.05.2026 17:29 26,8 °C 33 % 1010,8 hPa 0,0 l/m² 3,2 km/h (1 Bft) W 270 ° 0,000 mm 9,2 °C 26,8 °C 9,7 km/h (2 Bft) 100,00 %
04.05.2026 17:28 26,8 °C 33 % 1010,8 hPa 0,0 l/m² 4,8 km/h (1 Bft) NO 45 ° 0,000 mm 9,2 °C 26,8 °C 9,7 km/h (2 Bft) 100,00 %
04.05.2026 17:27 26,9 °C 32 % 1010,7 hPa 0,0 l/m² 6,4 km/h (2 Bft) N-NO 22 ° 0,000 mm 8,8 °C 26,9 °C 11,3 km/h (2 Bft) 100,00 %
04.05.2026 17:26 26,9 °C 33 % 1010,8 hPa 0,0 l/m² 4,8 km/h (1 Bft) N-NO 22 ° 0,000 mm 9,3 °C 26,9 °C 11,3 km/h (2 Bft) 95,65 %
04.05.2026 17:25 26,9 °C 33 % 1010,8 hPa 0,0 l/m² 4,8 km/h (1 Bft) NW 315 ° 0,000 mm 9,3 °C 26,9 °C 6,4 km/h (2 Bft) 100,00 %
04.05.2026 17:24 26,9 °C 33 % 1010,8 hPa 0,0 l/m² 4,8 km/h (1 Bft) W-NW 292 ° 0,000 mm 9,3 °C 26,9 °C 6,4 km/h (2 Bft) 95,65 %
04.05.2026 17:23 26,8 °C 33 % 1010,8 hPa 0,0 l/m² 4,8 km/h (1 Bft) N-NO 22 ° 0,000 mm 9,2 °C 26,8 °C 9,7 km/h (2 Bft) 100,00 %
04.05.2026 17:22 26,8 °C 33 % 1010,8 hPa 0,0 l/m² 3,2 km/h (1 Bft) NW 315 ° 0,000 mm 9,2 °C 26,8 °C 6,4 km/h (2 Bft) 100,00 %
04.05.2026 17:21 26,7 °C 33 % 1010,8 hPa 0,0 l/m² 1,6 km/h (1 Bft) SW 225 ° 0,000 mm 9,1 °C 26,7 °C 3,2 km/h (1 Bft) 100,00 %
04.05.2026 17:20 26,6 °C 33 % 1010,8 hPa 0,0 l/m² 3,2 km/h (1 Bft) S-SW 202 ° 0,000 mm 9,0 °C 26,6 °C 6,4 km/h (2 Bft) 100,00 %
04.05.2026 17:19 26,4 °C 34 % 1010,9 hPa 0,0 l/m² 1,6 km/h (1 Bft) O-NO 67 ° 0,000 mm 9,3 °C 26,4 °C 3,2 km/h (1 Bft) 100,00 %
04.05.2026 17:18 26,4 °C 34 % 1010,9 hPa 0,0 l/m² 1,6 km/h (1 Bft) W 270 ° 0,000 mm 9,3 °C 26,4 °C 3,2 km/h (1 Bft) 100,00 %
04.05.2026 17:17 26,3 °C 33 % 1011,0 hPa 0,0 l/m² 6,4 km/h (2 Bft) O-NO 67 ° 0,000 mm 8,7 °C 26,3 °C 8,0 km/h (2 Bft) 100,00 %
04.05.2026 17:16 26,4 °C 32 % 1011,0 hPa 0,0 l/m² 9,7 km/h (2 Bft) N-NO 22 ° 0,000 mm 8,4 °C 25,8 °C 16,1 km/h (3 Bft) 100,00 %
04.05.2026 17:15 26,5 °C 33 % 1011,0 hPa 0,0 l/m² 9,7 km/h (2 Bft) N-NO 22 ° 0,000 mm 8,9 °C 25,9 °C 16,1 km/h (3 Bft) 100,00 %
04.05.2026 17:14 26,5 °C 34 % 1010,9 hPa 0,0 l/m² 3,2 km/h (1 Bft) NW 315 ° 0,000 mm 9,3 °C 26,5 °C 6,4 km/h (2 Bft) 100,00 %
04.05.2026 17:13 26,5 °C 34 % 1011,0 hPa 0,0 l/m² 4,8 km/h (1 Bft) W-SW 247 ° 0,000 mm 9,3 °C 26,5 °C 8,0 km/h (2 Bft) 100,00 %
04.05.2026 17:12 26,5 °C 34 % 1011,0 hPa 0,0 l/m² 3,2 km/h (1 Bft) N-NO 22 ° 0,000 mm 9,3 °C 26,5 °C 8,0 km/h (2 Bft) 100,00 %
04.05.2026 17:11 26,4 °C 34 % 1010,9 hPa 0,0 l/m² 6,4 km/h (2 Bft) N 360 ° 0,000 mm 9,3 °C 26,4 °C 11,3 km/h (2 Bft) 100,00 %
04.05.2026 17:10 26,4 °C 33 % 1011,0 hPa 0,0 l/m² 6,4 km/h (2 Bft) NO 45 ° 0,000 mm 8,8 °C 26,4 °C 11,3 km/h (2 Bft) 100,00 %
04.05.2026 17:09 26,4 °C 33 % 1011,0 hPa 0,0 l/m² 6,4 km/h (2 Bft) NO 45 ° 0,000 mm 8,8 °C 26,4 °C 11,3 km/h (2 Bft) 95,65 %
04.05.2026 17:08 26,5 °C 33 % 1011,1 hPa 0,0 l/m² 9,7 km/h (2 Bft) N-NO 22 ° 0,000 mm 8,9 °C 25,9 °C 16,1 km/h (3 Bft) 100,00 %
04.05.2026 17:07 26,6 °C 33 % 1011,0 hPa 0,0 l/m² 8,0 km/h (2 Bft) O-NO 67 ° 0,000 mm 9,0 °C 26,3 °C 9,7 km/h (2 Bft) 100,00 %
04.05.2026 17:06 26,6 °C 33 % 1011,0 hPa 0,0 l/m² 6,4 km/h (2 Bft) NW 315 ° 0,000 mm 9,0 °C 26,6 °C 9,7 km/h (2 Bft) 100,00 %
04.05.2026 17:05 26,6 °C 32 % 1011,0 hPa 0,0 l/m² 6,4 km/h (2 Bft) O-NO 67 ° 0,000 mm 8,5 °C 26,6 °C 8,0 km/h (2 Bft) 100,00 %
04.05.2026 17:04 26,7 °C 33 % 1011,1 hPa 0,0 l/m² 6,4 km/h (2 Bft) N-NO 22 ° 0,000 mm 9,1 °C 26,7 °C 9,7 km/h (2 Bft) 100,00 %
04.05.2026 17:03 26,7 °C 33 % 1010,9 hPa 0,0 l/m² 1,6 km/h (1 Bft) W 270 ° 0,000 mm 9,1 °C 26,7 °C 4,8 km/h (1 Bft) 95,65 %
04.05.2026 17:02 26,7 °C 33 % 1011,0 hPa 0,0 l/m² 6,4 km/h (2 Bft) NO 45 ° 0,000 mm 9,1 °C 26,7 °C 11,3 km/h (2 Bft) 100,00 %
04.05.2026 17:01 26,7 °C 33 % 1011,1 hPa 0,0 l/m² 11,3 km/h (2 Bft) N-NO 22 ° 0,000 mm 9,1 °C 25,8 °C 16,1 km/h (3 Bft) 100,00 %
04.05.2026 17:00 26,8 °C 33 % 1011,1 hPa 0,0 l/m² 3,2 km/h (1 Bft) W 270 ° 0,000 mm 9,2 °C 26,8 °C 4,8 km/h (1 Bft) 100,00 %
04.05.2026 16:59 26,8 °C 32 % 1011,0 hPa 0,0 l/m² 4,8 km/h (1 Bft) N 360 ° 0,000 mm 8,7 °C 26,8 °C 9,7 km/h (2 Bft) 100,00 %
04.05.2026 16:58 26,8 °C 33 % 1011,1 hPa 0,0 l/m² 1,6 km/h (1 Bft) W 270 ° 0,000 mm 9,2 °C 26,8 °C 4,8 km/h (1 Bft) 100,00 %
04.05.2026 16:57 26,9 °C 33 % 1011,1 hPa 0,0 l/m² 8,0 km/h (2 Bft) N-NO 22 ° 0,000 mm 9,3 °C 26,6 °C 16,1 km/h (3 Bft) 95,65 %
04.05.2026 16:56 27,0 °C 32 % 1011,1 hPa 0,0 l/m² 4,8 km/h (1 Bft) N-NO 22 ° 0,000 mm 8,9 °C 27,0 °C 11,3 km/h (2 Bft) 100,00 %
04.05.2026 16:55 27,1 °C 32 % 1011,1 hPa 0,0 l/m² 4,8 km/h (1 Bft) O 90 ° 0,000 mm 9,0 °C 27,1 °C 6,4 km/h (2 Bft) 95,65 %
04.05.2026 16:54 27,2 °C 33 % 1011,1 hPa 0,0 l/m² 6,4 km/h (2 Bft) N-NO 22 ° 0,000 mm 9,5 °C 27,2 °C 11,3 km/h (2 Bft) 100,00 %
04.05.2026 16:53 27,2 °C 32 % 1011,1 hPa 0,0 l/m² 3,2 km/h (1 Bft) NW 315 ° 0,000 mm 9,1 °C 27,2 °C 8,0 km/h (2 Bft) 100,00 %
04.05.2026 16:52 27,2 °C 32 % 1011,2 hPa 0,0 l/m² 3,2 km/h (1 Bft) SW 225 ° 0,000 mm 9,1 °C 27,2 °C 6,4 km/h (2 Bft) 100,00 %
04.05.2026 16:51 27,1 °C 32 % 1011,2 hPa 0,0 l/m² 4,8 km/h (1 Bft) SW 225 ° 0,000 mm 9,0 °C 27,1 °C 8,0 km/h (2 Bft) 100,00 %
04.05.2026 16:50 27,1 °C 33 % 1011,3 hPa 0,0 l/m² 1,6 km/h (1 Bft) W 270 ° 0,000 mm 9,4 °C 27,1 °C 3,2 km/h (1 Bft) 100,00 %
04.05.2026 16:49 27,1 °C 33 % 1011,1 hPa 0,0 l/m² 3,2 km/h (1 Bft) W-NW 292 ° 0,000 mm 9,4 °C 27,1 °C 8,0 km/h (2 Bft) 100,00 %
04.05.2026 16:48 27,1 °C 32 % 1011,2 hPa 0,0 l/m² 4,8 km/h (1 Bft) N 360 ° 0,000 mm 9,0 °C 27,1 °C 11,3 km/h (2 Bft) 100,00 %
04.05.2026 16:47 27,1 °C 32 % 1011,2 hPa 0,0 l/m² 6,4 km/h (2 Bft) O-NO 67 ° 0,000 mm 9,0 °C 27,1 °C 8,0 km/h (2 Bft) 100,00 %
04.05.2026 16:46 27,1 °C 34 % 1011,3 hPa 0,0 l/m² 3,2 km/h (1 Bft) O 90 ° 0,000 mm 9,9 °C 27,1 °C 6,4 km/h (2 Bft) 100,00 %
04.05.2026 16:45 27,1 °C 35 % 1011,2 hPa 0,0 l/m² 1,6 km/h (1 Bft) SW 225 ° 0,000 mm 10,3 °C 27,1 °C 4,8 km/h (1 Bft) 95,65 %
04.05.2026 16:44 26,9 °C 34 % 1011,1 hPa 0,0 l/m² 1,6 km/h (1 Bft) SW 225 ° 0,000 mm 9,7 °C 26,9 °C 4,8 km/h (1 Bft) 100,00 %
04.05.2026 16:43 26,8 °C 34 % 1011,1 hPa 0,0 l/m² 3,2 km/h (1 Bft) N-NO 22 ° 0,000 mm 9,6 °C 26,8 °C 6,4 km/h (2 Bft) 100,00 %
04.05.2026 16:42 26,8 °C 34 % 1011,3 hPa 0,0 l/m² 1,6 km/h (1 Bft) O 90 ° 0,000 mm 9,6 °C 26,8 °C 4,8 km/h (1 Bft) 100,00 %
04.05.2026 16:41 26,7 °C 34 % 1011,1 hPa 0,0 l/m² 4,8 km/h (1 Bft) O 90 ° 0,000 mm 9,5 °C 26,7 °C 9,7 km/h (2 Bft) 100,00 %
04.05.2026 16:40 26,7 °C 34 % 1011,2 hPa 0,0 l/m² 3,2 km/h (1 Bft) N-NO 22 ° 0,000 mm 9,5 °C 26,7 °C 4,8 km/h (1 Bft) 100,00 %
04.05.2026 16:39 26,6 °C 34 % 1011,3 hPa 0,0 l/m² 1,6 km/h (1 Bft) O 90 ° 0,000 mm 9,4 °C 26,6 °C 4,8 km/h (1 Bft) 100,00 %
04.05.2026 16:38 26,6 °C 34 % 1011,3 hPa 0,0 l/m² 4,8 km/h (1 Bft) NW 315 ° 0,000 mm 9,4 °C 26,6 °C 11,3 km/h (2 Bft) 100,00 %
04.05.2026 16:37 26,6 °C 34 % 1011,2 hPa 0,0 l/m² 4,8 km/h (1 Bft) W 270 ° 0,000 mm 9,4 °C 26,6 °C 8,0 km/h (2 Bft) 100,00 %
04.05.2026 16:36 26,6 °C 34 % 1011,2 hPa 0,0 l/m² 8,0 km/h (2 Bft) N 360 ° 0,000 mm 9,4 °C 26,3 °C 14,5 km/h (3 Bft) 100,00 %
04.05.2026 16:35 26,5 °C 33 % 1011,3 hPa 0,0 l/m² 3,2 km/h (1 Bft) N 360 ° 0,000 mm 8,9 °C 26,5 °C 4,8 km/h (1 Bft) 100,00 %
04.05.2026 16:34 26,5 °C 33 % 1011,2 hPa 0,0 l/m² 3,2 km/h (1 Bft) O-NO 67 ° 0,000 mm 8,9 °C 26,5 °C 6,4 km/h (2 Bft) 100,00 %
04.05.2026 16:33 26,4 °C 33 % 1011,3 hPa 0,0 l/m² 4,8 km/h (1 Bft) NO 45 ° 0,000 mm 8,8 °C 26,4 °C 9,7 km/h (2 Bft) 100,00 %
04.05.2026 16:32 26,5 °C 33 % 1011,3 hPa 0,0 l/m² 4,8 km/h (1 Bft) N 360 ° 0,000 mm 8,9 °C 26,5 °C 9,7 km/h (2 Bft) 100,00 %
04.05.2026 16:31 26,6 °C 33 % 1011,3 hPa 0,0 l/m² 8,0 km/h (2 Bft) NO 45 ° 0,000 mm 9,0 °C 26,3 °C 11,3 km/h (2 Bft) 100,00 %
04.05.2026 16:30 26,6 °C 33 % 1011,2 hPa 0,0 l/m² 6,4 km/h (2 Bft) NO 45 ° 0,000 mm 9,0 °C 26,6 °C 12,9 km/h (3 Bft) 100,00 %
04.05.2026 16:29 26,6 °C 33 % 1011,4 hPa 0,0 l/m² 3,2 km/h (1 Bft) W 270 ° 0,000 mm 9,0 °C 26,6 °C 6,4 km/h (2 Bft) 100,00 %
04.05.2026 16:28 26,5 °C 33 % 1011,3 hPa 0,0 l/m² 4,8 km/h (1 Bft) NO 45 ° 0,000 mm 8,9 °C 26,5 °C 9,7 km/h (2 Bft) 100,00 %
04.05.2026 16:27 26,6 °C 33 % 1011,3 hPa 0,0 l/m² 6,4 km/h (2 Bft) NO 45 ° 0,000 mm 9,0 °C 26,6 °C 9,7 km/h (2 Bft) 100,00 %
04.05.2026 16:26 26,5 °C 34 % 1011,3 hPa 0,0 l/m² 4,8 km/h (1 Bft) NO 45 ° 0,000 mm 9,3 °C 26,5 °C 9,7 km/h (2 Bft) 100,00 %
04.05.2026 16:25 26,5 °C 34 % 1011,3 hPa 0,0 l/m² 0,0 km/h (0 Bft) W 270 ° 0,000 mm 9,3 °C 26,5 °C 1,6 km/h (1 Bft) 100,00 %
04.05.2026 16:24 26,5 °C 33 % 1011,3 hPa 0,0 l/m² 4,8 km/h (1 Bft) N-NO 22 ° 0,000 mm 8,9 °C 26,5 °C 9,7 km/h (2 Bft) 95,65 %
04.05.2026 16:23 26,5 °C 33 % 1011,3 hPa 0,0 l/m² 4,8 km/h (1 Bft) N 360 ° 0,000 mm 8,9 °C 26,5 °C 9,7 km/h (2 Bft) 100,00 %
04.05.2026 16:22 26,5 °C 33 % 1011,3 hPa 0,0 l/m² 8,0 km/h (2 Bft) NO 45 ° 0,000 mm 8,9 °C 26,2 °C 11,3 km/h (2 Bft) 100,00 %
04.05.2026 16:21 26,6 °C 34 % 1011,4 hPa 0,0 l/m² 6,4 km/h (2 Bft) N 360 ° 0,000 mm 9,4 °C 26,6 °C 11,3 km/h (2 Bft) 100,00 %
04.05.2026 16:20 26,6 °C 32 % 1011,3 hPa 0,0 l/m² 6,4 km/h (2 Bft) NO 45 ° 0,000 mm 8,5 °C 26,6 °C 11,3 km/h (2 Bft) 100,00 %
04.05.2026 16:19 26,7 °C 34 % 1011,3 hPa 0,0 l/m² 4,8 km/h (1 Bft) O-NO 67 ° 0,000 mm 9,5 °C 26,7 °C 11,3 km/h (2 Bft) 100,00 %
04.05.2026 16:18 26,7 °C 32 % 1011,3 hPa 0,0 l/m² 3,2 km/h (1 Bft) W-NW 292 ° 0,000 mm 8,6 °C 26,7 °C 6,4 km/h (2 Bft) 100,00 %
04.05.2026 16:17 26,7 °C 34 % 1011,4 hPa 0,0 l/m² 3,2 km/h (1 Bft) W 270 ° 0,000 mm 9,5 °C 26,7 °C 6,4 km/h (2 Bft) 100,00 %
04.05.2026 16:16 26,7 °C 33 % 1011,4 hPa 0,0 l/m² 4,8 km/h (1 Bft) N-NO 22 ° 0,000 mm 9,1 °C 26,7 °C 8,0 km/h (2 Bft) 100,00 %
04.05.2026 16:15 26,7 °C 33 % 1011,5 hPa 0,0 l/m² 4,8 km/h (1 Bft) NO 45 ° 0,000 mm 9,1 °C 26,7 °C 8,0 km/h (2 Bft) 100,00 %
04.05.2026 16:14 26,8 °C 32 % 1011,5 hPa 0,0 l/m² 4,8 km/h (1 Bft) NO 45 ° 0,000 mm 8,7 °C 26,8 °C 8,0 km/h (2 Bft) 100,00 %
04.05.2026 16:13 26,8 °C 34 % 1011,6 hPa 0,0 l/m² 4,8 km/h (1 Bft) NO 45 ° 0,000 mm 9,6 °C 26,8 °C 9,7 km/h (2 Bft) 100,00 %
04.05.2026 16:12 26,8 °C 34 % 1011,4 hPa 0,0 l/m² 3,2 km/h (1 Bft) NO 45 ° 0,000 mm 9,6 °C 26,8 °C 4,8 km/h (1 Bft) 100,00 %
04.05.2026 16:11 26,8 °C 35 % 1011,5 hPa 0,0 l/m² 4,8 km/h (1 Bft) N 360 ° 0,000 mm 10,0 °C 26,8 °C 6,4 km/h (2 Bft) 100,00 %
04.05.2026 16:10 26,8 °C 36 % 1011,5 hPa 0,0 l/m² 3,2 km/h (1 Bft) W-NW 292 ° 0,000 mm 10,5 °C 26,8 °C 4,8 km/h (1 Bft) 100,00 %
04.05.2026 16:09 26,8 °C 35 % 1011,5 hPa 0,0 l/m² 4,8 km/h (1 Bft) W 270 ° 0,000 mm 10,0 °C 26,8 °C 11,3 km/h (2 Bft) 95,65 %
04.05.2026 16:08 26,7 °C 35 % 1011,6 hPa 0,0 l/m² 1,6 km/h (1 Bft) W-NW 292 ° 0,000 mm 10,0 °C 26,7 °C 4,8 km/h (1 Bft) 100,00 %
04.05.2026 16:07 26,8 °C 33 % 1011,6 hPa 0,0 l/m² 4,8 km/h (1 Bft) N 360 ° 0,000 mm 9,2 °C 26,8 °C 6,4 km/h (2 Bft) 95,65 %
04.05.2026 16:06 26,9 °C 34 % 1011,6 hPa 0,0 l/m² 6,4 km/h (2 Bft) N 360 ° 0,000 mm 9,7 °C 26,9 °C 9,7 km/h (2 Bft) 100,00 %
04.05.2026 16:05 26,9 °C 33 % 1011,6 hPa 0,0 l/m² 8,0 km/h (2 Bft) N-NO 22 ° 0,000 mm 9,3 °C 26,6 °C 12,9 km/h (3 Bft) 100,00 %
04.05.2026 16:04 27,0 °C 33 % 1011,6 hPa 0,0 l/m² 6,4 km/h (2 Bft) W-NW 292 ° 0,000 mm 9,3 °C 27,0 °C 11,3 km/h (2 Bft) 100,00 %
04.05.2026 16:03 27,1 °C 32 % 1011,7 hPa 0,0 l/m² 4,8 km/h (1 Bft) S-SO 157 ° 0,000 mm 9,0 °C 27,1 °C 11,3 km/h (2 Bft) 100,00 %
04.05.2026 16:02 27,1 °C 32 % 1011,7 hPa 0,0 l/m² 4,8 km/h (1 Bft) O 90 ° 0,000 mm 9,0 °C 27,1 °C 8,0 km/h (2 Bft) 100,00 %
04.05.2026 16:01 27,2 °C 32 % 1011,6 hPa 0,0 l/m² 6,4 km/h (2 Bft) N 360 ° 0,000 mm 9,1 °C 27,2 °C 12,9 km/h (3 Bft) 100,00 %
04.05.2026 16:00 27,3 °C 32 % 1011,7 hPa 0,0 l/m² 4,8 km/h (1 Bft) NO 45 ° 0,000 mm 9,1 °C 27,3 °C 8,0 km/h (2 Bft) 100,00 %
04.05.2026 15:59 27,2 °C 33 % 1011,7 hPa 0,0 l/m² 3,2 km/h (1 Bft) N 360 ° 0,000 mm 9,5 °C 27,2 °C 6,4 km/h (2 Bft) 100,00 %
04.05.2026 15:58 27,1 °C 34 % 1011,8 hPa 0,0 l/m² 3,2 km/h (1 Bft) O 90 ° 0,000 mm 9,9 °C 27,1 °C 4,8 km/h (1 Bft) 100,00 %
04.05.2026 15:57 26,9 °C 34 % 1011,7 hPa 0,0 l/m² 1,6 km/h (1 Bft) S-SW 202 ° 0,000 mm 9,7 °C 26,9 °C 1,6 km/h (1 Bft) 100,00 %
04.05.2026 15:56 26,8 °C 34 % 1011,7 hPa 0,0 l/m² 3,2 km/h (1 Bft) SW 225 ° 0,000 mm 9,6 °C 26,8 °C 4,8 km/h (1 Bft) 100,00 %
04.05.2026 15:55 26,6 °C 34 % 1011,8 hPa 0,0 l/m² 1,6 km/h (1 Bft) S-SW 202 ° 0,000 mm 9,4 °C 26,6 °C 4,8 km/h (1 Bft) 100,00 %
04.05.2026 15:54 26,6 °C 34 % 1011,8 hPa 0,0 l/m² 3,2 km/h (1 Bft) W 270 ° 0,000 mm 9,4 °C 26,6 °C 8,0 km/h (2 Bft) 100,00 %
04.05.2026 15:53 26,4 °C 34 % 1011,8 hPa 0,0 l/m² 3,2 km/h (1 Bft) W-NW 292 ° 0,000 mm 9,3 °C 26,4 °C 6,4 km/h (2 Bft) 100,00 %
04.05.2026 15:52 26,4 °C 33 % 1011,8 hPa 0,0 l/m² 3,2 km/h (1 Bft) W-NW 292 ° 0,000 mm 8,8 °C 26,4 °C 4,8 km/h (1 Bft) 100,00 %
04.05.2026 15:51 26,4 °C 33 % 1011,8 hPa 0,0 l/m² 1,6 km/h (1 Bft) W-NW 292 ° 0,000 mm 8,8 °C 26,4 °C 3,2 km/h (1 Bft) 100,00 %
04.05.2026 15:50 26,4 °C 34 % 1011,9 hPa 0,0 l/m² 4,8 km/h (1 Bft) N 360 ° 0,000 mm 9,3 °C 26,4 °C 8,0 km/h (2 Bft) 100,00 %
04.05.2026 15:49 26,4 °C 34 % 1011,8 hPa 0,0 l/m² 6,4 km/h (2 Bft) N-NO 22 ° 0,000 mm 9,3 °C 26,4 °C 11,3 km/h (2 Bft) 100,00 %
04.05.2026 15:48 26,4 °C 34 % 1011,9 hPa 0,0 l/m² 4,8 km/h (1 Bft) N 360 ° 0,000 mm 9,3 °C 26,4 °C 12,9 km/h (3 Bft) 100,00 %
04.05.2026 15:47 26,3 °C 33 % 1011,9 hPa 0,0 l/m² 8,0 km/h (2 Bft) N-NO 22 ° 0,000 mm 8,7 °C 26,0 °C 14,5 km/h (3 Bft) 100,00 %
04.05.2026 15:46 26,4 °C 34 % 1011,9 hPa 0,0 l/m² 11,3 km/h (2 Bft) N 360 ° 0,000 mm 9,3 °C 25,5 °C 17,7 km/h (3 Bft) 100,00 %
04.05.2026 15:45 26,4 °C 34 % 1011,9 hPa 0,0 l/m² 3,2 km/h (1 Bft) W-NW 292 ° 0,000 mm 9,3 °C 26,4 °C 8,0 km/h (2 Bft) 100,00 %
04.05.2026 15:44 26,3 °C 34 % 1011,9 hPa 0,0 l/m² 3,2 km/h (1 Bft) S-SW 202 ° 0,000 mm 9,2 °C 26,3 °C 6,4 km/h (2 Bft) 100,00 %
04.05.2026 15:43 26,3 °C 33 % 1012,0 hPa 0,0 l/m² 3,2 km/h (1 Bft) S-SW 202 ° 0,000 mm 8,7 °C 26,3 °C 4,8 km/h (1 Bft) 100,00 %
04.05.2026 15:42 26,3 °C 32 % 1011,9 hPa 0,0 l/m² 3,2 km/h (1 Bft) N-NW 337 ° 0,000 mm 8,3 °C 26,3 °C 4,8 km/h (1 Bft) 100,00 %
04.05.2026 15:41 26,5 °C 32 % 1012,0 hPa 0,0 l/m² 4,8 km/h (1 Bft) N 360 ° 0,000 mm 8,4 °C 26,5 °C 6,4 km/h (2 Bft) 100,00 %
04.05.2026 15:40 26,5 °C 32 % 1012,0 hPa 0,0 l/m² 3,2 km/h (1 Bft) W-NW 292 ° 0,000 mm 8,4 °C 26,5 °C 4,8 km/h (1 Bft) 100,00 %
04.05.2026 15:39 26,5 °C 34 % 1012,2 hPa 0,0 l/m² 3,2 km/h (1 Bft) NW 315 ° 0,000 mm 9,3 °C 26,5 °C 6,4 km/h (2 Bft) 100,00 %
04.05.2026 15:38 26,4 °C 34 % 1012,0 hPa 0,0 l/m² 1,6 km/h (1 Bft) SW 225 ° 0,000 mm 9,3 °C 26,4 °C 3,2 km/h (1 Bft) 95,65 %
04.05.2026 15:37 26,3 °C 33 % 1012,2 hPa 0,0 l/m² 6,4 km/h (2 Bft) N-NO 22 ° 0,000 mm 8,7 °C 26,3 °C 11,3 km/h (2 Bft) 100,00 %
04.05.2026 15:36 26,4 °C 33 % 1012,2 hPa 0,0 l/m² 8,0 km/h (2 Bft) O-NO 67 ° 0,000 mm 8,8 °C 26,1 °C 11,3 km/h (2 Bft) 95,65 %
04.05.2026 15:35 26,4 °C 34 % 1012,0 hPa 0,0 l/m² 9,7 km/h (2 Bft) N-NO 22 ° 0,000 mm 9,3 °C 25,8 °C 14,5 km/h (3 Bft) 100,00 %
04.05.2026 15:34 26,4 °C 36 % 1012,1 hPa 0,0 l/m² 4,8 km/h (1 Bft) NO 45 ° 0,000 mm 10,1 °C 26,4 °C 9,7 km/h (2 Bft) 100,00 %
04.05.2026 15:33 26,3 °C 36 % 1012,1 hPa 0,0 l/m² 3,2 km/h (1 Bft) W-SW 247 ° 0,000 mm 10,0 °C 26,3 °C 8,0 km/h (2 Bft) 100,00 %
04.05.2026 15:32 26,3 °C 35 % 1012,1 hPa 0,0 l/m² 4,8 km/h (1 Bft) NW 315 ° 0,000 mm 9,6 °C 26,3 °C 9,7 km/h (2 Bft) 100,00 %
04.05.2026 15:31 26,3 °C 34 % 1012,1 hPa 0,0 l/m² 6,4 km/h (2 Bft) NW 315 ° 0,000 mm 9,2 °C 26,3 °C 9,7 km/h (2 Bft) 100,00 %
04.05.2026 15:30 26,3 °C 35 % 1012,2 hPa 0,0 l/m² 6,4 km/h (2 Bft) W 270 ° 0,000 mm 9,6 °C 26,3 °C 11,3 km/h (2 Bft) 100,00 %
04.05.2026 15:29 26,2 °C 35 % 1012,2 hPa 0,0 l/m² 3,2 km/h (1 Bft) W-NW 292 ° 0,000 mm 9,5 °C 26,2 °C 4,8 km/h (1 Bft) 100,00 %
04.05.2026 15:28 26,2 °C 34 % 1012,1 hPa 0,0 l/m² 3,2 km/h (1 Bft) S-SW 202 ° 0,000 mm 9,1 °C 26,2 °C 6,4 km/h (2 Bft) 95,65 %
04.05.2026 15:27 26,1 °C 35 % 1012,2 hPa 0,0 l/m² 4,8 km/h (1 Bft) N-NW 337 ° 0,000 mm 9,4 °C 26,1 °C 8,0 km/h (2 Bft) 100,00 %
04.05.2026 15:26 26,2 °C 33 % 1012,2 hPa 0,0 l/m² 8,0 km/h (2 Bft) N-NO 22 ° 0,000 mm 8,6 °C 25,9 °C 11,3 km/h (2 Bft) 100,00 %
04.05.2026 15:25 26,3 °C 35 % 1012,2 hPa 0,0 l/m² 6,4 km/h (2 Bft) N 360 ° 0,000 mm 9,6 °C 26,3 °C 12,9 km/h (3 Bft) 100,00 %
04.05.2026 15:24 26,3 °C 34 % 1012,2 hPa 0,0 l/m² 6,4 km/h (2 Bft) NO 45 ° 0,000 mm 9,2 °C 26,3 °C 11,3 km/h (2 Bft) 100,00 %
04.05.2026 15:23 26,4 °C 34 % 1012,2 hPa 0,0 l/m² 4,8 km/h (1 Bft) O-NO 67 ° 0,000 mm 9,3 °C 26,4 °C 12,9 km/h (3 Bft) 100,00 %
04.05.2026 15:22 26,5 °C 34 % 1012,3 hPa 0,0 l/m² 8,0 km/h (2 Bft) N-NO 22 ° 0,000 mm 9,3 °C 26,2 °C 19,3 km/h (3 Bft) 100,00 %
04.05.2026 15:21 26,4 °C 35 % 1012,3 hPa 0,0 l/m² 4,8 km/h (1 Bft) O-SO 112 ° 0,000 mm 9,7 °C 26,4 °C 8,0 km/h (2 Bft) 100,00 %
04.05.2026 15:20 26,4 °C 34 % 1012,3 hPa 0,0 l/m² 4,8 km/h (1 Bft) O 90 ° 0,000 mm 9,3 °C 26,4 °C 11,3 km/h (2 Bft) 100,00 %
04.05.2026 15:19 26,5 °C 34 % 1012,2 hPa 0,0 l/m² 6,4 km/h (2 Bft) NO 45 ° 0,000 mm 9,3 °C 26,5 °C 12,9 km/h (3 Bft) 100,00 %
04.05.2026 15:18 26,6 °C 35 % 1012,3 hPa 0,0 l/m² 3,2 km/h (1 Bft) W-NW 292 ° 0,000 mm 9,9 °C 26,6 °C 6,4 km/h (2 Bft) 100,00 %
04.05.2026 15:17 26,5 °C 35 % 1012,3 hPa 0,0 l/m² 3,2 km/h (1 Bft) N-NW 337 ° 0,000 mm 9,8 °C 26,5 °C 11,3 km/h (2 Bft) 100,00 %
04.05.2026 15:16 26,4 °C 35 % 1012,3 hPa 0,0 l/m² 3,2 km/h (1 Bft) SW 225 ° 0,000 mm 9,7 °C 26,4 °C 6,4 km/h (2 Bft) 100,00 %
04.05.2026 15:15 26,3 °C 36 % 1012,4 hPa 0,0 l/m² 4,8 km/h (1 Bft) O 90 ° 0,000 mm 10,0 °C 26,3 °C 8,0 km/h (2 Bft) 100,00 %
04.05.2026 15:14 26,2 °C 37 % 1012,4 hPa 0,0 l/m² 3,2 km/h (1 Bft) O-NO 67 ° 0,000 mm 10,3 °C 26,2 °C 4,8 km/h (1 Bft) 95,65 %
04.05.2026 15:13 26,1 °C 37 % 1012,3 hPa 0,0 l/m² 4,8 km/h (1 Bft) O-NO 67 ° 0,000 mm 10,3 °C 26,1 °C 8,0 km/h (2 Bft) 100,00 %
04.05.2026 15:12 25,9 °C 37 % 1012,3 hPa 0,0 l/m² 3,2 km/h (1 Bft) S-SW 202 ° 0,000 mm 10,1 °C 25,9 °C 6,4 km/h (2 Bft) 100,00 %
04.05.2026 15:11 25,8 °C 36 % 1012,3 hPa 0,0 l/m² 3,2 km/h (1 Bft) W-NW 292 ° 0,000 mm 9,6 °C 25,8 °C 6,4 km/h (2 Bft) 100,00 %
04.05.2026 15:10 25,8 °C 35 % 1012,4 hPa 0,0 l/m² 4,8 km/h (1 Bft) N 360 ° 0,000 mm 9,2 °C 25,8 °C 11,3 km/h (2 Bft) 100,00 %
04.05.2026 15:09 25,7 °C 36 % 1012,4 hPa 0,0 l/m² 4,8 km/h (1 Bft) N 360 ° 0,000 mm 9,5 °C 25,7 °C 9,7 km/h (2 Bft) 100,00 %
04.05.2026 15:08 25,7 °C 35 % 1012,3 hPa 0,0 l/m² 1,6 km/h (1 Bft) W-NW 292 ° 0,000 mm 9,1 °C 25,7 °C 3,2 km/h (1 Bft) 100,00 %
04.05.2026 15:07 25,7 °C 36 % 1012,3 hPa 0,0 l/m² 3,2 km/h (1 Bft) NW 315 ° 0,000 mm 9,5 °C 25,7 °C 4,8 km/h (1 Bft) 100,00 %
04.05.2026 15:06 25,7 °C 35 % 1012,4 hPa 0,0 l/m² 4,8 km/h (1 Bft) W-NW 292 ° 0,000 mm 9,1 °C 25,7 °C 6,4 km/h (2 Bft) 100,00 %
04.05.2026 15:05 25,7 °C 35 % 1012,5 hPa 0,0 l/m² 6,4 km/h (2 Bft) N 360 ° 0,000 mm 9,1 °C 25,7 °C 9,7 km/h (2 Bft) 100,00 %
04.05.2026 15:04 25,7 °C 35 % 1012,5 hPa 0,0 l/m² 6,4 km/h (2 Bft) NO 45 ° 0,000 mm 9,1 °C 25,7 °C 14,5 km/h (3 Bft) 100,00 %
04.05.2026 15:03 25,7 °C 35 % 1012,5 hPa 0,0 l/m² 11,3 km/h (2 Bft) N-NO 22 ° 0,000 mm 9,1 °C 24,7 °C 16,1 km/h (3 Bft) 100,00 %
04.05.2026 15:02 25,7 °C 37 % 1012,5 hPa 0,0 l/m² 6,4 km/h (2 Bft) NO 45 ° 0,000 mm 9,9 °C 25,7 °C 9,7 km/h (2 Bft) 100,00 %
04.05.2026 15:01 25,8 °C 37 % 1012,5 hPa 0,0 l/m² 6,4 km/h (2 Bft) N-NW 337 ° 0,000 mm 10,0 °C 25,8 °C 8,0 km/h (2 Bft) 100,00 %
04.05.2026 15:00 25,8 °C 35 % 1012,5 hPa 0,0 l/m² 6,4 km/h (2 Bft) W-NW 292 ° 0,000 mm 9,2 °C 25,8 °C 9,7 km/h (2 Bft) 100,00 %
04.05.2026 14:59 25,8 °C 36 % 1012,5 hPa 0,0 l/m² 4,8 km/h (1 Bft) N-NW 337 ° 0,000 mm 9,6 °C 25,8 °C 12,9 km/h (3 Bft) 100,00 %
04.05.2026 14:58 25,9 °C 37 % 1012,5 hPa 0,0 l/m² 6,4 km/h (2 Bft) O 90 ° 0,000 mm 10,1 °C 25,9 °C 12,9 km/h (3 Bft) 100,00 %
04.05.2026 14:57 25,8 °C 38 % 1012,6 hPa 0,0 l/m² 3,2 km/h (1 Bft) W-NW 292 ° 0,000 mm 10,4 °C 25,8 °C 6,4 km/h (2 Bft) 100,00 %
04.05.2026 14:56 25,7 °C 36 % 1012,6 hPa 0,0 l/m² 4,8 km/h (1 Bft) N 360 ° 0,000 mm 9,5 °C 25,7 °C 12,9 km/h (3 Bft) 100,00 %
04.05.2026 14:55 25,7 °C 36 % 1012,5 hPa 0,0 l/m² 1,6 km/h (1 Bft) W-NW 292 ° 0,000 mm 9,5 °C 25,7 °C 3,2 km/h (1 Bft) 100,00 %
04.05.2026 14:54 25,7 °C 35 % 1012,6 hPa 0,0 l/m² 3,2 km/h (1 Bft) W-NW 292 ° 0,000 mm 9,1 °C 25,7 °C 6,4 km/h (2 Bft) 100,00 %
04.05.2026 14:53 25,8 °C 35 % 1012,6 hPa 0,0 l/m² 6,4 km/h (2 Bft) N 360 ° 0,000 mm 9,2 °C 25,8 °C 8,0 km/h (2 Bft) 100,00 %
04.05.2026 14:52 25,8 °C 37 % 1012,6 hPa 0,0 l/m² 4,8 km/h (1 Bft) N 360 ° 0,000 mm 10,0 °C 25,8 °C 11,3 km/h (2 Bft) 95,65 %
04.05.2026 14:51 25,7 °C 39 % 1012,7 hPa 0,0 l/m² 4,8 km/h (1 Bft) N 360 ° 0,000 mm 10,7 °C 25,7 °C 9,7 km/h (2 Bft) 100,00 %
04.05.2026 14:50 25,6 °C 39 % 1012,6 hPa 0,0 l/m² 4,8 km/h (1 Bft) N-NO 22 ° 0,000 mm 10,6 °C 25,6 °C 9,7 km/h (2 Bft) 100,00 %
04.05.2026 14:49 25,4 °C 39 % 1012,7 hPa 0,0 l/m² 6,4 km/h (2 Bft) N 360 ° 0,000 mm 10,4 °C 25,4 °C 11,3 km/h (2 Bft) 100,00 %
04.05.2026 14:48 25,4 °C 37 % 1012,6 hPa 0,0 l/m² 3,2 km/h (1 Bft) O-NO 67 ° 0,000 mm 9,6 °C 25,4 °C 6,4 km/h (2 Bft) 100,00 %
04.05.2026 14:47 25,4 °C 36 % 1012,6 hPa 0,0 l/m² 6,4 km/h (2 Bft) N 360 ° 0,000 mm 9,2 °C 25,4 °C 11,3 km/h (2 Bft) 100,00 %
04.05.2026 14:46 25,4 °C 36 % 1012,8 hPa 0,0 l/m² 6,4 km/h (2 Bft) N 360 ° 0,000 mm 9,2 °C 25,4 °C 9,7 km/h (2 Bft) 100,00 %
04.05.2026 14:45 25,4 °C 37 % 1012,8 hPa 0,0 l/m² 3,2 km/h (1 Bft) W 270 ° 0,000 mm 9,6 °C 25,4 °C 6,4 km/h (2 Bft) 100,00 %
04.05.2026 14:44 25,4 °C 37 % 1012,8 hPa 0,0 l/m² 6,4 km/h (2 Bft) N-NW 337 ° 0,000 mm 9,6 °C 25,4 °C 8,0 km/h (2 Bft) 100,00 %
04.05.2026 14:43 25,3 °C 38 % 1012,9 hPa 0,0 l/m² 3,2 km/h (1 Bft) NW 315 ° 0,000 mm 9,9 °C 25,3 °C 6,4 km/h (2 Bft) 100,00 %
04.05.2026 14:42 25,4 °C 36 % 1012,9 hPa 0,0 l/m² 3,2 km/h (1 Bft) W 270 ° 0,000 mm 9,2 °C 25,4 °C 4,8 km/h (1 Bft) 100,00 %
04.05.2026 14:41 25,4 °C 36 % 1012,9 hPa 0,0 l/m² 4,8 km/h (1 Bft) NW 315 ° 0,000 mm 9,2 °C 25,4 °C 9,7 km/h (2 Bft) 100,00 %
04.05.2026 14:40 25,4 °C 37 % 1013,0 hPa 0,0 l/m² 8,0 km/h (2 Bft) N 360 ° 0,000 mm 9,6 °C 25,0 °C 11,3 km/h (2 Bft) 100,00 %
04.05.2026 14:39 25,3 °C 38 % 1012,9 hPa 0,0 l/m² 6,4 km/h (2 Bft) N 360 ° 0,000 mm 9,9 °C 25,3 °C 11,3 km/h (2 Bft) 100,00 %
04.05.2026 14:38 25,3 °C 36 % 1013,0 hPa 0,0 l/m² 4,8 km/h (1 Bft) NW 315 ° 0,000 mm 9,1 °C 25,3 °C 8,0 km/h (2 Bft) 100,00 %
04.05.2026 14:37 25,3 °C 36 % 1012,9 hPa 0,0 l/m² 4,8 km/h (1 Bft) N-NW 337 ° 0,000 mm 9,1 °C 25,3 °C 8,0 km/h (2 Bft) 100,00 %
04.05.2026 14:36 25,4 °C 35 % 1013,1 hPa 0,0 l/m² 6,4 km/h (2 Bft) N-NW 337 ° 0,000 mm 8,8 °C 25,4 °C 9,7 km/h (2 Bft) 100,00 %
04.05.2026 14:35 25,4 °C 36 % 1013,0 hPa 0,0 l/m² 6,4 km/h (2 Bft) N-NW 337 ° 0,000 mm 9,2 °C 25,4 °C 8,0 km/h (2 Bft) 100,00 %
04.05.2026 14:34 25,5 °C 36 % 1013,1 hPa 0,0 l/m² 3,2 km/h (1 Bft) W-NW 292 ° 0,000 mm 9,3 °C 25,5 °C 6,4 km/h (2 Bft) 100,00 %
04.05.2026 14:33 25,6 °C 37 % 1013,1 hPa 0,0 l/m² 4,8 km/h (1 Bft) W-NW 292 ° 0,000 mm 9,8 °C 25,6 °C 6,4 km/h (2 Bft) 95,65 %
04.05.2026 14:32 25,5 °C 38 % 1013,1 hPa 0,0 l/m² 4,8 km/h (1 Bft) W 270 ° 0,000 mm 10,1 °C 25,5 °C 6,4 km/h (2 Bft) 100,00 %
04.05.2026 14:31 25,4 °C 37 % 1013,2 hPa 0,0 l/m² 3,2 km/h (1 Bft) W-NW 292 ° 0,000 mm 9,6 °C 25,4 °C 6,4 km/h (2 Bft) 100,00 %
04.05.2026 14:30 25,4 °C 36 % 1013,2 hPa 0,0 l/m² 6,4 km/h (2 Bft) N 360 ° 0,000 mm 9,2 °C 25,4 °C 11,3 km/h (2 Bft) 100,00 %
04.05.2026 14:29 25,5 °C 35 % 1013,1 hPa 0,0 l/m² 8,0 km/h (2 Bft) N-NO 22 ° 0,000 mm 8,9 °C 25,1 °C 16,1 km/h (3 Bft) 100,00 %
04.05.2026 14:28 25,4 °C 37 % 1013,2 hPa 0,0 l/m² 3,2 km/h (1 Bft) W-SW 247 ° 0,000 mm 9,6 °C 25,4 °C 9,7 km/h (2 Bft) 95,65 %
04.05.2026 14:27 25,4 °C 37 % 1013,2 hPa 0,0 l/m² 4,8 km/h (1 Bft) W-NW 292 ° 0,000 mm 9,6 °C 25,4 °C 8,0 km/h (2 Bft) 100,00 %
04.05.2026 14:26 25,5 °C 37 % 1013,2 hPa 0,0 l/m² 6,4 km/h (2 Bft) N 360 ° 0,000 mm 9,7 °C 25,5 °C 9,7 km/h (2 Bft) 100,00 %
04.05.2026 14:25 25,5 °C 38 % 1013,3 hPa 0,0 l/m² 3,2 km/h (1 Bft) NW 315 ° 0,000 mm 10,1 °C 25,5 °C 8,0 km/h (2 Bft) 100,00 %
04.05.2026 14:24 25,4 °C 39 % 1013,2 hPa 0,0 l/m² 6,4 km/h (2 Bft) NO 45 ° 0,000 mm 10,4 °C 25,4 °C 11,3 km/h (2 Bft) 100,00 %
04.05.2026 14:23 25,3 °C 38 % 1013,2 hPa 0,0 l/m² 3,2 km/h (1 Bft) W-SW 247 ° 0,000 mm 9,9 °C 25,3 °C 8,0 km/h (2 Bft) 100,00 %
04.05.2026 14:22 25,3 °C 38 % 1013,3 hPa 0,0 l/m² 4,8 km/h (1 Bft) N 360 ° 0,000 mm 9,9 °C 25,3 °C 9,7 km/h (2 Bft) 100,00 %
04.05.2026 14:21 25,2 °C 39 % 1013,3 hPa 0,0 l/m² 4,8 km/h (1 Bft) NO 45 ° 0,000 mm 10,2 °C 25,2 °C 9,7 km/h (2 Bft) 100,00 %
04.05.2026 14:20 25,2 °C 38 % 1013,3 hPa 0,0 l/m² 3,2 km/h (1 Bft) W-NW 292 ° 0,000 mm 9,9 °C 25,2 °C 8,0 km/h (2 Bft) 100,00 %
04.05.2026 14:19 25,3 °C 37 % 1013,3 hPa 0,0 l/m² 3,2 km/h (1 Bft) W-NW 292 ° 0,000 mm 9,6 °C 25,3 °C 4,8 km/h (1 Bft) 100,00 %
04.05.2026 14:18 25,3 °C 37 % 1013,4 hPa 0,0 l/m² 3,2 km/h (1 Bft) W 270 ° 0,000 mm 9,6 °C 25,3 °C 8,0 km/h (2 Bft) 100,00 %
04.05.2026 14:17 25,3 °C 36 % 1013,4 hPa 0,0 l/m² 6,4 km/h (2 Bft) N-NW 337 ° 0,000 mm 9,1 °C 25,3 °C 9,7 km/h (2 Bft) 100,00 %
04.05.2026 14:16 25,4 °C 38 % 1013,4 hPa 0,0 l/m² 4,8 km/h (1 Bft) N 360 ° 0,000 mm 10,0 °C 25,4 °C 8,0 km/h (2 Bft) 100,00 %
04.05.2026 14:15 25,4 °C 39 % 1013,4 hPa 0,0 l/m² 4,8 km/h (1 Bft) W-NW 292 ° 0,000 mm 10,4 °C 25,4 °C 8,0 km/h (2 Bft) 100,00 %
04.05.2026 14:14 25,3 °C 38 % 1013,4 hPa 0,0 l/m² 3,2 km/h (1 Bft) W-SW 247 ° 0,000 mm 9,9 °C 25,3 °C 6,4 km/h (2 Bft) 100,00 %
04.05.2026 14:13 25,4 °C 37 % 1013,5 hPa 0,0 l/m² 6,4 km/h (2 Bft) W 270 ° 0,000 mm 9,6 °C 25,4 °C 14,5 km/h (3 Bft) 100,00 %
04.05.2026 14:12 25,4 °C 37 % 1013,4 hPa 0,0 l/m² 3,2 km/h (1 Bft) W 270 ° 0,000 mm 9,6 °C 25,4 °C 8,0 km/h (2 Bft) 100,00 %
04.05.2026 14:11 25,3 °C 38 % 1013,5 hPa 0,0 l/m² 1,6 km/h (1 Bft) W 270 ° 0,000 mm 9,9 °C 25,3 °C 4,8 km/h (1 Bft) 100,00 %
04.05.2026 14:10 25,3 °C 37 % 1013,5 hPa 0,0 l/m² 4,8 km/h (1 Bft) W-NW 292 ° 0,000 mm 9,6 °C 25,3 °C 8,0 km/h (2 Bft) 100,00 %
04.05.2026 14:09 25,3 °C 36 % 1013,4 hPa 0,0 l/m² 4,8 km/h (1 Bft) W-NW 292 ° 0,000 mm 9,1 °C 25,3 °C 9,7 km/h (2 Bft) 100,00 %
04.05.2026 14:08 25,3 °C 38 % 1013,6 hPa 0,0 l/m² 4,8 km/h (1 Bft) N 360 ° 0,000 mm 9,9 °C 25,3 °C 9,7 km/h (2 Bft) 100,00 %
04.05.2026 14:07 25,3 °C 39 % 1013,5 hPa 0,0 l/m² 3,2 km/h (1 Bft) W-NW 292 ° 0,000 mm 10,3 °C 25,3 °C 8,0 km/h (2 Bft) 100,00 %
04.05.2026 14:06 25,2 °C 38 % 1013,5 hPa 0,0 l/m² 3,2 km/h (1 Bft) W-NW 292 ° 0,000 mm 9,9 °C 25,2 °C 6,4 km/h (2 Bft) 95,65 %
04.05.2026 14:05 25,2 °C 39 % 1013,5 hPa 0,0 l/m² 3,2 km/h (1 Bft) W 270 ° 0,000 mm 10,2 °C 25,2 °C 6,4 km/h (2 Bft) 100,00 %
04.05.2026 14:04 25,1 °C 40 % 1013,6 hPa 0,0 l/m² 3,2 km/h (1 Bft) W-SW 247 ° 0,000 mm 10,5 °C 25,1 °C 8,0 km/h (2 Bft) 100,00 %
04.05.2026 14:03 25,0 °C 38 % 1013,6 hPa 0,0 l/m² 3,2 km/h (1 Bft) W-NW 292 ° 0,000 mm 9,7 °C 25,0 °C 6,4 km/h (2 Bft) 100,00 %
04.05.2026 14:02 25,0 °C 38 % 1013,6 hPa 0,0 l/m² 4,8 km/h (1 Bft) W-NW 292 ° 0,000 mm 9,7 °C 25,0 °C 6,4 km/h (2 Bft) 100,00 %
04.05.2026 14:01 25,1 °C 38 % 1013,6 hPa 0,0 l/m² 4,8 km/h (1 Bft) NW 315 ° 0,000 mm 9,8 °C 25,1 °C 9,7 km/h (2 Bft) 100,00 %
04.05.2026 14:00 25,1 °C 38 % 1013,6 hPa 0,0 l/m² 6,4 km/h (2 Bft) N 360 ° 0,000 mm 9,8 °C 25,1 °C 9,7 km/h (2 Bft) 100,00 %
04.05.2026 13:59 25,1 °C 38 % 1013,6 hPa 0,0 l/m² 4,8 km/h (1 Bft) NO 45 ° 0,000 mm 9,8 °C 25,1 °C 9,7 km/h (2 Bft) 100,00 %
04.05.2026 13:58 25,1 °C 40 % 1013,6 hPa 0,0 l/m² 3,2 km/h (1 Bft) W 270 ° 0,000 mm 10,5 °C 25,1 °C 4,8 km/h (1 Bft) 100,00 %
04.05.2026 13:57 25,0 °C 40 % 1013,6 hPa 0,0 l/m² 6,4 km/h (2 Bft) NW 315 ° 0,000 mm 10,4 °C 25,0 °C 11,3 km/h (2 Bft) 95,65 %
04.05.2026 13:56 25,0 °C 38 % 1013,6 hPa 0,0 l/m² 6,4 km/h (2 Bft) W-NW 292 ° 0,000 mm 9,7 °C 25,0 °C 11,3 km/h (2 Bft) 95,65 %
04.05.2026 13:55 25,1 °C 38 % 1013,7 hPa 0,0 l/m² 8,0 km/h (2 Bft) N-NW 337 ° 0,000 mm 9,8 °C 24,7 °C 11,3 km/h (2 Bft) 100,00 %
04.05.2026 13:54 25,1 °C 41 % 1013,6 hPa 0,0 l/m² 4,8 km/h (1 Bft) W-NW 292 ° 0,000 mm 10,9 °C 25,1 °C 9,7 km/h (2 Bft) 100,00 %
04.05.2026 13:53 25,0 °C 41 % 1013,7 hPa 0,0 l/m² 6,4 km/h (2 Bft) W-NW 292 ° 0,000 mm 10,8 °C 25,0 °C 11,3 km/h (2 Bft) 100,00 %
04.05.2026 13:52 24,9 °C 38 % 1013,7 hPa 0,0 l/m² 6,4 km/h (2 Bft) N 360 ° 0,000 mm 9,6 °C 24,9 °C 14,5 km/h (3 Bft) 100,00 %
04.05.2026 13:51 25,1 °C 38 % 1013,6 hPa 0,0 l/m² 6,4 km/h (2 Bft) W-NW 292 ° 0,000 mm 9,8 °C 25,1 °C 9,7 km/h (2 Bft) 100,00 %
04.05.2026 13:50 25,1 °C 38 % 1013,7 hPa 0,0 l/m² 6,4 km/h (2 Bft) NW 315 ° 0,000 mm 9,8 °C 25,1 °C 12,9 km/h (3 Bft) 95,65 %
04.05.2026 13:49 25,2 °C 40 % 1013,6 hPa 0,0 l/m² 6,4 km/h (2 Bft) N-NW 337 ° 0,000 mm 10,6 °C 25,2 °C 12,9 km/h (3 Bft) 100,00 %
04.05.2026 13:48 25,1 °C 41 % 1013,6 hPa 0,0 l/m² 3,2 km/h (1 Bft) W-NW 292 ° 0,000 mm 10,9 °C 25,1 °C 8,0 km/h (2 Bft) 100,00 %
04.05.2026 13:47 25,0 °C 40 % 1013,7 hPa 0,0 l/m² 3,2 km/h (1 Bft) W 270 ° 0,000 mm 10,4 °C 25,0 °C 8,0 km/h (2 Bft) 100,00 %
04.05.2026 13:46 24,9 °C 40 % 1013,7 hPa 0,0 l/m² 3,2 km/h (1 Bft) S-SW 202 ° 0,000 mm 10,4 °C 24,9 °C 6,4 km/h (2 Bft) 100,00 %
04.05.2026 13:45 24,8 °C 39 % 1013,7 hPa 0,0 l/m² 1,6 km/h (1 Bft) W-SW 247 ° 0,000 mm 9,9 °C 24,8 °C 3,2 km/h (1 Bft) 95,65 %
04.05.2026 13:44 24,8 °C 39 % 1013,7 hPa 0,0 l/m² 1,6 km/h (1 Bft) W-SW 247 ° 0,000 mm 9,9 °C 24,8 °C 3,2 km/h (1 Bft) 100,00 %
04.05.2026 13:43 24,8 °C 39 % 1013,8 hPa 0,0 l/m² 1,6 km/h (1 Bft) W 270 ° 0,000 mm 9,9 °C 24,8 °C 3,2 km/h (1 Bft) 100,00 %
04.05.2026 13:42 24,8 °C 38 % 1013,9 hPa 0,0 l/m² 4,8 km/h (1 Bft) W-NW 292 ° 0,000 mm 9,5 °C 24,8 °C 6,4 km/h (2 Bft) 100,00 %
04.05.2026 13:41 24,9 °C 38 % 1013,9 hPa 0,0 l/m² 3,2 km/h (1 Bft) NW 315 ° 0,000 mm 9,6 °C 24,9 °C 4,8 km/h (1 Bft) 100,00 %
04.05.2026 13:40 24,9 °C 38 % 1013,9 hPa 0,0 l/m² 4,8 km/h (1 Bft) NW 315 ° 0,000 mm 9,6 °C 24,9 °C 4,8 km/h (1 Bft) 100,00 %
04.05.2026 13:39 25,0 °C 38 % 1014,0 hPa 0,0 l/m² 3,2 km/h (1 Bft) W 270 ° 0,000 mm 9,7 °C 25,0 °C 6,4 km/h (2 Bft) 100,00 %
04.05.2026 13:38 24,9 °C 38 % 1013,9 hPa 0,0 l/m² 4,8 km/h (1 Bft) NO 45 ° 0,000 mm 9,6 °C 24,9 °C 8,0 km/h (2 Bft) 100,00 %
04.05.2026 13:37 24,9 °C 39 % 1013,9 hPa 0,0 l/m² 4,8 km/h (1 Bft) NO 45 ° 0,000 mm 10,0 °C 24,9 °C 9,7 km/h (2 Bft) 100,00 %
04.05.2026 13:36 24,7 °C 39 % 1014,0 hPa 0,0 l/m² 3,2 km/h (1 Bft) SW 225 ° 0,000 mm 9,8 °C 24,7 °C 6,4 km/h (2 Bft) 100,00 %
04.05.2026 13:35 24,6 °C 40 % 1014,0 hPa 0,0 l/m² 3,2 km/h (1 Bft) N 360 ° 0,000 mm 10,1 °C 24,6 °C 6,4 km/h (2 Bft) 100,00 %
04.05.2026 13:34 24,5 °C 39 % 1014,0 hPa 0,0 l/m² 3,2 km/h (1 Bft) O-SO 112 ° 0,000 mm 9,6 °C 24,5 °C 4,8 km/h (1 Bft) 100,00 %
04.05.2026 13:33 24,6 °C 39 % 1014,0 hPa 0,0 l/m² 6,4 km/h (2 Bft) O-NO 67 ° 0,000 mm 9,7 °C 24,6 °C 9,7 km/h (2 Bft) 100,00 %
04.05.2026 13:32 24,7 °C 40 % 1014,1 hPa 0,0 l/m² 6,4 km/h (2 Bft) O-NO 67 ° 0,000 mm 10,2 °C 24,7 °C 8,0 km/h (2 Bft) 100,00 %
04.05.2026 13:31 24,6 °C 41 % 1014,0 hPa 0,0 l/m² 6,4 km/h (2 Bft) N-NW 337 ° 0,000 mm 10,5 °C 24,6 °C 12,9 km/h (3 Bft) 100,00 %
04.05.2026 13:30 24,6 °C 40 % 1014,1 hPa 0,0 l/m² 3,2 km/h (1 Bft) W-SW 247 ° 0,000 mm 10,1 °C 24,6 °C 9,7 km/h (2 Bft) 100,00 %
04.05.2026 13:29 24,7 °C 42 % 1014,1 hPa 0,0 l/m² 6,4 km/h (2 Bft) N 360 ° 0,000 mm 10,9 °C 24,7 °C 11,3 km/h (2 Bft) 100,00 %
04.05.2026 13:28 24,6 °C 42 % 1014,1 hPa 0,0 l/m² 3,2 km/h (1 Bft) W-NW 292 ° 0,000 mm 10,8 °C 24,6 °C 8,0 km/h (2 Bft) 100,00 %
04.05.2026 13:27 24,6 °C 40 % 1014,1 hPa 0,0 l/m² 1,6 km/h (1 Bft) W 270 ° 0,000 mm 10,1 °C 24,6 °C 3,2 km/h (1 Bft) 100,00 %
04.05.2026 13:26 24,7 °C 39 % 1014,0 hPa 0,0 l/m² 1,6 km/h (1 Bft) W-SW 247 ° 0,000 mm 9,8 °C 24,7 °C 3,2 km/h (1 Bft) 100,00 %
04.05.2026 13:25 24,7 °C 40 % 1014,1 hPa 0,0 l/m² 3,2 km/h (1 Bft) NW 315 ° 0,000 mm 10,2 °C 24,7 °C 4,8 km/h (1 Bft) 100,00 %
04.05.2026 13:24 24,8 °C 39 % 1014,2 hPa 0,0 l/m² 4,8 km/h (1 Bft) N 360 ° 0,000 mm 9,9 °C 24,8 °C 8,0 km/h (2 Bft) 100,00 %
04.05.2026 13:23 24,9 °C 40 % 1014,3 hPa 0,0 l/m² 6,4 km/h (2 Bft) N 360 ° 0,000 mm 10,4 °C 24,9 °C 11,3 km/h (2 Bft) 100,00 %
04.05.2026 13:22 24,8 °C 42 % 1014,3 hPa 0,0 l/m² 3,2 km/h (1 Bft) O-SO 112 ° 0,000 mm 11,0 °C 24,8 °C 9,7 km/h (2 Bft) 100,00 %
04.05.2026 13:21 24,7 °C 41 % 1014,2 hPa 0,0 l/m² 1,6 km/h (1 Bft) O 90 ° 0,000 mm 10,6 °C 24,7 °C 4,8 km/h (1 Bft) 95,65 %
04.05.2026 13:20 24,5 °C 41 % 1014,2 hPa 0,0 l/m² 1,6 km/h (1 Bft) W 270 ° 0,000 mm 10,4 °C 24,5 °C 6,4 km/h (2 Bft) 100,00 %
04.05.2026 13:19 24,4 °C 41 % 1014,2 hPa 0,0 l/m² 4,8 km/h (1 Bft) N 360 ° 0,000 mm 10,3 °C 24,4 °C 8,0 km/h (2 Bft) 100,00 %
04.05.2026 13:18 24,3 °C 42 % 1014,3 hPa 0,0 l/m² 4,8 km/h (1 Bft) W-SW 247 ° 0,000 mm 10,6 °C 24,3 °C 11,3 km/h (2 Bft) 100,00 %
04.05.2026 13:17 24,2 °C 41 % 1014,3 hPa 0,0 l/m² 0,0 km/h (0 Bft) W-SW 247 ° 0,000 mm 10,1 °C 24,2 °C 3,2 km/h (1 Bft) 100,00 %
04.05.2026 13:16 24,2 °C 41 % 1014,3 hPa 0,0 l/m² 1,6 km/h (1 Bft) W-NW 292 ° 0,000 mm 10,1 °C 24,2 °C 3,2 km/h (1 Bft) 100,00 %
04.05.2026 13:15 24,2 °C 41 % 1014,3 hPa 0,0 l/m² 3,2 km/h (1 Bft) NW 315 ° 0,000 mm 10,1 °C 24,2 °C 3,2 km/h (1 Bft) 95,65 %
04.05.2026 13:14 24,2 °C 42 % 1014,3 hPa 0,0 l/m² 1,6 km/h (1 Bft) W 270 ° 0,000 mm 10,5 °C 24,2 °C 1,6 km/h (1 Bft) 100,00 %
04.05.2026 13:13 24,2 °C 42 % 1014,3 hPa 0,0 l/m² 3,2 km/h (1 Bft) W-NW 292 ° 0,000 mm 10,5 °C 24,2 °C 6,4 km/h (2 Bft) 100,00 %
04.05.2026 13:12 24,2 °C 42 % 1014,3 hPa 0,0 l/m² 4,8 km/h (1 Bft) W-NW 292 ° 0,000 mm 10,5 °C 24,2 °C 6,4 km/h (2 Bft) 100,00 %
04.05.2026 13:11 24,2 °C 43 % 1014,3 hPa 0,0 l/m² 4,8 km/h (1 Bft) W-NW 292 ° 0,000 mm 10,8 °C 24,2 °C 11,3 km/h (2 Bft) 100,00 %
04.05.2026 13:10 24,3 °C 41 % 1014,3 hPa 0,0 l/m² 4,8 km/h (1 Bft) W-NW 292 ° 0,000 mm 10,2 °C 24,3 °C 8,0 km/h (2 Bft) 100,00 %
04.05.2026 13:09 24,3 °C 41 % 1014,3 hPa 0,0 l/m² 3,2 km/h (1 Bft) W-NW 292 ° 0,000 mm 10,2 °C 24,3 °C 6,4 km/h (2 Bft) 100,00 %
04.05.2026 13:08 24,3 °C 41 % 1014,3 hPa 0,0 l/m² 1,6 km/h (1 Bft) W-NW 292 ° 0,000 mm 10,2 °C 24,3 °C 3,2 km/h (1 Bft) 95,65 %
04.05.2026 13:07 24,2 °C 41 % 1014,3 hPa 0,0 l/m² 1,6 km/h (1 Bft) W-NW 292 ° 0,000 mm 10,1 °C 24,2 °C 3,2 km/h (1 Bft) 100,00 %
04.05.2026 13:06 24,1 °C 42 % 1014,3 hPa 0,0 l/m² 3,2 km/h (1 Bft) W 270 ° 0,000 mm 10,4 °C 24,1 °C 6,4 km/h (2 Bft) 100,00 %
04.05.2026 13:05 24,1 °C 41 % 1014,3 hPa 0,0 l/m² 4,8 km/h (1 Bft) N-NW 337 ° 0,000 mm 10,0 °C 24,1 °C 8,0 km/h (2 Bft) 100,00 %
04.05.2026 13:04 24,1 °C 43 % 1014,3 hPa 0,0 l/m² 4,8 km/h (1 Bft) N-NO 22 ° 0,000 mm 10,7 °C 24,1 °C 11,3 km/h (2 Bft) 100,00 %
04.05.2026 13:03 24,0 °C 41 % 1014,4 hPa 0,0 l/m² 3,2 km/h (1 Bft) W-NW 292 ° 0,000 mm 9,9 °C 24,0 °C 4,8 km/h (1 Bft) 100,00 %
04.05.2026 13:02 24,0 °C 42 % 1014,4 hPa 0,0 l/m² 3,2 km/h (1 Bft) W-NW 292 ° 0,000 mm 10,3 °C 24,0 °C 4,8 km/h (1 Bft) 100,00 %
04.05.2026 13:01 23,9 °C 43 % 1014,4 hPa 0,0 l/m² 3,2 km/h (1 Bft) W-NW 292 ° 0,000 mm 10,5 °C 23,9 °C 4,8 km/h (1 Bft) 95,65 %
04.05.2026 13:00 23,9 °C 42 % 1014,6 hPa 0,0 l/m² 0,0 km/h (0 Bft) N 0 ° 0,000 mm 10,2 °C 23,9 °C 0,0 km/h (0 Bft) 100,00 %
04.05.2026 12:59 23,8 °C 43 % 1014,5 hPa 0,0 l/m² 1,6 km/h (1 Bft) W-NW 292 ° 0,000 mm 10,5 °C 23,8 °C 3,2 km/h (1 Bft) 100,00 %
04.05.2026 12:58 23,7 °C 43 % 1014,6 hPa 0,0 l/m² 0,0 km/h (0 Bft) W-NW 292 ° 0,000 mm 10,4 °C 23,7 °C 1,6 km/h (1 Bft) 100,00 %
04.05.2026 12:57 23,8 °C 42 % 1014,5 hPa 0,0 l/m² 3,2 km/h (1 Bft) NW 315 ° 0,000 mm 10,1 °C 23,8 °C 6,4 km/h (2 Bft) 100,00 %
04.05.2026 12:56 23,8 °C 42 % 1014,6 hPa 0,0 l/m² 3,2 km/h (1 Bft) NW 315 ° 0,000 mm 10,1 °C 23,8 °C 6,4 km/h (2 Bft) 100,00 %
04.05.2026 12:55 23,9 °C 42 % 1014,6 hPa 0,0 l/m² 6,4 km/h (2 Bft) NO 45 ° 0,000 mm 10,2 °C 23,9 °C 9,7 km/h (2 Bft) 100,00 %
04.05.2026 12:54 23,9 °C 42 % 1014,6 hPa 0,0 l/m² 6,4 km/h (2 Bft) N-NO 22 ° 0,000 mm 10,2 °C 23,9 °C 9,7 km/h (2 Bft) 100,00 %
04.05.2026 12:53 23,9 °C 43 % 1014,5 hPa 0,0 l/m² 6,4 km/h (2 Bft) N-NO 22 ° 0,000 mm 10,5 °C 23,9 °C 12,9 km/h (3 Bft) 100,00 %
04.05.2026 12:52 23,9 °C 43 % 1014,6 hPa 0,0 l/m² 3,2 km/h (1 Bft) N-NO 22 ° 0,000 mm 10,5 °C 23,9 °C 8,0 km/h (2 Bft) 95,65 %
04.05.2026 12:51 23,8 °C 43 % 1014,7 hPa 0,0 l/m² 1,6 km/h (1 Bft) N-NO 22 ° 0,000 mm 10,5 °C 23,8 °C 4,8 km/h (1 Bft) 100,00 %
04.05.2026 12:50 23,8 °C 42 % 1014,8 hPa 0,0 l/m² 3,2 km/h (1 Bft) NW 315 ° 0,000 mm 10,1 °C 23,8 °C 3,2 km/h (1 Bft) 100,00 %
04.05.2026 12:49 23,8 °C 42 % 1014,7 hPa 0,0 l/m² 3,2 km/h (1 Bft) W-NW 292 ° 0,000 mm 10,1 °C 23,8 °C 6,4 km/h (2 Bft) 95,65 %
04.05.2026 12:48 23,8 °C 43 % 1014,7 hPa 0,0 l/m² 3,2 km/h (1 Bft) W-NW 292 ° 0,000 mm 10,5 °C 23,8 °C 4,8 km/h (1 Bft) 100,00 %
04.05.2026 12:47 23,9 °C 42 % 1014,7 hPa 0,0 l/m² 4,8 km/h (1 Bft) N 360 ° 0,000 mm 10,2 °C 23,9 °C 6,4 km/h (2 Bft) 100,00 %
04.05.2026 12:46 24,0 °C 42 % 1014,7 hPa 0,0 l/m² 4,8 km/h (1 Bft) N 360 ° 0,000 mm 10,3 °C 24,0 °C 6,4 km/h (2 Bft) 100,00 %
04.05.2026 12:45 24,0 °C 43 % 1014,8 hPa 0,0 l/m² 3,2 km/h (1 Bft) W-NW 292 ° 0,000 mm 10,6 °C 24,0 °C 8,0 km/h (2 Bft) 100,00 %
04.05.2026 12:44 24,0 °C 43 % 1014,8 hPa 0,0 l/m² 3,2 km/h (1 Bft) NW 315 ° 0,000 mm 10,6 °C 24,0 °C 4,8 km/h (1 Bft) 100,00 %
04.05.2026 12:43 24,0 °C 44 % 1014,9 hPa 0,0 l/m² 1,6 km/h (1 Bft) W-SW 247 ° 0,000 mm 11,0 °C 24,0 °C 3,2 km/h (1 Bft) 100,00 %
04.05.2026 12:42 24,0 °C 43 % 1014,8 hPa 0,0 l/m² 1,6 km/h (1 Bft) NW 315 ° 0,000 mm 10,6 °C 24,0 °C 4,8 km/h (1 Bft) 95,65 %
04.05.2026 12:41 24,0 °C 43 % 1014,9 hPa 0,0 l/m² 1,6 km/h (1 Bft) W-NW 292 ° 0,000 mm 10,6 °C 24,0 °C 3,2 km/h (1 Bft) 100,00 %
04.05.2026 12:40 23,9 °C 42 % 1014,9 hPa 0,0 l/m² 3,2 km/h (1 Bft) W 270 ° 0,000 mm 10,2 °C 23,9 °C 6,4 km/h (2 Bft) 100,00 %
04.05.2026 12:39 24,0 °C 43 % 1014,8 hPa 0,0 l/m² 4,8 km/h (1 Bft) W-NW 292 ° 0,000 mm 10,6 °C 24,0 °C 8,0 km/h (2 Bft) 100,00 %
04.05.2026 12:38 24,0 °C 42 % 1014,8 hPa 0,0 l/m² 1,6 km/h (1 Bft) W-SW 247 ° 0,000 mm 10,3 °C 24,0 °C 4,8 km/h (1 Bft) 100,00 %
04.05.2026 12:37 24,1 °C 40 % 1014,8 hPa 0,0 l/m² 3,2 km/h (1 Bft) W-NW 292 ° 0,000 mm 9,6 °C 24,1 °C 4,8 km/h (1 Bft) 100,00 %
04.05.2026 12:36 24,1 °C 39 % 1014,9 hPa 0,0 l/m² 1,6 km/h (1 Bft) W 270 ° 0,000 mm 9,3 °C 24,1 °C 3,2 km/h (1 Bft) 100,00 %
04.05.2026 12:35 24,2 °C 40 % 1014,8 hPa 0,0 l/m² 4,8 km/h (1 Bft) W 270 ° 0,000 mm 9,7 °C 24,2 °C 8,0 km/h (2 Bft) 95,65 %
04.05.2026 12:34 24,3 °C 41 % 1014,9 hPa 0,0 l/m² 1,6 km/h (1 Bft) W 270 ° 0,000 mm 10,2 °C 24,3 °C 8,0 km/h (2 Bft) 100,00 %
04.05.2026 12:33 24,3 °C 41 % 1015,0 hPa 0,0 l/m² 3,2 km/h (1 Bft) W 270 ° 0,000 mm 10,2 °C 24,3 °C 4,8 km/h (1 Bft) 100,00 %
04.05.2026 12:32 24,3 °C 42 % 1015,0 hPa 0,0 l/m² 3,2 km/h (1 Bft) W 270 ° 0,000 mm 10,6 °C 24,3 °C 3,2 km/h (1 Bft) 100,00 %
04.05.2026 12:31 24,3 °C 41 % 1015,0 hPa 0,0 l/m² 3,2 km/h (1 Bft) W 270 ° 0,000 mm 10,2 °C 24,3 °C 4,8 km/h (1 Bft) 100,00 %
04.05.2026 12:30 24,2 °C 42 % 1015,0 hPa 0,0 l/m² 1,6 km/h (1 Bft) W 270 ° 0,000 mm 10,5 °C 24,2 °C 4,8 km/h (1 Bft) 100,00 %
04.05.2026 12:29 23,9 °C 42 % 1015,1 hPa 0,0 l/m² 1,6 km/h (1 Bft) W-SW 247 ° 0,000 mm 10,2 °C 23,9 °C 3,2 km/h (1 Bft) 100,00 %
04.05.2026 12:28 23,8 °C 42 % 1015,1 hPa 0,0 l/m² 1,6 km/h (1 Bft) SW 225 ° 0,000 mm 10,1 °C 23,8 °C 3,2 km/h (1 Bft) 95,65 %
04.05.2026 12:27 23,6 °C 43 % 1015,1 hPa 0,0 l/m² 0,0 km/h (0 Bft) W 270 ° 0,000 mm 10,3 °C 23,6 °C 1,6 km/h (1 Bft) 100,00 %
04.05.2026 12:26 23,5 °C 43 % 1015,1 hPa 0,0 l/m² 0,0 km/h (0 Bft) W 270 ° 0,000 mm 10,2 °C 23,5 °C 1,6 km/h (1 Bft) 100,00 %
04.05.2026 12:25 23,4 °C 42 % 1015,2 hPa 0,0 l/m² 1,6 km/h (1 Bft) W-NW 292 ° 0,000 mm 9,7 °C 23,4 °C 3,2 km/h (1 Bft) 100,00 %
04.05.2026 12:24 23,4 °C 42 % 1015,1 hPa 0,0 l/m² 0,0 km/h (0 Bft) W-NW 292 ° 0,000 mm 9,7 °C 23,4 °C 1,6 km/h (1 Bft) 100,00 %
04.05.2026 12:23 23,4 °C 43 % 1015,2 hPa 0,0 l/m² 3,2 km/h (1 Bft) N-NW 337 ° 0,000 mm 10,1 °C 23,4 °C 4,8 km/h (1 Bft) 100,00 %
04.05.2026 12:22 23,4 °C 41 % 1015,1 hPa 0,0 l/m² 3,2 km/h (1 Bft) NO 45 ° 0,000 mm 9,4 °C 23,4 °C 6,4 km/h (2 Bft) 100,00 %
04.05.2026 12:21 23,4 °C 42 % 1015,2 hPa 0,0 l/m² 4,8 km/h (1 Bft) O-NO 67 ° 0,000 mm 9,7 °C 23,4 °C 6,4 km/h (2 Bft) 100,00 %
04.05.2026 12:20 23,6 °C 43 % 1015,1 hPa 0,0 l/m² 4,8 km/h (1 Bft) N 360 ° 0,000 mm 10,3 °C 23,6 °C 6,4 km/h (2 Bft) 100,00 %
04.05.2026 12:19 23,7 °C 42 % 1015,3 hPa 0,0 l/m² 6,4 km/h (2 Bft) NW 315 ° 0,000 mm 10,0 °C 23,7 °C 8,0 km/h (2 Bft) 100,00 %
04.05.2026 12:18 23,7 °C 43 % 1015,3 hPa 0,0 l/m² 3,2 km/h (1 Bft) W-NW 292 ° 0,000 mm 10,4 °C 23,7 °C 6,4 km/h (2 Bft) 100,00 %
04.05.2026 12:17 23,6 °C 43 % 1015,3 hPa 0,0 l/m² 1,6 km/h (1 Bft) W 270 ° 0,000 mm 10,3 °C 23,6 °C 3,2 km/h (1 Bft) 100,00 %
04.05.2026 12:16 23,3 °C 43 % 1015,2 hPa 0,0 l/m² 0,0 km/h (0 Bft) SW 225 ° 0,000 mm 10,0 °C 23,3 °C 1,6 km/h (1 Bft) 100,00 %
04.05.2026 12:15 23,3 °C 44 % 1015,3 hPa 0,0 l/m² 1,6 km/h (1 Bft) O-NO 67 ° 0,000 mm 10,4 °C 23,3 °C 3,2 km/h (1 Bft) 100,00 %
04.05.2026 12:14 23,2 °C 43 % 1015,3 hPa 0,0 l/m² 3,2 km/h (1 Bft) O-NO 67 ° 0,000 mm 9,9 °C 23,2 °C 4,8 km/h (1 Bft) 100,00 %
04.05.2026 12:13 23,2 °C 43 % 1015,2 hPa 0,0 l/m² 4,8 km/h (1 Bft) S 180 ° 0,000 mm 9,9 °C 23,2 °C 6,4 km/h (2 Bft) 95,65 %
04.05.2026 12:12 23,2 °C 44 % 1015,3 hPa 0,0 l/m² 3,2 km/h (1 Bft) NW 315 ° 0,000 mm 10,3 °C 23,2 °C 3,2 km/h (1 Bft) 100,00 %
04.05.2026 12:11 23,1 °C 45 % 1015,3 hPa 0,0 l/m² 1,6 km/h (1 Bft) W-SW 247 ° 0,000 mm 10,5 °C 23,1 °C 4,8 km/h (1 Bft) 100,00 %
04.05.2026 12:10 23,0 °C 44 % 1015,3 hPa 0,0 l/m² 3,2 km/h (1 Bft) N 360 ° 0,000 mm 10,1 °C 23,0 °C 6,4 km/h (2 Bft) 100,00 %
04.05.2026 12:09 23,0 °C 44 % 1015,3 hPa 0,0 l/m² 4,8 km/h (1 Bft) NO 45 ° 0,000 mm 10,1 °C 23,0 °C 8,0 km/h (2 Bft) 86,96 %
04.05.2026 12:08 23,0 °C 44 % 1015,4 hPa 0,0 l/m² 3,2 km/h (1 Bft) W-NW 292 ° 0,000 mm 10,1 °C 23,0 °C 6,4 km/h (2 Bft) 100,00 %
04.05.2026 12:07 22,9 °C 45 % 1015,4 hPa 0,0 l/m² 3,2 km/h (1 Bft) N-NW 337 ° 0,000 mm 10,3 °C 22,9 °C 6,4 km/h (2 Bft) 100,00 %
04.05.2026 12:06 22,9 °C 45 % 1015,4 hPa 0,0 l/m² 3,2 km/h (1 Bft) NW 315 ° 0,000 mm 10,3 °C 22,9 °C 4,8 km/h (1 Bft) 100,00 %
04.05.2026 12:05 23,0 °C 44 % 1015,4 hPa 0,0 l/m² 6,4 km/h (2 Bft) N-NW 337 ° 0,000 mm 10,1 °C 23,0 °C 8,0 km/h (2 Bft) 100,00 %
04.05.2026 12:04 23,1 °C 44 % 1015,4 hPa 0,0 l/m² 6,4 km/h (2 Bft) N-NW 337 ° 0,000 mm 10,2 °C 23,1 °C 8,0 km/h (2 Bft) 100,00 %
04.05.2026 12:03 23,2 °C 44 % 1015,4 hPa 0,0 l/m² 6,4 km/h (2 Bft) N-NW 337 ° 0,000 mm 10,3 °C 23,2 °C 9,7 km/h (2 Bft) 100,00 %
04.05.2026 12:02 23,2 °C 44 % 1015,4 hPa 0,0 l/m² 1,6 km/h (1 Bft) W-NW 292 ° 0,000 mm 10,3 °C 23,2 °C 1,6 km/h (1 Bft) 100,00 %
04.05.2026 12:01 23,2 °C 44 % 1015,4 hPa 0,0 l/m² 1,6 km/h (1 Bft) W-NW 292 ° 0,000 mm 10,3 °C 23,2 °C 3,2 km/h (1 Bft) 100,00 %
04.05.2026 12:00 23,1 °C 44 % 1015,4 hPa 0,0 l/m² 1,6 km/h (1 Bft) SW 225 ° 0,000 mm 10,2 °C 23,1 °C 3,2 km/h (1 Bft) 100,00 %
04.05.2026 11:59 23,1 °C 44 % 1015,4 hPa 0,0 l/m² 1,6 km/h (1 Bft) W-NW 292 ° 0,000 mm 10,2 °C 23,1 °C 3,2 km/h (1 Bft) 100,00 %
04.05.2026 11:58 23,1 °C 44 % 1015,4 hPa 0,0 l/m² 3,2 km/h (1 Bft) W 270 ° 0,000 mm 10,2 °C 23,1 °C 6,4 km/h (2 Bft) 100,00 %
04.05.2026 11:57 23,2 °C 44 % 1015,4 hPa 0,0 l/m² 4,8 km/h (1 Bft) W-NW 292 ° 0,000 mm 10,3 °C 23,2 °C 6,4 km/h (2 Bft) 100,00 %
04.05.2026 11:56 23,3 °C 44 % 1015,4 hPa 0,0 l/m² 6,4 km/h (2 Bft) W 270 ° 0,000 mm 10,4 °C 23,3 °C 8,0 km/h (2 Bft) 100,00 %
04.05.2026 11:55 23,4 °C 45 % 1015,5 hPa 0,0 l/m² 3,2 km/h (1 Bft) W-NW 292 ° 0,000 mm 10,8 °C 23,4 °C 6,4 km/h (2 Bft) 100,00 %
04.05.2026 11:54 23,3 °C 44 % 1015,5 hPa 0,0 l/m² 1,6 km/h (1 Bft) W 270 ° 0,000 mm 10,4 °C 23,3 °C 3,2 km/h (1 Bft) 100,00 %
04.05.2026 11:53 23,3 °C 45 % 1015,4 hPa 0,0 l/m² 0,0 km/h (0 Bft) N 0 ° 0,000 mm 10,7 °C 23,3 °C 0,0 km/h (0 Bft) 100,00 %
04.05.2026 11:52 23,3 °C 45 % 1015,5 hPa 0,0 l/m² 0,0 km/h (0 Bft) W-NW 292 ° 0,000 mm 10,7 °C 23,3 °C 1,6 km/h (1 Bft) 100,00 %
04.05.2026 11:51 23,2 °C 45 % 1015,5 hPa 0,0 l/m² 1,6 km/h (1 Bft) W-NW 292 ° 0,000 mm 10,6 °C 23,2 °C 4,8 km/h (1 Bft) 95,65 %
04.05.2026 11:50 23,2 °C 44 % 1015,4 hPa 0,0 l/m² 1,6 km/h (1 Bft) W-NW 292 ° 0,000 mm 10,3 °C 23,2 °C 1,6 km/h (1 Bft) 100,00 %
04.05.2026 11:49 23,1 °C 45 % 1015,5 hPa 0,0 l/m² 1,6 km/h (1 Bft) O-SO 112 ° 0,000 mm 10,5 °C 23,1 °C 3,2 km/h (1 Bft) 100,00 %
04.05.2026 11:48 23,0 °C 44 % 1015,5 hPa 0,0 l/m² 3,2 km/h (1 Bft) S-SW 202 ° 0,000 mm 10,1 °C 23,0 °C 4,8 km/h (1 Bft) 100,00 %
04.05.2026 11:47 22,9 °C 44 % 1015,5 hPa 0,0 l/m² 0,0 km/h (0 Bft) W-SW 247 ° 0,000 mm 10,0 °C 22,9 °C 1,6 km/h (1 Bft) 100,00 %
04.05.2026 11:46 22,8 °C 45 % 1015,4 hPa 0,0 l/m² 1,6 km/h (1 Bft) W-SW 247 ° 0,000 mm 10,2 °C 22,8 °C 3,2 km/h (1 Bft) 100,00 %
04.05.2026 11:45 22,7 °C 45 % 1015,5 hPa 0,0 l/m² 0,0 km/h (0 Bft) W-SW 247 ° 0,000 mm 10,1 °C 22,7 °C 1,6 km/h (1 Bft) 100,00 %
04.05.2026 11:44 22,6 °C 45 % 1015,6 hPa 0,0 l/m² 0,0 km/h (0 Bft) W-SW 247 ° 0,000 mm 10,1 °C 22,6 °C 1,6 km/h (1 Bft) 100,00 %
04.05.2026 11:43 22,7 °C 45 % 1015,6 hPa 0,0 l/m² 0,0 km/h (0 Bft) W 270 ° 0,000 mm 10,1 °C 22,7 °C 3,2 km/h (1 Bft) 100,00 %
04.05.2026 11:42 22,6 °C 46 % 1015,6 hPa 0,0 l/m² 4,8 km/h (1 Bft) W 270 ° 0,000 mm 10,4 °C 22,6 °C 8,0 km/h (2 Bft) 100,00 %
04.05.2026 11:41 22,6 °C 47 % 1015,7 hPa 0,0 l/m² 1,6 km/h (1 Bft) SW 225 ° 0,000 mm 10,7 °C 22,6 °C 4,8 km/h (1 Bft) 100,00 %
04.05.2026 11:40 22,5 °C 47 % 1015,7 hPa 0,0 l/m² 4,8 km/h (1 Bft) SW 225 ° 0,000 mm 10,6 °C 22,5 °C 6,4 km/h (2 Bft) 100,00 %
04.05.2026 11:39 22,4 °C 47 % 1015,8 hPa 0,0 l/m² 1,6 km/h (1 Bft) W 270 ° 0,000 mm 10,5 °C 22,4 °C 4,8 km/h (1 Bft) 100,00 %
04.05.2026 11:38 22,4 °C 47 % 1015,8 hPa 0,0 l/m² 3,2 km/h (1 Bft) W 270 ° 0,000 mm 10,5 °C 22,4 °C 6,4 km/h (2 Bft) 100,00 %
04.05.2026 11:37 22,4 °C 46 % 1015,8 hPa 0,0 l/m² 4,8 km/h (1 Bft) W 270 ° 0,000 mm 10,2 °C 22,4 °C 8,0 km/h (2 Bft) 100,00 %
04.05.2026 11:36 22,4 °C 47 % 1015,8 hPa 0,0 l/m² 6,4 km/h (2 Bft) W-NW 292 ° 0,000 mm 10,5 °C 22,4 °C 8,0 km/h (2 Bft) 100,00 %
04.05.2026 11:35 22,6 °C 47 % 1015,8 hPa 0,0 l/m² 6,4 km/h (2 Bft) W 270 ° 0,000 mm 10,7 °C 22,6 °C 8,0 km/h (2 Bft) 100,00 %
04.05.2026 11:34 22,6 °C 46 % 1015,8 hPa 0,0 l/m² 4,8 km/h (1 Bft) W 270 ° 0,000 mm 10,4 °C 22,6 °C 8,0 km/h (2 Bft) 100,00 %
04.05.2026 11:33 22,7 °C 48 % 1015,9 hPa 0,0 l/m² 6,4 km/h (2 Bft) W 270 ° 0,000 mm 11,1 °C 22,7 °C 9,7 km/h (2 Bft) 100,00 %
04.05.2026 11:32 22,7 °C 46 % 1015,8 hPa 0,0 l/m² 3,2 km/h (1 Bft) W 270 ° 0,000 mm 10,5 °C 22,7 °C 6,4 km/h (2 Bft) 100,00 %
04.05.2026 11:31 22,8 °C 46 % 1015,7 hPa 0,0 l/m² 6,4 km/h (2 Bft) W 270 ° 0,000 mm 10,6 °C 22,8 °C 9,7 km/h (2 Bft) 100,00 %
04.05.2026 11:30 22,8 °C 46 % 1015,8 hPa 0,0 l/m² 3,2 km/h (1 Bft) W 270 ° 0,000 mm 10,6 °C 22,8 °C 6,4 km/h (2 Bft) 100,00 %
04.05.2026 11:29 22,8 °C 46 % 1015,8 hPa 0,0 l/m² 1,6 km/h (1 Bft) S-SW 202 ° 0,000 mm 10,6 °C 22,8 °C 3,2 km/h (1 Bft) 100,00 %
04.05.2026 11:28 22,9 °C 45 % 1015,8 hPa 0,0 l/m² 1,6 km/h (1 Bft) S-SW 202 ° 0,000 mm 10,3 °C 22,9 °C 3,2 km/h (1 Bft) 100,00 %
04.05.2026 11:27 22,9 °C 45 % 1015,9 hPa 0,0 l/m² 0,0 km/h (0 Bft) W-SW 247 ° 0,000 mm 10,3 °C 22,9 °C 1,6 km/h (1 Bft) 100,00 %
04.05.2026 11:26 22,8 °C 45 % 1015,9 hPa 0,0 l/m² 3,2 km/h (1 Bft) S 180 ° 0,000 mm 10,2 °C 22,8 °C 6,4 km/h (2 Bft) 100,00 %
04.05.2026 11:25 22,8 °C 44 % 1015,8 hPa 0,0 l/m² 3,2 km/h (1 Bft) S 180 ° 0,000 mm 9,9 °C 22,8 °C 6,4 km/h (2 Bft) 100,00 %
04.05.2026 11:24 22,8 °C 45 % 1015,9 hPa 0,0 l/m² 3,2 km/h (1 Bft) SW 225 ° 0,000 mm 10,2 °C 22,8 °C 4,8 km/h (1 Bft) 100,00 %
04.05.2026 11:23 22,7 °C 45 % 1015,8 hPa 0,0 l/m² 1,6 km/h (1 Bft) W-SW 247 ° 0,000 mm 10,1 °C 22,7 °C 3,2 km/h (1 Bft) 100,00 %
04.05.2026 11:22 22,7 °C 45 % 1015,9 hPa 0,0 l/m² 6,4 km/h (2 Bft) SW 225 ° 0,000 mm 10,1 °C 22,7 °C 9,7 km/h (2 Bft) 100,00 %
04.05.2026 11:21 22,7 °C 46 % 1015,8 hPa 0,0 l/m² 3,2 km/h (1 Bft) W-SW 247 ° 0,000 mm 10,5 °C 22,7 °C 6,4 km/h (2 Bft) 100,00 %
04.05.2026 11:20 22,6 °C 47 % 1015,8 hPa 0,0 l/m² 1,6 km/h (1 Bft) SW 225 ° 0,000 mm 10,7 °C 22,6 °C 4,8 km/h (1 Bft) 100,00 %
04.05.2026 11:19 22,5 °C 47 % 1015,9 hPa 0,0 l/m² 0,0 km/h (0 Bft) SW 225 ° 0,000 mm 10,6 °C 22,5 °C 3,2 km/h (1 Bft) 100,00 %
04.05.2026 11:18 22,4 °C 46 % 1015,9 hPa 0,0 l/m² 3,2 km/h (1 Bft) W-SW 247 ° 0,000 mm 10,2 °C 22,4 °C 8,0 km/h (2 Bft) 100,00 %
04.05.2026 11:17 22,3 °C 48 % 1015,8 hPa 0,0 l/m² 3,2 km/h (1 Bft) W-SW 247 ° 0,000 mm 10,8 °C 22,3 °C 6,4 km/h (2 Bft) 100,00 %
04.05.2026 11:16 22,2 °C 48 % 1015,9 hPa 0,0 l/m² 1,6 km/h (1 Bft) W-SW 247 ° 0,000 mm 10,7 °C 22,2 °C 3,2 km/h (1 Bft) 100,00 %
04.05.2026 11:15 22,1 °C 48 % 1015,8 hPa 0,0 l/m² 1,6 km/h (1 Bft) W 270 ° 0,000 mm 10,6 °C 22,1 °C 6,4 km/h (2 Bft) 100,00 %
04.05.2026 11:14 22,0 °C 48 % 1015,9 hPa 0,0 l/m² 1,6 km/h (1 Bft) W 270 ° 0,000 mm 10,5 °C 22,0 °C 3,2 km/h (1 Bft) 100,00 %
04.05.2026 11:13 21,9 °C 47 % 1015,8 hPa 0,0 l/m² 4,8 km/h (1 Bft) W-SW 247 ° 0,000 mm 10,1 °C 21,9 °C 9,7 km/h (2 Bft) 100,00 %
04.05.2026 11:12 21,9 °C 47 % 1015,9 hPa 0,0 l/m² 3,2 km/h (1 Bft) SW 225 ° 0,000 mm 10,1 °C 21,9 °C 8,0 km/h (2 Bft) 100,00 %
04.05.2026 11:11 21,9 °C 47 % 1015,9 hPa 0,0 l/m² 3,2 km/h (1 Bft) SW 225 ° 0,000 mm 10,1 °C 21,9 °C 6,4 km/h (2 Bft) 100,00 %
04.05.2026 11:10 21,9 °C 47 % 1015,9 hPa 0,0 l/m² 4,8 km/h (1 Bft) SW 225 ° 0,000 mm 10,1 °C 21,9 °C 9,7 km/h (2 Bft) 100,00 %
04.05.2026 11:09 21,9 °C 47 % 1016,1 hPa 0,0 l/m² 9,7 km/h (2 Bft) W-SW 247 ° 0,000 mm 10,1 °C 20,8 °C 12,9 km/h (3 Bft) 100,00 %
04.05.2026 11:08 21,9 °C 46 % 1016,0 hPa 0,0 l/m² 6,4 km/h (2 Bft) W 270 ° 0,000 mm 9,7 °C 21,9 °C 11,3 km/h (2 Bft) 100,00 %
04.05.2026 11:07 21,9 °C 46 % 1015,9 hPa 0,0 l/m² 0,0 km/h (0 Bft) SW 225 ° 0,000 mm 9,7 °C 21,9 °C 1,6 km/h (1 Bft) 100,00 %
04.05.2026 11:06 21,8 °C 46 % 1016,0 hPa 0,0 l/m² 1,6 km/h (1 Bft) SW 225 ° 0,000 mm 9,7 °C 21,8 °C 3,2 km/h (1 Bft) 100,00 %
04.05.2026 11:05 21,8 °C 46 % 1016,0 hPa 0,0 l/m² 4,8 km/h (1 Bft) SW 225 ° 0,000 mm 9,7 °C 21,8 °C 6,4 km/h (2 Bft) 100,00 %
04.05.2026 11:04 21,8 °C 46 % 1016,0 hPa 0,0 l/m² 4,8 km/h (1 Bft) SW 225 ° 0,000 mm 9,7 °C 21,8 °C 6,4 km/h (2 Bft) 100,00 %
04.05.2026 11:03 21,9 °C 47 % 1016,1 hPa 0,0 l/m² 6,4 km/h (2 Bft) S-SW 202 ° 0,000 mm 10,1 °C 21,9 °C 11,3 km/h (2 Bft) 95,65 %
04.05.2026 11:02 21,9 °C 47 % 1016,0 hPa 0,0 l/m² 4,8 km/h (1 Bft) W-NW 292 ° 0,000 mm 10,1 °C 21,9 °C 9,7 km/h (2 Bft) 100,00 %
04.05.2026 11:01 21,9 °C 46 % 1016,0 hPa 0,0 l/m² 6,4 km/h (2 Bft) W-SW 247 ° 0,000 mm 9,7 °C 21,9 °C 9,7 km/h (2 Bft) 95,65 %
04.05.2026 11:00 21,9 °C 46 % 1016,0 hPa 0,0 l/m² 6,4 km/h (2 Bft) W-SW 247 ° 0,000 mm 9,7 °C 21,9 °C 9,7 km/h (2 Bft) 100,00 %
_ Min-Zeit 06:17 17:38 10:36 - 11:07 - - - 04:50 06:18 11:53 00:02
Minimum _ 10,9 °C 31 % 1008,9 hPa - 0,0 km/h (0 Bft) - - - 7,5 °C 10,9 °C 0,0 km/h (0 Bft) 0,00 %
_ Max-Zeit 16:00 06:21 11:03 11:00 22:19 - - 11:00 10:19 16:00 22:59 11:00
Maximum _ 27,3 °C 81 % 1016,1 hPa 0,0 l/m² 12,9 km/h
W-SW (3 Bft)
- - 0,000 mm 11,7 °C 27,3 °C 20,9 km/h
W (4 Bft)
100,00 %
Durchschnitt _ 20,1 °C 52 % 1011,6 hPa #0,0 l/m² 2,7 km/h (1 Bft) SW - #0,000 mm 9,3 °C 20,1 °C 4,8 km/h (1 Bft) 99,35 %